<?xml version='1.0' encoding='UTF-8'?><gpx version="1.1" creator="JPX - https://github.com/jenetics/jpx" xmlns="http://www.topografix.com/GPX/1/1"><trk><trkseg><trkpt lat="45.634358" lon="11.4153821"><ele>153.0</ele><time>2026-04-03T13:34:48.973Z</time></trkpt><trkpt lat="45.6343027" lon="11.4154379"><ele>153.0</ele><time>2026-04-03T13:35:45.972Z</time></trkpt><trkpt lat="45.6342457" lon="11.4155282"><ele>153.0</ele><time>2026-04-03T13:35:48.972Z</time></trkpt><trkpt lat="45.6342233" lon="11.4156549"><ele>153.0</ele><time>2026-04-03T13:35:50.972Z</time></trkpt><trkpt lat="45.6341541" lon="11.4157098"><ele>153.0</ele><time>2026-04-03T13:35:52.972Z</time></trkpt><trkpt lat="45.634057" lon="11.4158121"><ele>153.0</ele><time>2026-04-03T13:35:54.972Z</time></trkpt><trkpt lat="45.6339939" lon="11.4158773"><ele>153.0</ele><time>2026-04-03T13:35:55.972Z</time></trkpt><trkpt lat="45.6339378" lon="11.4159502"><ele>153.0</ele><time>2026-04-03T13:35:56.971Z</time></trkpt><trkpt lat="45.6338724" lon="11.4160246"><ele>153.0</ele><time>2026-04-03T13:35:57.973Z</time></trkpt><trkpt lat="45.6338219" lon="11.4161149"><ele>153.0</ele><time>2026-04-03T13:35:58.972Z</time></trkpt><trkpt lat="45.6337482" lon="11.4161788"><ele>153.0</ele><time>2026-04-03T13:35:59.972Z</time></trkpt><trkpt lat="45.6336617" lon="11.4161758"><ele>153.0</ele><time>2026-04-03T13:36:00.973Z</time></trkpt><trkpt lat="45.633587" lon="11.4161916"><ele>151.83333333333334</ele><time>2026-04-03T13:36:03.972Z</time></trkpt><trkpt lat="45.633527" lon="11.4161501"><ele>150.66666666666666</ele><time>2026-04-03T13:36:06.971Z</time></trkpt><trkpt lat="45.6334675" lon="11.4161032"><ele>149.5</ele><time>2026-04-03T13:36:09.972Z</time></trkpt><trkpt lat="45.633389" lon="11.4160174"><ele>148.33333333333331</ele><time>2026-04-03T13:36:12.973Z</time></trkpt><trkpt lat="45.6333263" lon="11.415971"><ele>147.16666666666666</ele><time>2026-04-03T13:36:14.971Z</time></trkpt><trkpt lat="45.6332616" lon="11.4159789"><ele>146.0</ele><time>2026-04-03T13:36:15.972Z</time></trkpt><trkpt lat="45.6331881" lon="11.4159108"><ele>146.0</ele><time>2026-04-03T13:36:17.973Z</time></trkpt><trkpt lat="45.6331208" lon="11.4158501"><ele>146.0</ele><time>2026-04-03T13:36:19.971Z</time></trkpt><trkpt lat="45.6330305" lon="11.4158257"><ele>146.0</ele><time>2026-04-03T13:36:21.972Z</time></trkpt><trkpt lat="45.6329521" lon="11.4158132"><ele>146.0</ele><time>2026-04-03T13:36:22.971Z</time></trkpt><trkpt lat="45.6328608" lon="11.4158213"><ele>146.0</ele><time>2026-04-03T13:36:24.971Z</time></trkpt><trkpt lat="45.6328119" lon="11.4157179"><ele>146.0</ele><time>2026-04-03T13:36:26.972Z</time></trkpt><trkpt lat="45.6327516" lon="11.4156229"><ele>145.4</ele><time>2026-04-03T13:36:28.972Z</time></trkpt><trkpt lat="45.6326853" lon="11.4154862"><ele>144.8</ele><time>2026-04-03T13:36:30.972Z</time></trkpt><trkpt lat="45.6326156" lon="11.4153806"><ele>144.20000000000002</ele><time>2026-04-03T13:36:32.972Z</time></trkpt><trkpt lat="45.6325488" lon="11.4152669"><ele>143.6</ele><time>2026-04-03T13:36:34.972Z</time></trkpt><trkpt lat="45.6325295" lon="11.4151228"><ele>143.0</ele><time>2026-04-03T13:36:36.971Z</time></trkpt><trkpt lat="45.6324916" lon="11.4150269"><ele>143.0</ele><time>2026-04-03T13:36:38.973Z</time></trkpt><trkpt lat="45.6324249" lon="11.4149276"><ele>143.0</ele><time>2026-04-03T13:36:41.972Z</time></trkpt><trkpt lat="45.632378" lon="11.414843"><ele>143.0</ele><time>2026-04-03T13:36:44.972Z</time></trkpt><trkpt lat="45.6322944" lon="11.4147492"><ele>143.0</ele><time>2026-04-03T13:36:46.972Z</time></trkpt><trkpt lat="45.6322026" lon="11.4146505"><ele>143.0</ele><time>2026-04-03T13:36:48.972Z</time></trkpt><trkpt lat="45.6321385" lon="11.4146027"><ele>146.0</ele><time>2026-04-03T13:36:49.971Z</time></trkpt><trkpt lat="45.6320477" lon="11.4144698"><ele>149.0</ele><time>2026-04-03T13:36:51.972Z</time></trkpt><trkpt lat="45.631969" lon="11.4144067"><ele>152.0</ele><time>2026-04-03T13:36:52.972Z</time></trkpt><trkpt lat="45.6319205" lon="11.414291"><ele>155.0</ele><time>2026-04-03T13:36:53.972Z</time></trkpt><trkpt lat="45.6318565" lon="11.4142926"><ele>158.0</ele><time>2026-04-03T13:36:54.972Z</time></trkpt><trkpt lat="45.6317774" lon="11.4142774"><ele>151.6</ele><time>2026-04-03T13:36:55.971Z</time></trkpt><trkpt lat="45.6316975" lon="11.4142801"><ele>145.20000000000002</ele><time>2026-04-03T13:36:56.972Z</time></trkpt><trkpt lat="45.6316324" lon="11.4142439"><ele>138.8</ele><time>2026-04-03T13:36:57.972Z</time></trkpt><trkpt lat="45.6315561" lon="11.4142104"><ele>132.4</ele><time>2026-04-03T13:36:58.972Z</time></trkpt><trkpt lat="45.6314456" lon="11.4141372"><ele>126.0</ele><time>2026-04-03T13:37:00.973Z</time></trkpt><trkpt lat="45.6313267" lon="11.4141436"><ele>126.0</ele><time>2026-04-03T13:37:02.973Z</time></trkpt><trkpt lat="45.6312384" lon="11.4143861"><ele>126.0</ele><time>2026-04-03T13:37:08.972Z</time></trkpt><trkpt lat="45.6312359" lon="11.4144826"><ele>126.0</ele><time>2026-04-03T13:37:09.971Z</time></trkpt><trkpt lat="45.6312338" lon="11.4145863"><ele>126.0</ele><time>2026-04-03T13:37:10.972Z</time></trkpt><trkpt lat="45.6312383" lon="11.4147123"><ele>126.0</ele><time>2026-04-03T13:37:11.972Z</time></trkpt><trkpt lat="45.6312554" lon="11.4148248"><ele>123.66666666666667</ele><time>2026-04-03T13:37:12.972Z</time></trkpt><trkpt lat="45.6313077" lon="11.4149147"><ele>121.33333333333334</ele><time>2026-04-03T13:37:13.972Z</time></trkpt><trkpt lat="45.6313582" lon="11.415008"><ele>119.0</ele><time>2026-04-03T13:37:14.971Z</time></trkpt><trkpt lat="45.6313858" lon="11.4150922"><ele>116.66666666666667</ele><time>2026-04-03T13:37:15.972Z</time></trkpt><trkpt lat="45.6313915" lon="11.4152275"><ele>114.33333333333334</ele><time>2026-04-03T13:37:16.972Z</time></trkpt><trkpt lat="45.6313851" lon="11.415357"><ele>112.0</ele><time>2026-04-03T13:37:17.973Z</time></trkpt><trkpt lat="45.6313337" lon="11.4154846"><ele>109.6</ele><time>2026-04-03T13:37:18.972Z</time></trkpt><trkpt lat="45.6312693" lon="11.4156145"><ele>107.19999999999999</ele><time>2026-04-03T13:37:19.972Z</time></trkpt><trkpt lat="45.6312073" lon="11.4157356"><ele>104.8</ele><time>2026-04-03T13:37:20.972Z</time></trkpt><trkpt lat="45.6311446" lon="11.4158664"><ele>102.4</ele><time>2026-04-03T13:37:21.971Z</time></trkpt><trkpt lat="45.6310904" lon="11.4159896"><ele>100.0</ele><time>2026-04-03T13:37:22.972Z</time></trkpt><trkpt lat="45.6310312" lon="11.4161001"><ele>98.50000000000001</ele><time>2026-04-03T13:37:23.972Z</time></trkpt><trkpt lat="45.6309414" lon="11.4161775"><ele>97.0</ele><time>2026-04-03T13:37:24.973Z</time></trkpt><trkpt lat="45.6308579" lon="11.4162414"><ele>95.5</ele><time>2026-04-03T13:37:25.972Z</time></trkpt><trkpt lat="45.6308059" lon="11.4163053"><ele>94.0</ele><time>2026-04-03T13:37:26.973Z</time></trkpt><trkpt lat="45.630756" lon="11.4163612"><ele>92.5</ele><time>2026-04-03T13:37:27.971Z</time></trkpt><trkpt lat="45.6306562" lon="11.4164171"><ele>91.0</ele><time>2026-04-03T13:37:29.973Z</time></trkpt><trkpt lat="45.6305906" lon="11.4163303"><ele>91.0</ele><time>2026-04-03T13:37:31.972Z</time></trkpt><trkpt lat="45.6305377" lon="11.4162108"><ele>91.0</ele><time>2026-04-03T13:37:33.972Z</time></trkpt><trkpt lat="45.6305009" lon="11.4160458"><ele>91.0</ele><time>2026-04-03T13:37:35.973Z</time></trkpt><trkpt lat="45.6304862" lon="11.415938"><ele>91.0</ele><time>2026-04-03T13:37:37.972Z</time></trkpt><trkpt lat="45.6304344" lon="11.4158584"><ele>91.0</ele><time>2026-04-03T13:37:39.972Z</time></trkpt><trkpt lat="45.6303872" lon="11.4157237"><ele>91.0</ele><time>2026-04-03T13:37:41.973Z</time></trkpt><trkpt lat="45.6303435" lon="11.415618"><ele>91.0</ele><time>2026-04-03T13:37:43.971Z</time></trkpt><trkpt lat="45.6303087" lon="11.4155145"><ele>91.0</ele><time>2026-04-03T13:37:45.972Z</time></trkpt><trkpt lat="45.6302594" lon="11.4154036"><ele>91.0</ele><time>2026-04-03T13:37:47.971Z</time></trkpt><trkpt lat="45.6302225" lon="11.4152915"><ele>91.0</ele><time>2026-04-03T13:37:49.972Z</time></trkpt><trkpt lat="45.6301817" lon="11.4151975"><ele>91.0</ele><time>2026-04-03T13:37:51.972Z</time></trkpt><trkpt lat="45.6301396" lon="11.4151039"><ele>90.66666666666666</ele><time>2026-04-03T13:37:53.971Z</time></trkpt><trkpt lat="45.6300973" lon="11.4150124"><ele>90.33333333333333</ele><time>2026-04-03T13:37:55.973Z</time></trkpt><trkpt lat="45.6300505" lon="11.4149154"><ele>90.0</ele><time>2026-04-03T13:37:57.971Z</time></trkpt><trkpt lat="45.6300044" lon="11.4148119"><ele>89.66666666666667</ele><time>2026-04-03T13:37:59.972Z</time></trkpt><trkpt lat="45.6299549" lon="11.4147094"><ele>89.33333333333334</ele><time>2026-04-03T13:38:01.973Z</time></trkpt><trkpt lat="45.6299083" lon="11.4146206"><ele>89.0</ele><time>2026-04-03T13:38:03.972Z</time></trkpt><trkpt lat="45.629862" lon="11.4145261"><ele>90.0</ele><time>2026-04-03T13:38:05.972Z</time></trkpt><trkpt lat="45.6298014" lon="11.4144214"><ele>91.0</ele><time>2026-04-03T13:38:07.971Z</time></trkpt><trkpt lat="45.6297459" lon="11.414312"><ele>92.0</ele><time>2026-04-03T13:38:09.971Z</time></trkpt><trkpt lat="45.629687" lon="11.4142117"><ele>93.0</ele><time>2026-04-03T13:38:11.971Z</time></trkpt><trkpt lat="45.6296272" lon="11.4141156"><ele>94.0</ele><time>2026-04-03T13:38:13.971Z</time></trkpt><trkpt lat="45.6295735" lon="11.414018"><ele>94.0</ele><time>2026-04-03T13:38:15.971Z</time></trkpt><trkpt lat="45.6295304" lon="11.4139216"><ele>94.0</ele><time>2026-04-03T13:38:17.973Z</time></trkpt><trkpt lat="45.6294872" lon="11.413825"><ele>94.0</ele><time>2026-04-03T13:38:19.971Z</time></trkpt><trkpt lat="45.6294374" lon="11.413728"><ele>94.0</ele><time>2026-04-03T13:38:21.972Z</time></trkpt><trkpt lat="45.6293814" lon="11.4136416"><ele>94.0</ele><time>2026-04-03T13:38:23.971Z</time></trkpt><trkpt lat="45.6293222" lon="11.4135469"><ele>94.0</ele><time>2026-04-03T13:38:25.972Z</time></trkpt><trkpt lat="45.629268" lon="11.4134503"><ele>93.33333333333333</ele><time>2026-04-03T13:38:27.971Z</time></trkpt><trkpt lat="45.6292159" lon="11.4133589"><ele>92.66666666666666</ele><time>2026-04-03T13:38:29.973Z</time></trkpt><trkpt lat="45.6291526" lon="11.413269"><ele>92.0</ele><time>2026-04-03T13:38:31.973Z</time></trkpt><trkpt lat="45.629093" lon="11.4131791"><ele>91.33333333333333</ele><time>2026-04-03T13:38:33.971Z</time></trkpt><trkpt lat="45.6290485" lon="11.4130885"><ele>90.66666666666667</ele><time>2026-04-03T13:38:35.972Z</time></trkpt><trkpt lat="45.6290078" lon="11.4130049"><ele>90.0</ele><time>2026-04-03T13:38:37.971Z</time></trkpt><trkpt lat="45.6289528" lon="11.412912"><ele>90.0</ele><time>2026-04-03T13:38:39.973Z</time></trkpt><trkpt lat="45.628891" lon="11.4128219"><ele>90.0</ele><time>2026-04-03T13:38:41.972Z</time></trkpt><trkpt lat="45.6288331" lon="11.4127227"><ele>90.0</ele><time>2026-04-03T13:38:43.972Z</time></trkpt><trkpt lat="45.6287835" lon="11.412608"><ele>90.0</ele><time>2026-04-03T13:38:45.972Z</time></trkpt><trkpt lat="45.628738" lon="11.4124885"><ele>90.0</ele><time>2026-04-03T13:38:47.971Z</time></trkpt><trkpt lat="45.6286979" lon="11.4123768"><ele>90.0</ele><time>2026-04-03T13:38:49.972Z</time></trkpt><trkpt lat="45.6286612" lon="11.4122675"><ele>90.0</ele><time>2026-04-03T13:38:51.972Z</time></trkpt><trkpt lat="45.6286251" lon="11.4121555"><ele>90.0</ele><time>2026-04-03T13:38:53.972Z</time></trkpt><trkpt lat="45.6285952" lon="11.4120548"><ele>90.0</ele><time>2026-04-03T13:38:55.972Z</time></trkpt><trkpt lat="45.6285703" lon="11.4119489"><ele>90.0</ele><time>2026-04-03T13:38:57.972Z</time></trkpt><trkpt lat="45.6285433" lon="11.4118362"><ele>90.0</ele><time>2026-04-03T13:38:59.972Z</time></trkpt><trkpt lat="45.6285224" lon="11.4117356"><ele>89.33333333333333</ele><time>2026-04-03T13:39:01.972Z</time></trkpt><trkpt lat="45.6285167" lon="11.4116391"><ele>88.66666666666667</ele><time>2026-04-03T13:39:03.972Z</time></trkpt><trkpt lat="45.6285018" lon="11.4115319"><ele>88.0</ele><time>2026-04-03T13:39:05.972Z</time></trkpt><trkpt lat="45.6284795" lon="11.4114195"><ele>87.33333333333334</ele><time>2026-04-03T13:39:07.971Z</time></trkpt><trkpt lat="45.6284516" lon="11.4113049"><ele>86.66666666666667</ele><time>2026-04-03T13:39:09.972Z</time></trkpt><trkpt lat="45.6284166" lon="11.4111858"><ele>86.0</ele><time>2026-04-03T13:39:11.973Z</time></trkpt><trkpt lat="45.6283867" lon="11.4110758"><ele>86.0</ele><time>2026-04-03T13:39:13.971Z</time></trkpt><trkpt lat="45.6283596" lon="11.4109644"><ele>86.0</ele><time>2026-04-03T13:39:15.973Z</time></trkpt><trkpt lat="45.6283256" lon="11.4108507"><ele>86.0</ele><time>2026-04-03T13:39:17.971Z</time></trkpt><trkpt lat="45.6282926" lon="11.4107433"><ele>86.0</ele><time>2026-04-03T13:39:19.972Z</time></trkpt><trkpt lat="45.6282686" lon="11.4106354"><ele>86.0</ele><time>2026-04-03T13:39:21.971Z</time></trkpt><trkpt lat="45.6282481" lon="11.4105329"><ele>86.0</ele><time>2026-04-03T13:39:23.973Z</time></trkpt><trkpt lat="45.628229" lon="11.4104178"><ele>86.33333333333334</ele><time>2026-04-03T13:39:25.971Z</time></trkpt><trkpt lat="45.628218" lon="11.4102974"><ele>86.66666666666667</ele><time>2026-04-03T13:39:27.972Z</time></trkpt><trkpt lat="45.6282156" lon="11.4101768"><ele>87.0</ele><time>2026-04-03T13:39:29.973Z</time></trkpt><trkpt lat="45.6282179" lon="11.410058"><ele>87.33333333333333</ele><time>2026-04-03T13:39:31.972Z</time></trkpt><trkpt lat="45.6282246" lon="11.409946"><ele>87.66666666666666</ele><time>2026-04-03T13:39:33.971Z</time></trkpt><trkpt lat="45.6282462" lon="11.4098413"><ele>88.0</ele><time>2026-04-03T13:39:35.971Z</time></trkpt><trkpt lat="45.6282824" lon="11.4097499"><ele>88.16666666666666</ele><time>2026-04-03T13:39:37.971Z</time></trkpt><trkpt lat="45.6283147" lon="11.4096443"><ele>88.33333333333333</ele><time>2026-04-03T13:39:39.971Z</time></trkpt><trkpt lat="45.6283378" lon="11.4095381"><ele>88.5</ele><time>2026-04-03T13:39:41.971Z</time></trkpt><trkpt lat="45.6283538" lon="11.4094232"><ele>88.66666666666667</ele><time>2026-04-03T13:39:43.971Z</time></trkpt><trkpt lat="45.6283704" lon="11.4093062"><ele>88.83333333333334</ele><time>2026-04-03T13:39:45.971Z</time></trkpt><trkpt lat="45.6283804" lon="11.4092029"><ele>89.0</ele><time>2026-04-03T13:39:47.971Z</time></trkpt><trkpt lat="45.6283819" lon="11.4090685"><ele>89.0</ele><time>2026-04-03T13:39:49.971Z</time></trkpt><trkpt lat="45.6283787" lon="11.4089356"><ele>89.0</ele><time>2026-04-03T13:39:51.972Z</time></trkpt><trkpt lat="45.6283716" lon="11.4088125"><ele>89.0</ele><time>2026-04-03T13:39:53.97Z</time></trkpt><trkpt lat="45.6283577" lon="11.4086918"><ele>89.0</ele><time>2026-04-03T13:39:55.97Z</time></trkpt><trkpt lat="45.6283458" lon="11.4085715"><ele>89.0</ele><time>2026-04-03T13:39:57.971Z</time></trkpt><trkpt lat="45.6283345" lon="11.4084566"><ele>89.0</ele><time>2026-04-03T13:39:59.971Z</time></trkpt><trkpt lat="45.6283171" lon="11.4083387"><ele>89.0</ele><time>2026-04-03T13:40:01.97Z</time></trkpt><trkpt lat="45.6282997" lon="11.408227"><ele>89.0</ele><time>2026-04-03T13:40:03.971Z</time></trkpt><trkpt lat="45.6282773" lon="11.4081143"><ele>89.0</ele><time>2026-04-03T13:40:05.971Z</time></trkpt><trkpt lat="45.6282565" lon="11.4080036"><ele>89.0</ele><time>2026-04-03T13:40:07.971Z</time></trkpt><trkpt lat="45.628243" lon="11.4079125"><ele>89.0</ele><time>2026-04-03T13:40:09.97Z</time></trkpt><trkpt lat="45.6282245" lon="11.4077905"><ele>89.0</ele><time>2026-04-03T13:40:12.971Z</time></trkpt><trkpt lat="45.6282054" lon="11.4076675"><ele>89.16666666666667</ele><time>2026-04-03T13:40:15.97Z</time></trkpt><trkpt lat="45.6282025" lon="11.4075365"><ele>89.33333333333334</ele><time>2026-04-03T13:40:18.97Z</time></trkpt><trkpt lat="45.6281846" lon="11.4074076"><ele>89.5</ele><time>2026-04-03T13:40:21.971Z</time></trkpt><trkpt lat="45.6281622" lon="11.407287"><ele>89.66666666666667</ele><time>2026-04-03T13:40:24.971Z</time></trkpt><trkpt lat="45.6281352" lon="11.4071846"><ele>89.83333333333333</ele><time>2026-04-03T13:40:27.971Z</time></trkpt><trkpt lat="45.6281106" lon="11.4070921"><ele>90.0</ele><time>2026-04-03T13:40:30.97Z</time></trkpt><trkpt lat="45.6281011" lon="11.4069825"><ele>90.33333333333333</ele><time>2026-04-03T13:40:33.971Z</time></trkpt><trkpt lat="45.6280993" lon="11.4068536"><ele>90.66666666666667</ele><time>2026-04-03T13:40:36.97Z</time></trkpt><trkpt lat="45.6281045" lon="11.406741"><ele>91.0</ele><time>2026-04-03T13:40:39.97Z</time></trkpt><trkpt lat="45.628101" lon="11.4066242"><ele>91.33333333333334</ele><time>2026-04-03T13:40:42.971Z</time></trkpt><trkpt lat="45.6280796" lon="11.4064982"><ele>91.66666666666667</ele><time>2026-04-03T13:40:45.971Z</time></trkpt><trkpt lat="45.6280476" lon="11.4063835"><ele>92.0</ele><time>2026-04-03T13:40:48.971Z</time></trkpt><trkpt lat="45.6279815" lon="11.4062817"><ele>92.14285714285715</ele><time>2026-04-03T13:40:50.971Z</time></trkpt><trkpt lat="45.6279304" lon="11.4062222"><ele>92.28571428571428</ele><time>2026-04-03T13:40:51.971Z</time></trkpt><trkpt lat="45.6278797" lon="11.4061607"><ele>92.42857142857143</ele><time>2026-04-03T13:40:52.972Z</time></trkpt><trkpt lat="45.6278339" lon="11.4060941"><ele>92.57142857142858</ele><time>2026-04-03T13:40:53.971Z</time></trkpt><trkpt lat="45.627772" lon="11.405998"><ele>92.71428571428572</ele><time>2026-04-03T13:40:54.971Z</time></trkpt><trkpt lat="45.627742" lon="11.4059171"><ele>92.85714285714286</ele><time>2026-04-03T13:40:55.971Z</time></trkpt><trkpt lat="45.6276848" lon="11.405809"><ele>93.0</ele><time>2026-04-03T13:40:57.971Z</time></trkpt><trkpt lat="45.6276355" lon="11.4057383"><ele>92.66666666666667</ele><time>2026-04-03T13:40:59.97Z</time></trkpt><trkpt lat="45.6276062" lon="11.405656"><ele>92.33333333333333</ele><time>2026-04-03T13:41:00.97Z</time></trkpt><trkpt lat="45.6275333" lon="11.4055898"><ele>92.0</ele><time>2026-04-03T13:41:02.971Z</time></trkpt><trkpt lat="45.6274734" lon="11.4055418"><ele>91.66666666666666</ele><time>2026-04-03T13:41:04.97Z</time></trkpt><trkpt lat="45.6274092" lon="11.4054709"><ele>91.33333333333333</ele><time>2026-04-03T13:41:07.971Z</time></trkpt><trkpt lat="45.6273754" lon="11.4053894"><ele>91.0</ele><time>2026-04-03T13:41:10.97Z</time></trkpt><trkpt lat="45.6273169" lon="11.4053047"><ele>91.0</ele><time>2026-04-03T13:41:13.971Z</time></trkpt><trkpt lat="45.6272609" lon="11.4052521"><ele>91.0</ele><time>2026-04-03T13:41:15.97Z</time></trkpt><trkpt lat="45.6271939" lon="11.4051839"><ele>91.0</ele><time>2026-04-03T13:41:18.971Z</time></trkpt><trkpt lat="45.6271413" lon="11.4051114"><ele>91.0</ele><time>2026-04-03T13:41:21.971Z</time></trkpt><trkpt lat="45.6270874" lon="11.405036"><ele>91.0</ele><time>2026-04-03T13:41:24.97Z</time></trkpt><trkpt lat="45.6270252" lon="11.4049726"><ele>91.0</ele><time>2026-04-03T13:41:27.971Z</time></trkpt><trkpt lat="45.6269647" lon="11.4049199"><ele>91.0</ele><time>2026-04-03T13:41:30.971Z</time></trkpt><trkpt lat="45.6269017" lon="11.4048369"><ele>91.83333333333333</ele><time>2026-04-03T13:41:33.971Z</time></trkpt><trkpt lat="45.6268322" lon="11.4047568"><ele>92.66666666666666</ele><time>2026-04-03T13:41:36.971Z</time></trkpt><trkpt lat="45.6267691" lon="11.4046651"><ele>93.5</ele><time>2026-04-03T13:41:39.972Z</time></trkpt><trkpt lat="45.6267101" lon="11.4045822"><ele>94.33333333333333</ele><time>2026-04-03T13:41:42.971Z</time></trkpt><trkpt lat="45.6266545" lon="11.4044884"><ele>95.16666666666667</ele><time>2026-04-03T13:41:45.97Z</time></trkpt><trkpt lat="45.6265944" lon="11.4044283"><ele>96.0</ele><time>2026-04-03T13:41:48.971Z</time></trkpt><trkpt lat="45.6265304" lon="11.4043571"><ele>97.28571428571428</ele><time>2026-04-03T13:41:52.97Z</time></trkpt><trkpt lat="45.6264811" lon="11.4042797"><ele>98.57142857142857</ele><time>2026-04-03T13:41:55.971Z</time></trkpt><trkpt lat="45.6264504" lon="11.4041957"><ele>99.85714285714286</ele><time>2026-04-03T13:41:58.97Z</time></trkpt><trkpt lat="45.6264404" lon="11.4040923"><ele>101.14285714285714</ele><time>2026-04-03T13:42:03.972Z</time></trkpt><trkpt lat="45.6264427" lon="11.4039969"><ele>102.42857142857143</ele><time>2026-04-03T13:42:09.972Z</time></trkpt><trkpt lat="45.6264829" lon="11.4039206"><ele>103.71428571428571</ele><time>2026-04-03T13:42:14.97Z</time></trkpt><trkpt lat="45.6265206" lon="11.4038403"><ele>105.0</ele><time>2026-04-03T13:42:20.971Z</time></trkpt><trkpt lat="45.6265691" lon="11.4037596"><ele>105.42857142857143</ele><time>2026-04-03T13:42:25.97Z</time></trkpt><trkpt lat="45.6266067" lon="11.4036765"><ele>105.85714285714286</ele><time>2026-04-03T13:42:30.972Z</time></trkpt><trkpt lat="45.6266385" lon="11.4035957"><ele>106.28571428571428</ele><time>2026-04-03T13:42:34.971Z</time></trkpt><trkpt lat="45.6266697" lon="11.4034984"><ele>106.71428571428572</ele><time>2026-04-03T13:42:38.971Z</time></trkpt><trkpt lat="45.6266829" lon="11.403402"><ele>107.14285714285714</ele><time>2026-04-03T13:42:41.971Z</time></trkpt><trkpt lat="45.6266933" lon="11.4033024"><ele>107.57142857142857</ele><time>2026-04-03T13:42:44.971Z</time></trkpt><trkpt lat="45.6266994" lon="11.4032065"><ele>108.0</ele><time>2026-04-03T13:42:47.971Z</time></trkpt><trkpt lat="45.6267053" lon="11.4030934"><ele>108.0</ele><time>2026-04-03T13:42:51.97Z</time></trkpt><trkpt lat="45.6267148" lon="11.4029986"><ele>108.0</ele><time>2026-04-03T13:42:54.971Z</time></trkpt><trkpt lat="45.6267267" lon="11.4029083"><ele>108.0</ele><time>2026-04-03T13:42:57.97Z</time></trkpt><trkpt lat="45.6267308" lon="11.4028051"><ele>108.0</ele><time>2026-04-03T13:43:01.971Z</time></trkpt><trkpt lat="45.6267346" lon="11.4027044"><ele>108.0</ele><time>2026-04-03T13:43:05.97Z</time></trkpt><trkpt lat="45.6267405" lon="11.4026003"><ele>108.0</ele><time>2026-04-03T13:43:10.971Z</time></trkpt><trkpt lat="45.6267298" lon="11.4024871"><ele>108.0</ele><time>2026-04-03T13:43:14.971Z</time></trkpt><trkpt lat="45.6267089" lon="11.40238"><ele>108.57142857142857</ele><time>2026-04-03T13:43:18.971Z</time></trkpt><trkpt lat="45.6267106" lon="11.4022759"><ele>109.14285714285714</ele><time>2026-04-03T13:43:22.971Z</time></trkpt><trkpt lat="45.6267337" lon="11.4021707"><ele>109.71428571428572</ele><time>2026-04-03T13:43:26.971Z</time></trkpt><trkpt lat="45.6267386" lon="11.4020735"><ele>110.28571428571428</ele><time>2026-04-03T13:43:30.971Z</time></trkpt><trkpt lat="45.6267442" lon="11.4019734"><ele>110.85714285714286</ele><time>2026-04-03T13:43:34.971Z</time></trkpt><trkpt lat="45.6267191" lon="11.4018592"><ele>111.42857142857143</ele><time>2026-04-03T13:43:38.971Z</time></trkpt><trkpt lat="45.6266682" lon="11.4018005"><ele>112.0</ele><time>2026-04-03T13:43:43.97Z</time></trkpt><trkpt lat="45.6266046" lon="11.4018108"><ele>112.71428571428572</ele><time>2026-04-03T13:43:48.971Z</time></trkpt><trkpt lat="45.6265442" lon="11.4018616"><ele>113.42857142857143</ele><time>2026-04-03T13:43:54.971Z</time></trkpt><trkpt lat="45.6264734" lon="11.401899"><ele>114.14285714285714</ele><time>2026-04-03T13:43:59.97Z</time></trkpt><trkpt lat="45.6264001" lon="11.4019164"><ele>114.85714285714286</ele><time>2026-04-03T13:44:04.971Z</time></trkpt><trkpt lat="45.6263375" lon="11.4019444"><ele>115.57142857142858</ele><time>2026-04-03T13:44:10.971Z</time></trkpt><trkpt lat="45.6262701" lon="11.4019609"><ele>116.28571428571429</ele><time>2026-04-03T13:44:15.971Z</time></trkpt><trkpt lat="45.6262008" lon="11.4019965"><ele>117.0</ele><time>2026-04-03T13:44:21.972Z</time></trkpt><trkpt lat="45.6261409" lon="11.4020285"><ele>119.42857142857143</ele><time>2026-04-03T13:44:26.971Z</time></trkpt><trkpt lat="45.6260785" lon="11.40205"><ele>121.85714285714286</ele><time>2026-04-03T13:44:31.971Z</time></trkpt><trkpt lat="45.6260118" lon="11.4020206"><ele>124.28571428571429</ele><time>2026-04-03T13:44:37.97Z</time></trkpt><trkpt lat="45.6259386" lon="11.4020198"><ele>126.71428571428572</ele><time>2026-04-03T13:44:42.97Z</time></trkpt><trkpt lat="45.6258777" lon="11.4019846"><ele>129.14285714285714</ele><time>2026-04-03T13:44:51.971Z</time></trkpt><trkpt lat="45.6258696" lon="11.4018804"><ele>131.57142857142858</ele><time>2026-04-03T13:44:59.971Z</time></trkpt><trkpt lat="45.6258678" lon="11.401777"><ele>134.0</ele><time>2026-04-03T13:45:05.972Z</time></trkpt><trkpt lat="45.6258558" lon="11.4016869"><ele>134.0</ele><time>2026-04-03T13:45:11.971Z</time></trkpt><trkpt lat="45.6258449" lon="11.4015857"><ele>134.0</ele><time>2026-04-03T13:45:18.972Z</time></trkpt><trkpt lat="45.6258693" lon="11.4014891"><ele>134.0</ele><time>2026-04-03T13:45:24.971Z</time></trkpt><trkpt lat="45.625872" lon="11.4013916"><ele>134.0</ele><time>2026-04-03T13:45:29.972Z</time></trkpt><trkpt lat="45.6259026" lon="11.4013082"><ele>134.0</ele><time>2026-04-03T13:45:36.971Z</time></trkpt><trkpt lat="45.625901" lon="11.4012018"><ele>134.0</ele><time>2026-04-03T13:45:42.972Z</time></trkpt><trkpt lat="45.6258971" lon="11.4010969"><ele>134.0</ele><time>2026-04-03T13:45:47.97Z</time></trkpt><trkpt lat="45.6258894" lon="11.4010009"><ele>135.28571428571428</ele><time>2026-04-03T13:45:51.971Z</time></trkpt><trkpt lat="45.6258794" lon="11.400911"><ele>136.57142857142856</ele><time>2026-04-03T13:45:56.971Z</time></trkpt><trkpt lat="45.6258741" lon="11.4008181"><ele>137.85714285714283</ele><time>2026-04-03T13:46:03.971Z</time></trkpt><trkpt lat="45.6258538" lon="11.4007299"><ele>139.14285714285714</ele><time>2026-04-03T13:46:08.971Z</time></trkpt><trkpt lat="45.6258122" lon="11.400656"><ele>140.42857142857142</ele><time>2026-04-03T13:46:13.971Z</time></trkpt><trkpt lat="45.6257748" lon="11.4005825"><ele>141.7142857142857</ele><time>2026-04-03T13:46:18.971Z</time></trkpt><trkpt lat="45.6257099" lon="11.4005586"><ele>143.0</ele><time>2026-04-03T13:46:24.971Z</time></trkpt><trkpt lat="45.6256704" lon="11.4004738"><ele>143.7142857142857</ele><time>2026-04-03T13:46:31.971Z</time></trkpt><trkpt lat="45.6256532" lon="11.4003826"><ele>144.42857142857142</ele><time>2026-04-03T13:46:37.971Z</time></trkpt><trkpt lat="45.6255957" lon="11.4003413"><ele>145.14285714285714</ele><time>2026-04-03T13:46:43.971Z</time></trkpt><trkpt lat="45.6255273" lon="11.4003412"><ele>145.85714285714283</ele><time>2026-04-03T13:46:49.971Z</time></trkpt><trkpt lat="45.6254593" lon="11.4003289"><ele>146.57142857142856</ele><time>2026-04-03T13:46:55.97Z</time></trkpt><trkpt lat="45.6253899" lon="11.4003316"><ele>147.28571428571428</ele><time>2026-04-03T13:47:00.971Z</time></trkpt><trkpt lat="45.625308" lon="11.4003317"><ele>148.0</ele><time>2026-04-03T13:47:05.971Z</time></trkpt><trkpt lat="45.6252355" lon="11.4003285"><ele>149.71428571428572</ele><time>2026-04-03T13:47:11.972Z</time></trkpt><trkpt lat="45.6251738" lon="11.4003105"><ele>151.42857142857142</ele><time>2026-04-03T13:47:16.971Z</time></trkpt><trkpt lat="45.6251033" lon="11.4002954"><ele>153.14285714285714</ele><time>2026-04-03T13:47:21.972Z</time></trkpt><trkpt lat="45.6250339" lon="11.4003013"><ele>154.85714285714286</ele><time>2026-04-03T13:47:25.97Z</time></trkpt><trkpt lat="45.6249566" lon="11.4002966"><ele>156.57142857142858</ele><time>2026-04-03T13:47:31.971Z</time></trkpt><trkpt lat="45.6248919" lon="11.4002953"><ele>158.28571428571428</ele><time>2026-04-03T13:47:36.97Z</time></trkpt><trkpt lat="45.6248235" lon="11.4002839"><ele>160.0</ele><time>2026-04-03T13:47:41.971Z</time></trkpt><trkpt lat="45.6247513" lon="11.4002877"><ele>160.0</ele><time>2026-04-03T13:47:46.971Z</time></trkpt><trkpt lat="45.6246817" lon="11.4002925"><ele>160.0</ele><time>2026-04-03T13:47:51.97Z</time></trkpt><trkpt lat="45.6246096" lon="11.4003054"><ele>160.0</ele><time>2026-04-03T13:47:56.971Z</time></trkpt><trkpt lat="45.6245487" lon="11.4003348"><ele>160.0</ele><time>2026-04-03T13:48:02.971Z</time></trkpt><trkpt lat="45.6244894" lon="11.4003775"><ele>160.0</ele><time>2026-04-03T13:48:07.972Z</time></trkpt><trkpt lat="45.6244252" lon="11.4003991"><ele>160.0</ele><time>2026-04-03T13:48:12.971Z</time></trkpt><trkpt lat="45.624357" lon="11.4004349"><ele>160.0</ele><time>2026-04-03T13:48:18.97Z</time></trkpt><trkpt lat="45.6242843" lon="11.4004666"><ele>160.14285714285714</ele><time>2026-04-03T13:48:24.971Z</time></trkpt><trkpt lat="45.6242214" lon="11.4004757"><ele>160.28571428571428</ele><time>2026-04-03T13:48:30.97Z</time></trkpt><trkpt lat="45.6241587" lon="11.4004973"><ele>160.42857142857144</ele><time>2026-04-03T13:48:36.971Z</time></trkpt><trkpt lat="45.6240936" lon="11.4005338"><ele>160.57142857142856</ele><time>2026-04-03T13:48:41.971Z</time></trkpt><trkpt lat="45.6240269" lon="11.4005313"><ele>160.71428571428572</ele><time>2026-04-03T13:48:46.971Z</time></trkpt><trkpt lat="45.6239622" lon="11.4005378"><ele>160.85714285714286</ele><time>2026-04-03T13:48:50.971Z</time></trkpt><trkpt lat="45.6238935" lon="11.4005535"><ele>161.0</ele><time>2026-04-03T13:48:56.972Z</time></trkpt><trkpt lat="45.623836" lon="11.4005913"><ele>161.0</ele><time>2026-04-03T13:49:00.971Z</time></trkpt><trkpt lat="45.6237585" lon="11.4006021"><ele>161.0</ele><time>2026-04-03T13:49:04.972Z</time></trkpt><trkpt lat="45.6236844" lon="11.400592"><ele>161.0</ele><time>2026-04-03T13:49:09.972Z</time></trkpt><trkpt lat="45.6236155" lon="11.4005525"><ele>161.0</ele><time>2026-04-03T13:49:15.97Z</time></trkpt><trkpt lat="45.6235498" lon="11.4005133"><ele>161.0</ele><time>2026-04-03T13:49:19.97Z</time></trkpt><trkpt lat="45.6234763" lon="11.4005051"><ele>161.0</ele><time>2026-04-03T13:49:23.971Z</time></trkpt><trkpt lat="45.6233999" lon="11.4004977"><ele>161.0</ele><time>2026-04-03T13:49:27.971Z</time></trkpt><trkpt lat="45.6233372" lon="11.400452"><ele>163.85714285714286</ele><time>2026-04-03T13:49:31.971Z</time></trkpt><trkpt lat="45.6232849" lon="11.4003661"><ele>166.71428571428572</ele><time>2026-04-03T13:49:36.97Z</time></trkpt><trkpt lat="45.6233117" lon="11.4002846"><ele>169.57142857142856</ele><time>2026-04-03T13:49:42.971Z</time></trkpt><trkpt lat="45.6233574" lon="11.4001994"><ele>172.42857142857144</ele><time>2026-04-03T13:49:50.97Z</time></trkpt><trkpt lat="45.623429" lon="11.4001802"><ele>175.28571428571428</ele><time>2026-04-03T13:49:56.97Z</time></trkpt><trkpt lat="45.6235033" lon="11.4001643"><ele>178.14285714285714</ele><time>2026-04-03T13:50:02.971Z</time></trkpt><trkpt lat="45.6235628" lon="11.4001028"><ele>181.0</ele><time>2026-04-03T13:50:07.971Z</time></trkpt><trkpt lat="45.623621" lon="11.4000486"><ele>181.85714285714286</ele><time>2026-04-03T13:50:11.972Z</time></trkpt><trkpt lat="45.6236639" lon="11.399954"><ele>182.71428571428572</ele><time>2026-04-03T13:50:16.97Z</time></trkpt><trkpt lat="45.6236989" lon="11.3998673"><ele>183.57142857142856</ele><time>2026-04-03T13:50:21.972Z</time></trkpt><trkpt lat="45.6237376" lon="11.39979"><ele>184.42857142857144</ele><time>2026-04-03T13:50:26.971Z</time></trkpt><trkpt lat="45.6237828" lon="11.3997174"><ele>185.2857142857143</ele><time>2026-04-03T13:50:30.97Z</time></trkpt><trkpt lat="45.6238329" lon="11.3996539"><ele>186.14285714285714</ele><time>2026-04-03T13:50:36.972Z</time></trkpt><trkpt lat="45.6238819" lon="11.3995957"><ele>187.0</ele><time>2026-04-03T13:50:42.97Z</time></trkpt><trkpt lat="45.6239394" lon="11.3995261"><ele>187.0</ele><time>2026-04-03T13:50:48.971Z</time></trkpt><trkpt lat="45.6239793" lon="11.3994438"><ele>187.0</ele><time>2026-04-03T13:50:54.971Z</time></trkpt><trkpt lat="45.624025" lon="11.3993678"><ele>187.0</ele><time>2026-04-03T13:51:00.972Z</time></trkpt><trkpt lat="45.6240442" lon="11.3992801"><ele>187.0</ele><time>2026-04-03T13:51:04.97Z</time></trkpt><trkpt lat="45.6240733" lon="11.3991811"><ele>187.0</ele><time>2026-04-03T13:51:09.972Z</time></trkpt><trkpt lat="45.6241142" lon="11.3991045"><ele>187.0</ele><time>2026-04-03T13:51:14.972Z</time></trkpt><trkpt lat="45.6241583" lon="11.3990326"><ele>187.0</ele><time>2026-04-03T13:51:21.972Z</time></trkpt><trkpt lat="45.6242117" lon="11.3989827"><ele>187.0</ele><time>2026-04-03T13:51:27.97Z</time></trkpt><trkpt lat="45.6242639" lon="11.3989162"><ele>187.0</ele><time>2026-04-03T13:51:34.971Z</time></trkpt><trkpt lat="45.6242976" lon="11.3988401"><ele>187.0</ele><time>2026-04-03T13:51:41.971Z</time></trkpt><trkpt lat="45.6243222" lon="11.3987518"><ele>187.0</ele><time>2026-04-03T13:51:46.971Z</time></trkpt><trkpt lat="45.6243374" lon="11.3986639"><ele>187.0</ele><time>2026-04-03T13:51:50.971Z</time></trkpt><trkpt lat="45.6243891" lon="11.3986027"><ele>187.0</ele><time>2026-04-03T13:51:58.971Z</time></trkpt><trkpt lat="45.624439" lon="11.3985297"><ele>187.0</ele><time>2026-04-03T13:52:06.971Z</time></trkpt><trkpt lat="45.6244728" lon="11.3984512"><ele>186.14285714285714</ele><time>2026-04-03T13:52:14.972Z</time></trkpt><trkpt lat="45.6244977" lon="11.3983584"><ele>185.2857142857143</ele><time>2026-04-03T13:52:18.971Z</time></trkpt><trkpt lat="45.6245167" lon="11.3982621"><ele>184.42857142857144</ele><time>2026-04-03T13:52:23.971Z</time></trkpt><trkpt lat="45.6245514" lon="11.3981644"><ele>183.57142857142856</ele><time>2026-04-03T13:52:29.97Z</time></trkpt><trkpt lat="45.6245912" lon="11.3980931"><ele>182.71428571428572</ele><time>2026-04-03T13:52:34.969Z</time></trkpt><trkpt lat="45.6246143" lon="11.3980092"><ele>181.85714285714286</ele><time>2026-04-03T13:52:38.97Z</time></trkpt><trkpt lat="45.6246335" lon="11.3979092"><ele>181.0</ele><time>2026-04-03T13:52:45.97Z</time></trkpt><trkpt lat="45.6246439" lon="11.3978095"><ele>182.85714285714286</ele><time>2026-04-03T13:52:50.971Z</time></trkpt><trkpt lat="45.6246793" lon="11.3977211"><ele>184.71428571428572</ele><time>2026-04-03T13:52:54.971Z</time></trkpt><trkpt lat="45.6247163" lon="11.3976207"><ele>186.57142857142856</ele><time>2026-04-03T13:52:59.969Z</time></trkpt><trkpt lat="45.6247337" lon="11.3975257"><ele>188.42857142857144</ele><time>2026-04-03T13:53:02.969Z</time></trkpt><trkpt lat="45.6247404" lon="11.3974161"><ele>190.2857142857143</ele><time>2026-04-03T13:53:05.969Z</time></trkpt><trkpt lat="45.6247484" lon="11.397316"><ele>192.14285714285714</ele><time>2026-04-03T13:53:08.97Z</time></trkpt><trkpt lat="45.624754" lon="11.3972128"><ele>194.0</ele><time>2026-04-03T13:53:11.97Z</time></trkpt><trkpt lat="45.6247632" lon="11.3970863"><ele>195.57142857142856</ele><time>2026-04-03T13:53:14.97Z</time></trkpt><trkpt lat="45.624759" lon="11.3969914"><ele>197.14285714285717</ele><time>2026-04-03T13:53:16.971Z</time></trkpt><trkpt lat="45.6247442" lon="11.3968765"><ele>198.71428571428572</ele><time>2026-04-03T13:53:19.969Z</time></trkpt><trkpt lat="45.6247375" lon="11.3967827"><ele>200.28571428571428</ele><time>2026-04-03T13:53:22.969Z</time></trkpt><trkpt lat="45.6247583" lon="11.3966956"><ele>201.85714285714283</ele><time>2026-04-03T13:53:25.97Z</time></trkpt><trkpt lat="45.6247955" lon="11.3966028"><ele>203.42857142857144</ele><time>2026-04-03T13:53:29.971Z</time></trkpt><trkpt lat="45.6248284" lon="11.3965055"><ele>205.0</ele><time>2026-04-03T13:53:34.97Z</time></trkpt><trkpt lat="45.6248462" lon="11.3964018"><ele>205.85714285714286</ele><time>2026-04-03T13:53:38.97Z</time></trkpt><trkpt lat="45.6248687" lon="11.3963136"><ele>206.7142857142857</ele><time>2026-04-03T13:53:41.969Z</time></trkpt><trkpt lat="45.624902" lon="11.3962095"><ele>207.57142857142856</ele><time>2026-04-03T13:53:45.97Z</time></trkpt><trkpt lat="45.6248987" lon="11.3961024"><ele>208.42857142857144</ele><time>2026-04-03T13:53:50.969Z</time></trkpt><trkpt lat="45.624898" lon="11.3960014"><ele>209.28571428571428</ele><time>2026-04-03T13:53:53.97Z</time></trkpt><trkpt lat="45.6248959" lon="11.3959059"><ele>210.14285714285714</ele><time>2026-04-03T13:53:56.97Z</time></trkpt><trkpt lat="45.6248793" lon="11.3957895"><ele>211.0</ele><time>2026-04-03T13:53:59.97Z</time></trkpt><trkpt lat="45.6248702" lon="11.3956554"><ele>211.0</ele><time>2026-04-03T13:54:02.97Z</time></trkpt><trkpt lat="45.6248814" lon="11.3955286"><ele>211.0</ele><time>2026-04-03T13:54:05.97Z</time></trkpt><trkpt lat="45.6248993" lon="11.3954291"><ele>211.0</ele><time>2026-04-03T13:54:08.971Z</time></trkpt><trkpt lat="45.6249168" lon="11.3953416"><ele>211.0</ele><time>2026-04-03T13:54:11.969Z</time></trkpt><trkpt lat="45.6249282" lon="11.3952496"><ele>211.0</ele><time>2026-04-03T13:54:14.97Z</time></trkpt><trkpt lat="45.6249334" lon="11.3951458"><ele>211.0</ele><time>2026-04-03T13:54:17.97Z</time></trkpt><trkpt lat="45.6249616" lon="11.3950454"><ele>211.0</ele><time>2026-04-03T13:54:20.969Z</time></trkpt><trkpt lat="45.6249907" lon="11.3949598"><ele>211.42857142857144</ele><time>2026-04-03T13:54:23.97Z</time></trkpt><trkpt lat="45.6250043" lon="11.3948634"><ele>211.85714285714286</ele><time>2026-04-03T13:54:26.97Z</time></trkpt><trkpt lat="45.6250119" lon="11.39476"><ele>212.28571428571428</ele><time>2026-04-03T13:54:30.971Z</time></trkpt><trkpt lat="45.6250147" lon="11.3946652"><ele>212.71428571428572</ele><time>2026-04-03T13:54:33.969Z</time></trkpt><trkpt lat="45.625004" lon="11.3945564"><ele>213.14285714285714</ele><time>2026-04-03T13:54:36.97Z</time></trkpt><trkpt lat="45.6250059" lon="11.3944509"><ele>213.57142857142858</ele><time>2026-04-03T13:54:39.97Z</time></trkpt><trkpt lat="45.6249921" lon="11.3943541"><ele>214.0</ele><time>2026-04-03T13:54:43.969Z</time></trkpt><trkpt lat="45.6249917" lon="11.3942396"><ele>214.49999999999997</ele><time>2026-04-03T13:54:45.969Z</time></trkpt><trkpt lat="45.6249792" lon="11.3941082"><ele>215.0</ele><time>2026-04-03T13:54:47.97Z</time></trkpt><trkpt lat="45.6249793" lon="11.3940169"><ele>215.5</ele><time>2026-04-03T13:54:49.97Z</time></trkpt><trkpt lat="45.6250097" lon="11.3939148"><ele>216.0</ele><time>2026-04-03T13:54:52.97Z</time></trkpt><trkpt lat="45.6250449" lon="11.3938088"><ele>216.49999999999997</ele><time>2026-04-03T13:54:55.971Z</time></trkpt><trkpt lat="45.6250662" lon="11.3937101"><ele>217.0</ele><time>2026-04-03T13:54:58.97Z</time></trkpt><trkpt lat="45.6250872" lon="11.3936022"><ele>218.0</ele><time>2026-04-03T13:55:01.971Z</time></trkpt><trkpt lat="45.6250811" lon="11.3934809"><ele>219.0</ele><time>2026-04-03T13:55:04.971Z</time></trkpt><trkpt lat="45.6250783" lon="11.3933725"><ele>220.0</ele><time>2026-04-03T13:55:07.971Z</time></trkpt><trkpt lat="45.6251275" lon="11.3932948"><ele>221.0</ele><time>2026-04-03T13:55:12.969Z</time></trkpt><trkpt lat="45.625183" lon="11.3932319"><ele>222.0</ele><time>2026-04-03T13:55:15.97Z</time></trkpt><trkpt lat="45.6252318" lon="11.3931465"><ele>223.0</ele><time>2026-04-03T13:55:18.971Z</time></trkpt><trkpt lat="45.6252792" lon="11.393087"><ele>224.0</ele><time>2026-04-03T13:55:20.97Z</time></trkpt><trkpt lat="45.6253359" lon="11.3929841"><ele>221.71428571428572</ele><time>2026-04-03T13:55:23.97Z</time></trkpt><trkpt lat="45.6253713" lon="11.3929053"><ele>219.42857142857144</ele><time>2026-04-03T13:55:25.971Z</time></trkpt><trkpt lat="45.62539" lon="11.3928106"><ele>217.14285714285714</ele><time>2026-04-03T13:55:27.97Z</time></trkpt><trkpt lat="45.6253993" lon="11.3926937"><ele>214.85714285714286</ele><time>2026-04-03T13:55:29.97Z</time></trkpt><trkpt lat="45.6254114" lon="11.3925763"><ele>212.57142857142858</ele><time>2026-04-03T13:55:32.969Z</time></trkpt><trkpt lat="45.6254306" lon="11.3924901"><ele>210.28571428571428</ele><time>2026-04-03T13:55:34.969Z</time></trkpt><trkpt lat="45.6254607" lon="11.3923823"><ele>208.0</ele><time>2026-04-03T13:55:36.97Z</time></trkpt><trkpt lat="45.625486" lon="11.392273"><ele>207.99999999999997</ele><time>2026-04-03T13:55:38.97Z</time></trkpt><trkpt lat="45.6255292" lon="11.392181"><ele>208.0</ele><time>2026-04-03T13:55:41.969Z</time></trkpt><trkpt lat="45.6255865" lon="11.3921178"><ele>208.0</ele><time>2026-04-03T13:55:44.971Z</time></trkpt><trkpt lat="45.6256508" lon="11.3920612"><ele>208.0</ele><time>2026-04-03T13:55:48.969Z</time></trkpt><trkpt lat="45.6257166" lon="11.3919757"><ele>207.99999999999997</ele><time>2026-04-03T13:55:51.969Z</time></trkpt><trkpt lat="45.6257807" lon="11.391885"><ele>208.0</ele><time>2026-04-03T13:55:54.97Z</time></trkpt><trkpt lat="45.6258522" lon="11.3918184"><ele>210.33333333333331</ele><time>2026-04-03T13:55:57.97Z</time></trkpt><trkpt lat="45.6259229" lon="11.3917382"><ele>212.66666666666666</ele><time>2026-04-03T13:56:00.97Z</time></trkpt><trkpt lat="45.6259812" lon="11.3916796"><ele>215.0</ele><time>2026-04-03T13:56:03.97Z</time></trkpt><trkpt lat="45.6260346" lon="11.3916301"><ele>217.33333333333331</ele><time>2026-04-03T13:56:07.97Z</time></trkpt><trkpt lat="45.6261127" lon="11.3916512"><ele>219.66666666666666</ele><time>2026-04-03T13:56:12.97Z</time></trkpt><trkpt lat="45.6262405" lon="11.3916692"><ele>222.0</ele><time>2026-04-03T13:56:21.97Z</time></trkpt><trkpt lat="45.6262872" lon="11.3916073"><ele>227.0</ele><time>2026-04-03T13:56:49.971Z</time></trkpt><trkpt lat="45.6273952" lon="11.3914129"><ele>227.00000000000003</ele><time>2026-04-03T13:57:52.97Z</time></trkpt><trkpt lat="45.6274784" lon="11.3913952"><ele>227.0</ele><time>2026-04-03T13:57:55.97Z</time></trkpt><trkpt lat="45.6275535" lon="11.3913714"><ele>227.0</ele><time>2026-04-03T13:57:58.97Z</time></trkpt><trkpt lat="45.627635" lon="11.3913355"><ele>227.0</ele><time>2026-04-03T13:58:01.97Z</time></trkpt><trkpt lat="45.6277245" lon="11.3913151"><ele>227.00000000000003</ele><time>2026-04-03T13:58:04.97Z</time></trkpt><trkpt lat="45.6277879" lon="11.3912725"><ele>227.0</ele><time>2026-04-03T13:58:07.97Z</time></trkpt><trkpt lat="45.6278597" lon="11.3912253"><ele>229.33333333333334</ele><time>2026-04-03T13:58:11.97Z</time></trkpt><trkpt lat="45.6279326" lon="11.3912148"><ele>231.66666666666669</ele><time>2026-04-03T13:58:14.969Z</time></trkpt><trkpt lat="45.6279975" lon="11.3912018"><ele>234.0</ele><time>2026-04-03T13:58:17.97Z</time></trkpt><trkpt lat="45.6280722" lon="11.3911884"><ele>236.33333333333331</ele><time>2026-04-03T13:58:21.971Z</time></trkpt><trkpt lat="45.6281404" lon="11.3911397"><ele>238.66666666666666</ele><time>2026-04-03T13:58:25.97Z</time></trkpt><trkpt lat="45.6282019" lon="11.39111"><ele>241.0</ele><time>2026-04-03T13:58:29.969Z</time></trkpt><trkpt lat="45.6283589" lon="11.3911075"><ele>240.99999999999997</ele><time>2026-04-03T13:58:34.971Z</time></trkpt><trkpt lat="45.6284319" lon="11.3910518"><ele>241.0</ele><time>2026-04-03T13:58:36.97Z</time></trkpt><trkpt lat="45.6284727" lon="11.3909463"><ele>241.0</ele><time>2026-04-03T13:58:39.97Z</time></trkpt><trkpt lat="45.6285447" lon="11.3908785"><ele>241.0</ele><time>2026-04-03T13:58:42.971Z</time></trkpt><trkpt lat="45.6285918" lon="11.3908134"><ele>240.99999999999997</ele><time>2026-04-03T13:58:44.97Z</time></trkpt><trkpt lat="45.6286237" lon="11.3907318"><ele>241.0</ele><time>2026-04-03T13:58:46.97Z</time></trkpt><trkpt lat="45.6286703" lon="11.3906181"><ele>242.71428571428572</ele><time>2026-04-03T13:58:49.969Z</time></trkpt><trkpt lat="45.6287172" lon="11.3905237"><ele>244.42857142857144</ele><time>2026-04-03T13:58:52.97Z</time></trkpt><trkpt lat="45.6287532" lon="11.390418"><ele>246.14285714285717</ele><time>2026-04-03T13:58:56.97Z</time></trkpt><trkpt lat="45.6288104" lon="11.3903771"><ele>247.8571428571429</ele><time>2026-04-03T13:59:00.97Z</time></trkpt><trkpt lat="45.6288704" lon="11.3903115"><ele>249.57142857142858</ele><time>2026-04-03T13:59:06.97Z</time></trkpt><trkpt lat="45.6289303" lon="11.3902394"><ele>251.28571428571433</ele><time>2026-04-03T13:59:10.969Z</time></trkpt><trkpt lat="45.6289596" lon="11.3901537"><ele>253.00000000000003</ele><time>2026-04-03T13:59:13.969Z</time></trkpt><trkpt lat="45.6289768" lon="11.3900539"><ele>252.99999999999997</ele><time>2026-04-03T13:59:17.969Z</time></trkpt><trkpt lat="45.6290105" lon="11.3899764"><ele>253.0</ele><time>2026-04-03T13:59:22.97Z</time></trkpt><trkpt lat="45.6290468" lon="11.3898932"><ele>253.0</ele><time>2026-04-03T13:59:26.97Z</time></trkpt><trkpt lat="45.6290865" lon="11.38981"><ele>253.0</ele><time>2026-04-03T13:59:31.971Z</time></trkpt><trkpt lat="45.6292271" lon="11.3897753"><ele>252.99999999999997</ele><time>2026-04-03T13:59:42.969Z</time></trkpt><trkpt lat="45.6292999" lon="11.3897995"><ele>253.0</ele><time>2026-04-03T13:59:47.97Z</time></trkpt><trkpt lat="45.6293692" lon="11.3898096"><ele>253.00000000000003</ele><time>2026-04-03T13:59:55.969Z</time></trkpt><trkpt lat="45.629434" lon="11.3897759"><ele>253.0</ele><time>2026-04-03T14:00:02.969Z</time></trkpt><trkpt lat="45.6294923" lon="11.3897294"><ele>253.00000000000003</ele><time>2026-04-03T14:00:08.971Z</time></trkpt><trkpt lat="45.6295558" lon="11.3897145"><ele>253.00000000000003</ele><time>2026-04-03T14:00:15.97Z</time></trkpt><trkpt lat="45.6296118" lon="11.389647"><ele>253.0</ele><time>2026-04-03T14:00:19.97Z</time></trkpt><trkpt lat="45.6296711" lon="11.3895962"><ele>253.00000000000003</ele><time>2026-04-03T14:00:24.971Z</time></trkpt><trkpt lat="45.6297295" lon="11.3895472"><ele>253.00000000000003</ele><time>2026-04-03T14:00:29.97Z</time></trkpt><trkpt lat="45.6297731" lon="11.3894654"><ele>255.33333333333331</ele><time>2026-04-03T14:00:33.971Z</time></trkpt><trkpt lat="45.6298138" lon="11.3893905"><ele>257.66666666666663</ele><time>2026-04-03T14:00:39.97Z</time></trkpt><trkpt lat="45.6298564" lon="11.3893236"><ele>260.0</ele><time>2026-04-03T14:00:45.97Z</time></trkpt><trkpt lat="45.629977" lon="11.3893097"><ele>262.3333333333333</ele><time>2026-04-03T14:00:59.97Z</time></trkpt><trkpt lat="45.6300494" lon="11.3892623"><ele>264.6666666666667</ele><time>2026-04-03T14:01:05.97Z</time></trkpt><trkpt lat="45.6301164" lon="11.389222"><ele>267.0</ele><time>2026-04-03T14:01:10.97Z</time></trkpt><trkpt lat="45.6301708" lon="11.389162"><ele>267.00000000000006</ele><time>2026-04-03T14:01:15.97Z</time></trkpt><trkpt lat="45.6302239" lon="11.3890946"><ele>267.0</ele><time>2026-04-03T14:01:20.97Z</time></trkpt><trkpt lat="45.6302592" lon="11.3890084"><ele>267.0</ele><time>2026-04-03T14:01:26.971Z</time></trkpt><trkpt lat="45.6303045" lon="11.3889421"><ele>267.0</ele><time>2026-04-03T14:01:32.97Z</time></trkpt><trkpt lat="45.6303599" lon="11.3888935"><ele>267.0</ele><time>2026-04-03T14:01:36.971Z</time></trkpt><trkpt lat="45.6304167" lon="11.3888451"><ele>267.00000000000006</ele><time>2026-04-03T14:01:42.969Z</time></trkpt><trkpt lat="45.6304632" lon="11.3887453"><ele>267.0</ele><time>2026-04-03T14:01:46.97Z</time></trkpt><trkpt lat="45.6304781" lon="11.388646"><ele>269.28571428571433</ele><time>2026-04-03T14:01:49.97Z</time></trkpt><trkpt lat="45.6305045" lon="11.3885522"><ele>271.57142857142856</ele><time>2026-04-03T14:01:54.97Z</time></trkpt><trkpt lat="45.630532" lon="11.3884705"><ele>273.8571428571429</ele><time>2026-04-03T14:01:57.971Z</time></trkpt><trkpt lat="45.6305366" lon="11.3883452"><ele>276.14285714285717</ele><time>2026-04-03T14:02:00.97Z</time></trkpt><trkpt lat="45.6305448" lon="11.3882456"><ele>278.42857142857144</ele><time>2026-04-03T14:02:03.97Z</time></trkpt><trkpt lat="45.6305895" lon="11.3881751"><ele>280.7142857142857</ele><time>2026-04-03T14:02:08.97Z</time></trkpt><trkpt lat="45.6306505" lon="11.3881082"><ele>283.0</ele><time>2026-04-03T14:02:13.969Z</time></trkpt><trkpt lat="45.6306881" lon="11.3880257"><ele>283.2857142857143</ele><time>2026-04-03T14:02:17.969Z</time></trkpt><trkpt lat="45.6307341" lon="11.3879412"><ele>283.5714285714286</ele><time>2026-04-03T14:02:22.971Z</time></trkpt><trkpt lat="45.630778" lon="11.3878629"><ele>283.8571428571429</ele><time>2026-04-03T14:02:28.97Z</time></trkpt><trkpt lat="45.6308332" lon="11.387819"><ele>284.14285714285717</ele><time>2026-04-03T14:02:35.97Z</time></trkpt><trkpt lat="45.6308617" lon="11.387728"><ele>284.42857142857144</ele><time>2026-04-03T14:02:40.97Z</time></trkpt><trkpt lat="45.6308924" lon="11.3876454"><ele>284.7142857142857</ele><time>2026-04-03T14:02:45.97Z</time></trkpt><trkpt lat="45.6309183" lon="11.3875519"><ele>285.0</ele><time>2026-04-03T14:02:49.97Z</time></trkpt><trkpt lat="45.6309324" lon="11.38745"><ele>285.0</ele><time>2026-04-03T14:02:54.971Z</time></trkpt><trkpt lat="45.6309458" lon="11.3873424"><ele>285.0</ele><time>2026-04-03T14:02:59.97Z</time></trkpt><trkpt lat="45.6309565" lon="11.3872353"><ele>285.0</ele><time>2026-04-03T14:03:03.97Z</time></trkpt><trkpt lat="45.6309748" lon="11.3871354"><ele>285.0</ele><time>2026-04-03T14:03:07.97Z</time></trkpt><trkpt lat="45.6310023" lon="11.3870401"><ele>285.0</ele><time>2026-04-03T14:03:12.969Z</time></trkpt><trkpt lat="45.6310408" lon="11.3869687"><ele>285.0</ele><time>2026-04-03T14:03:17.969Z</time></trkpt><trkpt lat="45.6310712" lon="11.386881"><ele>285.0</ele><time>2026-04-03T14:03:22.97Z</time></trkpt><trkpt lat="45.6311272" lon="11.386939"><ele>285.2857142857143</ele><time>2026-04-03T14:03:30.969Z</time></trkpt><trkpt lat="45.6311479" lon="11.387039"><ele>285.57142857142856</ele><time>2026-04-03T14:03:35.971Z</time></trkpt><trkpt lat="45.631189" lon="11.3871152"><ele>285.8571428571429</ele><time>2026-04-03T14:03:40.971Z</time></trkpt><trkpt lat="45.6312198" lon="11.3872029"><ele>286.1428571428571</ele><time>2026-04-03T14:03:46.97Z</time></trkpt><trkpt lat="45.6312123" lon="11.3872977"><ele>286.42857142857144</ele><time>2026-04-03T14:03:51.969Z</time></trkpt><trkpt lat="45.631205" lon="11.387389"><ele>286.7142857142857</ele><time>2026-04-03T14:03:57.97Z</time></trkpt><trkpt lat="45.6311858" lon="11.3874761"><ele>287.0</ele><time>2026-04-03T14:04:01.97Z</time></trkpt><trkpt lat="45.6311835" lon="11.3875962"><ele>286.7142857142857</ele><time>2026-04-03T14:04:04.97Z</time></trkpt><trkpt lat="45.6311598" lon="11.3876807"><ele>286.42857142857144</ele><time>2026-04-03T14:04:07.969Z</time></trkpt><trkpt lat="45.6311347" lon="11.3877741"><ele>286.1428571428571</ele><time>2026-04-03T14:04:11.97Z</time></trkpt><trkpt lat="45.6311296" lon="11.3878858"><ele>285.8571428571429</ele><time>2026-04-03T14:04:15.971Z</time></trkpt><trkpt lat="45.6311146" lon="11.3880053"><ele>285.57142857142856</ele><time>2026-04-03T14:04:19.97Z</time></trkpt><trkpt lat="45.63109" lon="11.3880961"><ele>285.2857142857143</ele><time>2026-04-03T14:04:22.97Z</time></trkpt><trkpt lat="45.631076" lon="11.3881978"><ele>285.0</ele><time>2026-04-03T14:04:25.97Z</time></trkpt><trkpt lat="45.6310649" lon="11.3883097"><ele>284.6666666666667</ele><time>2026-04-03T14:04:28.97Z</time></trkpt><trkpt lat="45.6310651" lon="11.3884235"><ele>284.3333333333333</ele><time>2026-04-03T14:04:31.97Z</time></trkpt><trkpt lat="45.6310568" lon="11.3885181"><ele>284.0</ele><time>2026-04-03T14:04:34.97Z</time></trkpt><trkpt lat="45.631056" lon="11.3886266"><ele>283.66666666666663</ele><time>2026-04-03T14:04:37.971Z</time></trkpt><trkpt lat="45.631041" lon="11.388717"><ele>283.3333333333333</ele><time>2026-04-03T14:04:40.97Z</time></trkpt><trkpt lat="45.6310394" lon="11.388851"><ele>283.0</ele><time>2026-04-03T14:04:43.97Z</time></trkpt><trkpt lat="45.6310586" lon="11.3889501"><ele>283.0</ele><time>2026-04-03T14:04:45.97Z</time></trkpt><trkpt lat="45.6310429" lon="11.3890482"><ele>283.0</ele><time>2026-04-03T14:04:48.969Z</time></trkpt><trkpt lat="45.6310187" lon="11.3891347"><ele>283.0</ele><time>2026-04-03T14:04:51.97Z</time></trkpt><trkpt lat="45.6310303" lon="11.3892308"><ele>283.0</ele><time>2026-04-03T14:04:54.971Z</time></trkpt><trkpt lat="45.6310714" lon="11.3893395"><ele>283.0</ele><time>2026-04-03T14:04:57.97Z</time></trkpt><trkpt lat="45.6311072" lon="11.3894476"><ele>283.0</ele><time>2026-04-03T14:05:01.97Z</time></trkpt><trkpt lat="45.6311428" lon="11.3895413"><ele>283.0</ele><time>2026-04-03T14:05:04.971Z</time></trkpt><trkpt lat="45.6311809" lon="11.3896199"><ele>284.42857142857144</ele><time>2026-04-03T14:05:07.969Z</time></trkpt><trkpt lat="45.6312197" lon="11.3896912"><ele>285.8571428571429</ele><time>2026-04-03T14:05:10.97Z</time></trkpt><trkpt lat="45.631246" lon="11.3897787"><ele>287.2857142857143</ele><time>2026-04-03T14:05:14.969Z</time></trkpt><trkpt lat="45.631229" lon="11.3898783"><ele>288.7142857142857</ele><time>2026-04-03T14:05:19.97Z</time></trkpt><trkpt lat="45.6311823" lon="11.389947"><ele>290.1428571428571</ele><time>2026-04-03T14:05:27.97Z</time></trkpt><trkpt lat="45.6311491" lon="11.3900236"><ele>291.57142857142856</ele><time>2026-04-03T14:05:32.97Z</time></trkpt><trkpt lat="45.6311063" lon="11.390093"><ele>293.0</ele><time>2026-04-03T14:05:36.969Z</time></trkpt><trkpt lat="45.6310492" lon="11.3901657"><ele>293.0</ele><time>2026-04-03T14:05:41.97Z</time></trkpt><trkpt lat="45.6309893" lon="11.3902449"><ele>293.0</ele><time>2026-04-03T14:05:45.97Z</time></trkpt><trkpt lat="45.6309315" lon="11.3903144"><ele>293.0</ele><time>2026-04-03T14:05:49.97Z</time></trkpt><trkpt lat="45.6308661" lon="11.3903835"><ele>293.0</ele><time>2026-04-03T14:05:53.971Z</time></trkpt><trkpt lat="45.6308012" lon="11.3904414"><ele>293.0</ele><time>2026-04-03T14:05:57.97Z</time></trkpt><trkpt lat="45.6307429" lon="11.390496"><ele>293.0</ele><time>2026-04-03T14:06:00.969Z</time></trkpt><trkpt lat="45.630675" lon="11.3905494"><ele>297.6666666666667</ele><time>2026-04-03T14:06:04.97Z</time></trkpt><trkpt lat="45.6306065" lon="11.3905971"><ele>302.33333333333337</ele><time>2026-04-03T14:06:07.971Z</time></trkpt><trkpt lat="45.6305486" lon="11.3906508"><ele>307.0</ele><time>2026-04-03T14:06:10.969Z</time></trkpt><trkpt lat="45.6304858" lon="11.3906991"><ele>311.6666666666667</ele><time>2026-04-03T14:06:13.969Z</time></trkpt><trkpt lat="45.6304372" lon="11.3907658"><ele>316.3333333333333</ele><time>2026-04-03T14:06:15.97Z</time></trkpt><trkpt lat="45.6303778" lon="11.3908631"><ele>321.0</ele><time>2026-04-03T14:06:18.97Z</time></trkpt><trkpt lat="45.6303317" lon="11.3909524"><ele>320.99999999999994</ele><time>2026-04-03T14:06:21.969Z</time></trkpt><trkpt lat="45.6302944" lon="11.3910262"><ele>321.0</ele><time>2026-04-03T14:06:24.971Z</time></trkpt><trkpt lat="45.6302424" lon="11.3910778"><ele>321.0</ele><time>2026-04-03T14:06:27.969Z</time></trkpt><trkpt lat="45.6301864" lon="11.391155"><ele>321.0</ele><time>2026-04-03T14:06:31.969Z</time></trkpt><trkpt lat="45.6301244" lon="11.3912264"><ele>321.0</ele><time>2026-04-03T14:06:36.97Z</time></trkpt><trkpt lat="45.6300669" lon="11.3913161"><ele>320.99999999999994</ele><time>2026-04-03T14:06:39.97Z</time></trkpt><trkpt lat="45.6300317" lon="11.3913999"><ele>321.0</ele><time>2026-04-03T14:06:41.971Z</time></trkpt><trkpt lat="45.6299894" lon="11.3914975"><ele>320.99999999999994</ele><time>2026-04-03T14:06:44.97Z</time></trkpt><trkpt lat="45.6299383" lon="11.3915643"><ele>321.0</ele><time>2026-04-03T14:06:47.97Z</time></trkpt><trkpt lat="45.6298708" lon="11.391618"><ele>321.0</ele><time>2026-04-03T14:06:51.97Z</time></trkpt><trkpt lat="45.6298194" lon="11.3916733"><ele>321.0</ele><time>2026-04-03T14:06:54.97Z</time></trkpt><trkpt lat="45.6297744" lon="11.3917587"><ele>321.0</ele><time>2026-04-03T14:06:57.97Z</time></trkpt><trkpt lat="45.629725" lon="11.3918254"><ele>320.99999999999994</ele><time>2026-04-03T14:07:00.97Z</time></trkpt><trkpt lat="45.6296773" lon="11.3918842"><ele>321.0</ele><time>2026-04-03T14:07:03.97Z</time></trkpt><trkpt lat="45.6296389" lon="11.3919684"><ele>320.99999999999994</ele><time>2026-04-03T14:07:06.97Z</time></trkpt><trkpt lat="45.62959" lon="11.392048"><ele>321.0</ele><time>2026-04-03T14:07:09.97Z</time></trkpt><trkpt lat="45.6295444" lon="11.3921256"><ele>321.0</ele><time>2026-04-03T14:07:12.97Z</time></trkpt><trkpt lat="45.6295048" lon="11.3922075"><ele>321.0</ele><time>2026-04-03T14:07:15.971Z</time></trkpt><trkpt lat="45.6294619" lon="11.3922782"><ele>321.0</ele><time>2026-04-03T14:07:18.97Z</time></trkpt><trkpt lat="45.6294198" lon="11.392365"><ele>320.99999999999994</ele><time>2026-04-03T14:07:21.97Z</time></trkpt><trkpt lat="45.6293895" lon="11.3924594"><ele>321.0</ele><time>2026-04-03T14:07:24.97Z</time></trkpt><trkpt lat="45.6293606" lon="11.3925541"><ele>321.99999999999994</ele><time>2026-04-03T14:07:28.971Z</time></trkpt><trkpt lat="45.6293312" lon="11.3926419"><ele>323.0</ele><time>2026-04-03T14:07:31.969Z</time></trkpt><trkpt lat="45.6292903" lon="11.3927353"><ele>324.0</ele><time>2026-04-03T14:07:35.969Z</time></trkpt><trkpt lat="45.6292594" lon="11.3928207"><ele>325.0</ele><time>2026-04-03T14:07:38.969Z</time></trkpt><trkpt lat="45.6292322" lon="11.3929148"><ele>326.0</ele><time>2026-04-03T14:07:41.969Z</time></trkpt><trkpt lat="45.6292095" lon="11.3930035"><ele>326.99999999999994</ele><time>2026-04-03T14:07:44.968Z</time></trkpt><trkpt lat="45.6291643" lon="11.3930686"><ele>328.0</ele><time>2026-04-03T14:07:47.968Z</time></trkpt><trkpt lat="45.6291248" lon="11.3931448"><ele>327.99999999999994</ele><time>2026-04-03T14:07:50.969Z</time></trkpt><trkpt lat="45.6291042" lon="11.393237"><ele>328.0</ele><time>2026-04-03T14:07:53.969Z</time></trkpt><trkpt lat="45.6290662" lon="11.3933347"><ele>328.0</ele><time>2026-04-03T14:07:56.969Z</time></trkpt><trkpt lat="45.6290167" lon="11.3934153"><ele>328.0</ele><time>2026-04-03T14:07:59.969Z</time></trkpt><trkpt lat="45.6289643" lon="11.3934652"><ele>328.0</ele><time>2026-04-03T14:08:02.969Z</time></trkpt><trkpt lat="45.6289179" lon="11.3935414"><ele>327.99999999999994</ele><time>2026-04-03T14:08:05.969Z</time></trkpt><trkpt lat="45.6288651" lon="11.3936183"><ele>328.0</ele><time>2026-04-03T14:08:08.968Z</time></trkpt><trkpt lat="45.6288087" lon="11.3936816"><ele>328.0</ele><time>2026-04-03T14:08:11.969Z</time></trkpt><trkpt lat="45.6287645" lon="11.393767"><ele>328.0</ele><time>2026-04-03T14:08:14.969Z</time></trkpt><trkpt lat="45.6287283" lon="11.393885"><ele>328.0</ele><time>2026-04-03T14:08:17.97Z</time></trkpt><trkpt lat="45.6287082" lon="11.3940164"><ele>328.0</ele><time>2026-04-03T14:08:20.969Z</time></trkpt><trkpt lat="45.6286916" lon="11.3941085"><ele>328.0</ele><time>2026-04-03T14:08:22.969Z</time></trkpt><trkpt lat="45.6286827" lon="11.3942193"><ele>328.0</ele><time>2026-04-03T14:08:25.97Z</time></trkpt><trkpt lat="45.6287024" lon="11.3943083"><ele>373.0</ele><time>2026-04-03T14:08:33.968Z</time></trkpt><trkpt lat="45.6294983" lon="11.3945169"><ele>373.0</ele><time>2026-04-03T14:11:10.97Z</time></trkpt><trkpt lat="45.6295601" lon="11.3945732"><ele>373.0</ele><time>2026-04-03T14:11:13.969Z</time></trkpt><trkpt lat="45.6296312" lon="11.3946185"><ele>373.0</ele><time>2026-04-03T14:11:17.968Z</time></trkpt><trkpt lat="45.6296684" lon="11.3947116"><ele>373.0</ele><time>2026-04-03T14:11:22.969Z</time></trkpt><trkpt lat="45.6296955" lon="11.394807"><ele>373.0</ele><time>2026-04-03T14:11:25.969Z</time></trkpt><trkpt lat="45.6297537" lon="11.394909"><ele>373.0</ele><time>2026-04-03T14:11:29.968Z</time></trkpt><trkpt lat="45.629807" lon="11.3949572"><ele>369.0</ele><time>2026-04-03T14:11:31.968Z</time></trkpt><trkpt lat="45.6298679" lon="11.3950324"><ele>365.0</ele><time>2026-04-03T14:11:35.968Z</time></trkpt><trkpt lat="45.6299153" lon="11.3951193"><ele>361.0</ele><time>2026-04-03T14:11:39.969Z</time></trkpt><trkpt lat="45.6299647" lon="11.395176"><ele>357.0</ele><time>2026-04-03T14:11:42.97Z</time></trkpt><trkpt lat="45.6300026" lon="11.3952684"><ele>353.0</ele><time>2026-04-03T14:11:46.97Z</time></trkpt><trkpt lat="45.6300196" lon="11.3953686"><ele>349.0</ele><time>2026-04-03T14:11:51.968Z</time></trkpt><trkpt lat="45.6300559" lon="11.3954659"><ele>345.0</ele><time>2026-04-03T14:11:55.969Z</time></trkpt><trkpt lat="45.6300785" lon="11.3955693"><ele>342.0</ele><time>2026-04-03T14:11:59.97Z</time></trkpt><trkpt lat="45.6300786" lon="11.3956694"><ele>339.0</ele><time>2026-04-03T14:12:03.97Z</time></trkpt><trkpt lat="45.6300897" lon="11.3957857"><ele>336.0</ele><time>2026-04-03T14:12:07.97Z</time></trkpt><trkpt lat="45.6301022" lon="11.3959011"><ele>333.0</ele><time>2026-04-03T14:12:10.969Z</time></trkpt><trkpt lat="45.6301098" lon="11.3960063"><ele>330.0</ele><time>2026-04-03T14:12:13.968Z</time></trkpt><trkpt lat="45.6301139" lon="11.3961134"><ele>327.0</ele><time>2026-04-03T14:12:16.97Z</time></trkpt><trkpt lat="45.6301168" lon="11.3962306"><ele>325.3333333333333</ele><time>2026-04-03T14:12:19.97Z</time></trkpt><trkpt lat="45.6301408" lon="11.3963512"><ele>323.6666666666667</ele><time>2026-04-03T14:12:22.968Z</time></trkpt><trkpt lat="45.6301777" lon="11.3964511"><ele>322.0</ele><time>2026-04-03T14:12:24.968Z</time></trkpt><trkpt lat="45.6302247" lon="11.3965535"><ele>320.33333333333337</ele><time>2026-04-03T14:12:26.969Z</time></trkpt><trkpt lat="45.6302694" lon="11.3966361"><ele>318.6666666666667</ele><time>2026-04-03T14:12:28.969Z</time></trkpt><trkpt lat="45.6303216" lon="11.3967288"><ele>317.0</ele><time>2026-04-03T14:12:30.969Z</time></trkpt><trkpt lat="45.6305037" lon="11.3968445"><ele>323.2857142857143</ele><time>2026-04-03T14:12:31.969Z</time></trkpt><trkpt lat="45.6305694" lon="11.3968711"><ele>329.57142857142856</ele><time>2026-04-03T14:12:33.969Z</time></trkpt><trkpt lat="45.6306339" lon="11.3968797"><ele>335.8571428571429</ele><time>2026-04-03T14:12:35.969Z</time></trkpt><trkpt lat="45.6306963" lon="11.3968925"><ele>342.1428571428571</ele><time>2026-04-03T14:12:37.968Z</time></trkpt><trkpt lat="45.6307792" lon="11.3969409"><ele>348.4285714285714</ele><time>2026-04-03T14:12:40.969Z</time></trkpt><trkpt lat="45.6308542" lon="11.3969875"><ele>354.7142857142857</ele><time>2026-04-03T14:12:43.968Z</time></trkpt><trkpt lat="45.6309297" lon="11.397029"><ele>361.0</ele><time>2026-04-03T14:12:46.968Z</time></trkpt><trkpt lat="45.63101" lon="11.3970385"><ele>361.0</ele><time>2026-04-03T14:12:50.969Z</time></trkpt><trkpt lat="45.63108" lon="11.3970613"><ele>361.0</ele><time>2026-04-03T14:12:54.968Z</time></trkpt><trkpt lat="45.6311656" lon="11.3970951"><ele>361.0</ele><time>2026-04-03T14:12:58.969Z</time></trkpt><trkpt lat="45.6312315" lon="11.3971202"><ele>361.0</ele><time>2026-04-03T14:13:01.969Z</time></trkpt><trkpt lat="45.6312975" lon="11.3971409"><ele>361.0</ele><time>2026-04-03T14:13:05.968Z</time></trkpt><trkpt lat="45.6313592" lon="11.397159"><ele>361.0</ele><time>2026-04-03T14:13:08.969Z</time></trkpt><trkpt lat="45.6314299" lon="11.3971989"><ele>361.0</ele><time>2026-04-03T14:13:12.969Z</time></trkpt><trkpt lat="45.6315042" lon="11.397208"><ele>356.66666666666663</ele><time>2026-04-03T14:13:15.968Z</time></trkpt><trkpt lat="45.6315845" lon="11.3972241"><ele>352.3333333333333</ele><time>2026-04-03T14:13:18.968Z</time></trkpt><trkpt lat="45.6316584" lon="11.3972642"><ele>348.0</ele><time>2026-04-03T14:13:22.969Z</time></trkpt><trkpt lat="45.6317188" lon="11.397314"><ele>343.6666666666667</ele><time>2026-04-03T14:13:25.968Z</time></trkpt><trkpt lat="45.631795" lon="11.3973177"><ele>339.33333333333337</ele><time>2026-04-03T14:13:28.969Z</time></trkpt><trkpt lat="45.6318726" lon="11.397346"><ele>335.0</ele><time>2026-04-03T14:13:31.968Z</time></trkpt><trkpt lat="45.6319421" lon="11.3973857"><ele>339.83333333333337</ele><time>2026-04-03T14:13:34.968Z</time></trkpt><trkpt lat="45.6320217" lon="11.3974195"><ele>344.6666666666667</ele><time>2026-04-03T14:13:37.969Z</time></trkpt><trkpt lat="45.6320956" lon="11.3974515"><ele>349.5</ele><time>2026-04-03T14:13:40.969Z</time></trkpt><trkpt lat="45.6321664" lon="11.3975141"><ele>354.3333333333333</ele><time>2026-04-03T14:13:44.969Z</time></trkpt><trkpt lat="45.6322418" lon="11.3975553"><ele>359.16666666666663</ele><time>2026-04-03T14:13:47.969Z</time></trkpt><trkpt lat="45.632322" lon="11.3975851"><ele>364.0</ele><time>2026-04-03T14:13:50.97Z</time></trkpt><trkpt lat="45.6324082" lon="11.397617"><ele>364.0</ele><time>2026-04-03T14:13:53.969Z</time></trkpt><trkpt lat="45.6324812" lon="11.3976372"><ele>364.0</ele><time>2026-04-03T14:13:56.97Z</time></trkpt><trkpt lat="45.6325546" lon="11.3976549"><ele>364.0</ele><time>2026-04-03T14:14:00.97Z</time></trkpt><trkpt lat="45.6326251" lon="11.3976832"><ele>364.0</ele><time>2026-04-03T14:14:05.969Z</time></trkpt><trkpt lat="45.6326809" lon="11.3977277"><ele>364.0</ele><time>2026-04-03T14:14:09.97Z</time></trkpt><trkpt lat="45.6327425" lon="11.3977566"><ele>364.0</ele><time>2026-04-03T14:14:13.968Z</time></trkpt><trkpt lat="45.6328027" lon="11.3977982"><ele>364.0</ele><time>2026-04-03T14:14:17.969Z</time></trkpt><trkpt lat="45.6328565" lon="11.397858"><ele>364.7142857142857</ele><time>2026-04-03T14:14:22.969Z</time></trkpt><trkpt lat="45.6329062" lon="11.3979168"><ele>365.42857142857144</ele><time>2026-04-03T14:14:25.97Z</time></trkpt><trkpt lat="45.6329893" lon="11.3979766"><ele>366.1428571428571</ele><time>2026-04-03T14:14:28.969Z</time></trkpt><trkpt lat="45.6330551" lon="11.3980266"><ele>366.8571428571429</ele><time>2026-04-03T14:14:31.968Z</time></trkpt><trkpt lat="45.633115" lon="11.3980685"><ele>367.57142857142856</ele><time>2026-04-03T14:14:34.97Z</time></trkpt><trkpt lat="45.6331793" lon="11.3980925"><ele>368.2857142857143</ele><time>2026-04-03T14:14:39.969Z</time></trkpt><trkpt lat="45.633235" lon="11.3981545"><ele>369.0</ele><time>2026-04-03T14:14:44.969Z</time></trkpt><trkpt lat="45.6332897" lon="11.3982104"><ele>369.0</ele><time>2026-04-03T14:14:49.969Z</time></trkpt><trkpt lat="45.6333482" lon="11.398287"><ele>369.0</ele><time>2026-04-03T14:14:54.968Z</time></trkpt><trkpt lat="45.6334049" lon="11.3983377"><ele>369.0</ele><time>2026-04-03T14:14:58.968Z</time></trkpt><trkpt lat="45.6334463" lon="11.398419"><ele>369.0</ele><time>2026-04-03T14:15:03.969Z</time></trkpt><trkpt lat="45.6334745" lon="11.3985035"><ele>369.0</ele><time>2026-04-03T14:15:07.969Z</time></trkpt><trkpt lat="45.6335095" lon="11.3986013"><ele>369.0</ele><time>2026-04-03T14:15:11.969Z</time></trkpt><trkpt lat="45.633547" lon="11.3986751"><ele>369.0</ele><time>2026-04-03T14:15:15.968Z</time></trkpt><trkpt lat="45.6335812" lon="11.398759"><ele>371.57142857142856</ele><time>2026-04-03T14:15:19.969Z</time></trkpt><trkpt lat="45.6336098" lon="11.3988555"><ele>374.1428571428571</ele><time>2026-04-03T14:15:23.969Z</time></trkpt><trkpt lat="45.6336476" lon="11.3989511"><ele>376.7142857142857</ele><time>2026-04-03T14:15:28.968Z</time></trkpt><trkpt lat="45.6336905" lon="11.3990272"><ele>379.2857142857143</ele><time>2026-04-03T14:15:32.97Z</time></trkpt><trkpt lat="45.633735" lon="11.3991038"><ele>381.8571428571429</ele><time>2026-04-03T14:15:36.969Z</time></trkpt><trkpt lat="45.633799" lon="11.399171"><ele>384.42857142857144</ele><time>2026-04-03T14:15:41.969Z</time></trkpt><trkpt lat="45.6338418" lon="11.3992602"><ele>387.0</ele><time>2026-04-03T14:15:45.968Z</time></trkpt><trkpt lat="45.6339122" lon="11.3993326"><ele>387.0</ele><time>2026-04-03T14:15:49.97Z</time></trkpt><trkpt lat="45.6339906" lon="11.399383"><ele>387.0</ele><time>2026-04-03T14:15:52.968Z</time></trkpt><trkpt lat="45.6340729" lon="11.3994184"><ele>387.0</ele><time>2026-04-03T14:15:55.968Z</time></trkpt><trkpt lat="45.6341577" lon="11.3994298"><ele>387.0</ele><time>2026-04-03T14:15:58.968Z</time></trkpt><trkpt lat="45.6342231" lon="11.3994526"><ele>387.0</ele><time>2026-04-03T14:16:01.968Z</time></trkpt><trkpt lat="45.6342878" lon="11.399489"><ele>387.0</ele><time>2026-04-03T14:16:05.97Z</time></trkpt><trkpt lat="45.6343549" lon="11.3995095"><ele>387.0</ele><time>2026-04-03T14:16:09.968Z</time></trkpt><trkpt lat="45.634414" lon="11.3994755"><ele>387.0</ele><time>2026-04-03T14:16:12.969Z</time></trkpt><trkpt lat="45.634488" lon="11.3994634"><ele>387.0</ele><time>2026-04-03T14:16:17.968Z</time></trkpt><trkpt lat="45.6345538" lon="11.3994565"><ele>387.0</ele><time>2026-04-03T14:16:22.968Z</time></trkpt><trkpt lat="45.6346227" lon="11.3994809"><ele>387.0</ele><time>2026-04-03T14:16:26.968Z</time></trkpt><trkpt lat="45.6346993" lon="11.3995063"><ele>387.0</ele><time>2026-04-03T14:16:30.968Z</time></trkpt><trkpt lat="45.6347668" lon="11.3994958"><ele>387.0</ele><time>2026-04-03T14:16:33.97Z</time></trkpt><trkpt lat="45.6348428" lon="11.3994907"><ele>386.3333333333333</ele><time>2026-04-03T14:16:37.969Z</time></trkpt><trkpt lat="45.6349126" lon="11.3995087"><ele>385.6666666666667</ele><time>2026-04-03T14:16:41.969Z</time></trkpt><trkpt lat="45.6349938" lon="11.3995156"><ele>385.0</ele><time>2026-04-03T14:16:45.969Z</time></trkpt><trkpt lat="45.6350626" lon="11.3995561"><ele>384.33333333333337</ele><time>2026-04-03T14:16:50.969Z</time></trkpt><trkpt lat="45.6351163" lon="11.399617"><ele>383.6666666666667</ele><time>2026-04-03T14:16:54.968Z</time></trkpt><trkpt lat="45.6351879" lon="11.3996753"><ele>383.0</ele><time>2026-04-03T14:16:58.97Z</time></trkpt><trkpt lat="45.6352588" lon="11.3997292"><ele>385.6666666666667</ele><time>2026-04-03T14:17:01.969Z</time></trkpt><trkpt lat="45.6353344" lon="11.399755"><ele>388.33333333333337</ele><time>2026-04-03T14:17:04.968Z</time></trkpt><trkpt lat="45.6354231" lon="11.3997843"><ele>391.0</ele><time>2026-04-03T14:17:07.968Z</time></trkpt><trkpt lat="45.6354925" lon="11.3997999"><ele>393.6666666666667</ele><time>2026-04-03T14:17:09.969Z</time></trkpt><trkpt lat="45.635563" lon="11.3998023"><ele>396.3333333333333</ele><time>2026-04-03T14:17:11.969Z</time></trkpt><trkpt lat="45.6356544" lon="11.3997845"><ele>399.0</ele><time>2026-04-03T14:17:14.969Z</time></trkpt><trkpt lat="45.6357955" lon="11.3997782"><ele>399.0</ele><time>2026-04-03T14:17:19.969Z</time></trkpt><trkpt lat="45.6358598" lon="11.3997425"><ele>399.0</ele><time>2026-04-03T14:17:21.969Z</time></trkpt><trkpt lat="45.6359098" lon="11.3996859"><ele>399.0</ele><time>2026-04-03T14:17:23.97Z</time></trkpt><trkpt lat="45.6359632" lon="11.3995997"><ele>399.0</ele><time>2026-04-03T14:17:26.969Z</time></trkpt><trkpt lat="45.6360085" lon="11.3995098"><ele>399.0</ele><time>2026-04-03T14:17:29.969Z</time></trkpt><trkpt lat="45.6360463" lon="11.3994186"><ele>399.0</ele><time>2026-04-03T14:17:32.969Z</time></trkpt><trkpt lat="45.6360841" lon="11.3993242"><ele>399.0</ele><time>2026-04-03T14:17:35.968Z</time></trkpt><trkpt lat="45.6361292" lon="11.3992462"><ele>399.6666666666667</ele><time>2026-04-03T14:17:38.969Z</time></trkpt><trkpt lat="45.6361795" lon="11.3991582"><ele>400.33333333333337</ele><time>2026-04-03T14:17:42.97Z</time></trkpt><trkpt lat="45.6362146" lon="11.3990554"><ele>401.0</ele><time>2026-04-03T14:17:46.968Z</time></trkpt><trkpt lat="45.6362773" lon="11.3989857"><ele>401.6666666666667</ele><time>2026-04-03T14:17:50.969Z</time></trkpt><trkpt lat="45.6363454" lon="11.3989324"><ele>402.33333333333337</ele><time>2026-04-03T14:17:54.968Z</time></trkpt><trkpt lat="45.6364042" lon="11.3988912"><ele>403.0</ele><time>2026-04-03T14:17:57.969Z</time></trkpt><trkpt lat="45.6364767" lon="11.398846"><ele>403.0</ele><time>2026-04-03T14:18:00.968Z</time></trkpt><trkpt lat="45.6365466" lon="11.398833"><ele>403.0</ele><time>2026-04-03T14:18:03.968Z</time></trkpt><trkpt lat="45.6367773" lon="11.3988865"><ele>403.0</ele><time>2026-04-03T14:18:11.969Z</time></trkpt><trkpt lat="45.6368478" lon="11.3989217"><ele>403.0</ele><time>2026-04-03T14:18:13.969Z</time></trkpt><trkpt lat="45.6369252" lon="11.3989509"><ele>403.2</ele><time>2026-04-03T14:18:15.968Z</time></trkpt><trkpt lat="45.6370028" lon="11.3989798"><ele>403.4</ele><time>2026-04-03T14:18:17.969Z</time></trkpt><trkpt lat="45.6370775" lon="11.3990199"><ele>403.59999999999997</ele><time>2026-04-03T14:18:19.969Z</time></trkpt><trkpt lat="45.6371556" lon="11.3990803"><ele>403.79999999999995</ele><time>2026-04-03T14:18:21.969Z</time></trkpt><trkpt lat="45.6372547" lon="11.3991531"><ele>404.0</ele><time>2026-04-03T14:18:23.97Z</time></trkpt><trkpt lat="45.6373748" lon="11.3992188"><ele>404.0</ele><time>2026-04-03T14:18:25.968Z</time></trkpt><trkpt lat="45.6374435" lon="11.3992393"><ele>404.0</ele><time>2026-04-03T14:18:26.969Z</time></trkpt><trkpt lat="45.6375142" lon="11.3992553"><ele>404.0</ele><time>2026-04-03T14:18:27.968Z</time></trkpt><trkpt lat="45.6375854" lon="11.3992716"><ele>404.0</ele><time>2026-04-03T14:18:28.969Z</time></trkpt><trkpt lat="45.6377399" lon="11.3993088"><ele>404.0</ele><time>2026-04-03T14:18:29.968Z</time></trkpt><trkpt lat="45.6378593" lon="11.3994035"><ele>404.8333333333333</ele><time>2026-04-03T14:18:31.969Z</time></trkpt><trkpt lat="45.637933" lon="11.3994145"><ele>405.66666666666663</ele><time>2026-04-03T14:18:32.969Z</time></trkpt><trkpt lat="45.6379945" lon="11.3994689"><ele>406.5</ele><time>2026-04-03T14:18:35.968Z</time></trkpt><trkpt lat="45.6380647" lon="11.3995556"><ele>407.33333333333337</ele><time>2026-04-03T14:18:38.969Z</time></trkpt><trkpt lat="45.6381419" lon="11.3995979"><ele>408.1666666666667</ele><time>2026-04-03T14:18:41.97Z</time></trkpt><trkpt lat="45.638208" lon="11.3996728"><ele>409.0</ele><time>2026-04-03T14:18:44.969Z</time></trkpt><trkpt lat="45.6382784" lon="11.3997467"><ele>409.0</ele><time>2026-04-03T14:18:47.97Z</time></trkpt><trkpt lat="45.6383497" lon="11.3998109"><ele>409.0</ele><time>2026-04-03T14:18:50.968Z</time></trkpt><trkpt lat="45.6384148" lon="11.3998655"><ele>409.0</ele><time>2026-04-03T14:18:53.969Z</time></trkpt><trkpt lat="45.638487" lon="11.3999056"><ele>409.0</ele><time>2026-04-03T14:18:56.969Z</time></trkpt><trkpt lat="45.6385558" lon="11.3999358"><ele>409.0</ele><time>2026-04-03T14:18:59.97Z</time></trkpt><trkpt lat="45.6386223" lon="11.3999526"><ele>409.0</ele><time>2026-04-03T14:19:02.968Z</time></trkpt><trkpt lat="45.6386869" lon="11.3999635"><ele>409.0</ele><time>2026-04-03T14:19:05.969Z</time></trkpt><trkpt lat="45.6387547" lon="11.399982"><ele>409.57142857142856</ele><time>2026-04-03T14:19:08.969Z</time></trkpt><trkpt lat="45.6388275" lon="11.4000027"><ele>410.14285714285717</ele><time>2026-04-03T14:19:11.969Z</time></trkpt><trkpt lat="45.6389008" lon="11.4000293"><ele>410.7142857142857</ele><time>2026-04-03T14:19:14.969Z</time></trkpt><trkpt lat="45.6389692" lon="11.4000322"><ele>411.2857142857143</ele><time>2026-04-03T14:19:17.969Z</time></trkpt><trkpt lat="45.6390061" lon="11.3999554"><ele>411.8571428571429</ele><time>2026-04-03T14:19:24.968Z</time></trkpt><trkpt lat="45.639039" lon="11.3998603"><ele>412.42857142857144</ele><time>2026-04-03T14:19:28.97Z</time></trkpt><trkpt lat="45.6390549" lon="11.3997492"><ele>413.0</ele><time>2026-04-03T14:19:32.969Z</time></trkpt><trkpt lat="45.6390399" lon="11.3996496"><ele>413.2857142857143</ele><time>2026-04-03T14:19:35.97Z</time></trkpt><trkpt lat="45.6390105" lon="11.3995406"><ele>413.57142857142856</ele><time>2026-04-03T14:19:38.968Z</time></trkpt><trkpt lat="45.6389747" lon="11.3994408"><ele>413.8571428571429</ele><time>2026-04-03T14:19:41.969Z</time></trkpt><trkpt lat="45.6389564" lon="11.3993402"><ele>414.1428571428571</ele><time>2026-04-03T14:19:46.969Z</time></trkpt><trkpt lat="45.638932" lon="11.3992558"><ele>414.42857142857144</ele><time>2026-04-03T14:19:50.969Z</time></trkpt><trkpt lat="45.6388966" lon="11.3991609"><ele>414.7142857142857</ele><time>2026-04-03T14:19:54.969Z</time></trkpt><trkpt lat="45.6388896" lon="11.3990706"><ele>415.0</ele><time>2026-04-03T14:19:57.969Z</time></trkpt><trkpt lat="45.6388519" lon="11.3989872"><ele>415.0</ele><time>2026-04-03T14:20:01.969Z</time></trkpt><trkpt lat="45.6388095" lon="11.3989187"><ele>415.0</ele><time>2026-04-03T14:20:04.968Z</time></trkpt><trkpt lat="45.6387736" lon="11.3988429"><ele>415.0</ele><time>2026-04-03T14:20:07.968Z</time></trkpt><trkpt lat="45.6387417" lon="11.3987516"><ele>415.0</ele><time>2026-04-03T14:20:10.969Z</time></trkpt><trkpt lat="45.6387052" lon="11.3986709"><ele>415.0</ele><time>2026-04-03T14:20:16.969Z</time></trkpt><trkpt lat="45.6386316" lon="11.3986719"><ele>415.0</ele><time>2026-04-03T14:20:22.968Z</time></trkpt><trkpt lat="45.6386194" lon="11.3985935"><ele>415.0</ele><time>2026-04-03T14:21:17.969Z</time></trkpt><trkpt lat="45.6386277" lon="11.3985018"><ele>414.8571428571429</ele><time>2026-04-03T14:21:21.969Z</time></trkpt><trkpt lat="45.6386134" lon="11.3984062"><ele>414.7142857142857</ele><time>2026-04-03T14:21:24.969Z</time></trkpt><trkpt lat="45.6386134" lon="11.3983115"><ele>414.57142857142856</ele><time>2026-04-03T14:21:27.968Z</time></trkpt><trkpt lat="45.6386186" lon="11.3982213"><ele>414.42857142857144</ele><time>2026-04-03T14:21:30.968Z</time></trkpt><trkpt lat="45.6386072" lon="11.3981254"><ele>414.2857142857143</ele><time>2026-04-03T14:21:33.968Z</time></trkpt><trkpt lat="45.6386045" lon="11.3980264"><ele>414.14285714285717</ele><time>2026-04-03T14:21:37.97Z</time></trkpt><trkpt lat="45.6385993" lon="11.3979295"><ele>414.0</ele><time>2026-04-03T14:21:49.969Z</time></trkpt><trkpt lat="45.6386078" lon="11.3978387"><ele>416.00000000000006</ele><time>2026-04-03T14:21:52.968Z</time></trkpt><trkpt lat="45.6385988" lon="11.3977316"><ele>418.0</ele><time>2026-04-03T14:21:55.969Z</time></trkpt><trkpt lat="45.6385782" lon="11.3976333"><ele>420.0</ele><time>2026-04-03T14:21:58.969Z</time></trkpt><trkpt lat="45.638525" lon="11.3975562"><ele>422.0</ele><time>2026-04-03T14:22:02.969Z</time></trkpt><trkpt lat="45.6384546" lon="11.3975153"><ele>424.0</ele><time>2026-04-03T14:22:08.969Z</time></trkpt><trkpt lat="45.6384132" lon="11.3974427"><ele>426.00000000000006</ele><time>2026-04-03T14:22:12.969Z</time></trkpt><trkpt lat="45.6383852" lon="11.3973327"><ele>428.0</ele><time>2026-04-03T14:22:16.97Z</time></trkpt><trkpt lat="45.6383762" lon="11.3972243"><ele>429.5714285714286</ele><time>2026-04-03T14:22:21.969Z</time></trkpt><trkpt lat="45.6383793" lon="11.3971222"><ele>431.14285714285717</ele><time>2026-04-03T14:22:25.969Z</time></trkpt><trkpt lat="45.6383744" lon="11.3970203"><ele>432.7142857142857</ele><time>2026-04-03T14:22:29.968Z</time></trkpt><trkpt lat="45.6383757" lon="11.3969252"><ele>434.28571428571433</ele><time>2026-04-03T14:22:33.969Z</time></trkpt><trkpt lat="45.638341" lon="11.3968318"><ele>435.85714285714283</ele><time>2026-04-03T14:22:39.968Z</time></trkpt><trkpt lat="45.6383139" lon="11.3967367"><ele>437.42857142857144</ele><time>2026-04-03T14:22:45.969Z</time></trkpt><trkpt lat="45.6383214" lon="11.3966332"><ele>439.0</ele><time>2026-04-03T14:22:49.969Z</time></trkpt><trkpt lat="45.6383268" lon="11.3965184"><ele>439.0</ele><time>2026-04-03T14:22:53.968Z</time></trkpt><trkpt lat="45.6382902" lon="11.3964205"><ele>439.0</ele><time>2026-04-03T14:22:56.97Z</time></trkpt><trkpt lat="45.6382405" lon="11.3963378"><ele>439.0</ele><time>2026-04-03T14:22:59.97Z</time></trkpt><trkpt lat="45.6381935" lon="11.3962681"><ele>439.0</ele><time>2026-04-03T14:23:02.97Z</time></trkpt><trkpt lat="45.6381358" lon="11.3962089"><ele>439.0</ele><time>2026-04-03T14:23:05.968Z</time></trkpt><trkpt lat="45.6380813" lon="11.396134"><ele>439.0</ele><time>2026-04-03T14:23:08.97Z</time></trkpt><trkpt lat="45.638019" lon="11.3960683"><ele>439.0</ele><time>2026-04-03T14:23:11.969Z</time></trkpt><trkpt lat="45.637965" lon="11.3959961"><ele>438.00000000000006</ele><time>2026-04-03T14:23:14.969Z</time></trkpt><trkpt lat="45.6379091" lon="11.3959247"><ele>437.0</ele><time>2026-04-03T14:23:17.968Z</time></trkpt><trkpt lat="45.6378573" lon="11.3958427"><ele>436.0</ele><time>2026-04-03T14:23:20.969Z</time></trkpt><trkpt lat="45.6377959" lon="11.3957653"><ele>435.0</ele><time>2026-04-03T14:23:23.968Z</time></trkpt><trkpt lat="45.6377352" lon="11.3956921"><ele>434.00000000000006</ele><time>2026-04-03T14:23:26.969Z</time></trkpt><trkpt lat="45.6376759" lon="11.3956007"><ele>433.0</ele><time>2026-04-03T14:23:29.969Z</time></trkpt><trkpt lat="45.6376132" lon="11.3955062"><ele>432.6666666666667</ele><time>2026-04-03T14:23:32.969Z</time></trkpt><trkpt lat="45.6375606" lon="11.3954081"><ele>432.33333333333337</ele><time>2026-04-03T14:23:35.968Z</time></trkpt><trkpt lat="45.637511" lon="11.3953005"><ele>432.0</ele><time>2026-04-03T14:23:38.969Z</time></trkpt><trkpt lat="45.6374526" lon="11.3952063"><ele>431.66666666666663</ele><time>2026-04-03T14:23:41.969Z</time></trkpt><trkpt lat="45.637407" lon="11.3951325"><ele>431.3333333333333</ele><time>2026-04-03T14:23:44.969Z</time></trkpt><trkpt lat="45.6373402" lon="11.3950426"><ele>431.0</ele><time>2026-04-03T14:23:47.97Z</time></trkpt><trkpt lat="45.6372567" lon="11.394992"><ele>430.99999999999994</ele><time>2026-04-03T14:23:49.97Z</time></trkpt><trkpt lat="45.6371724" lon="11.3949562"><ele>431.0</ele><time>2026-04-03T14:23:51.969Z</time></trkpt><trkpt lat="45.6371008" lon="11.39493"><ele>431.0</ele><time>2026-04-03T14:23:53.969Z</time></trkpt><trkpt lat="45.6370371" lon="11.3948828"><ele>431.0</ele><time>2026-04-03T14:23:55.969Z</time></trkpt><trkpt lat="45.6369816" lon="11.3948219"><ele>430.99999999999994</ele><time>2026-04-03T14:23:57.968Z</time></trkpt><trkpt lat="45.6368979" lon="11.3947828"><ele>431.0</ele><time>2026-04-03T14:23:59.968Z</time></trkpt><trkpt lat="45.6368078" lon="11.3947548"><ele>431.16666666666663</ele><time>2026-04-03T14:24:01.968Z</time></trkpt><trkpt lat="45.6367795" lon="11.3946334"><ele>431.3333333333333</ele><time>2026-04-03T14:24:05.969Z</time></trkpt><trkpt lat="45.6367565" lon="11.3944859"><ele>431.5</ele><time>2026-04-03T14:24:08.968Z</time></trkpt><trkpt lat="45.6367568" lon="11.3943842"><ele>431.66666666666663</ele><time>2026-04-03T14:24:10.967Z</time></trkpt><trkpt lat="45.636755" lon="11.3942644"><ele>431.8333333333333</ele><time>2026-04-03T14:24:13.968Z</time></trkpt><trkpt lat="45.6367192" lon="11.3941647"><ele>432.0</ele><time>2026-04-03T14:24:16.968Z</time></trkpt><trkpt lat="45.6366603" lon="11.3940796"><ele>432.0</ele><time>2026-04-03T14:24:19.968Z</time></trkpt><trkpt lat="45.6366043" lon="11.3940306"><ele>432.0</ele><time>2026-04-03T14:24:21.968Z</time></trkpt><trkpt lat="45.6365384" lon="11.3939669"><ele>432.0</ele><time>2026-04-03T14:24:24.968Z</time></trkpt><trkpt lat="45.6364903" lon="11.3938901"><ele>432.0</ele><time>2026-04-03T14:24:27.968Z</time></trkpt><trkpt lat="45.6364416" lon="11.3938086"><ele>432.0</ele><time>2026-04-03T14:24:30.968Z</time></trkpt><trkpt lat="45.6363889" lon="11.3936985"><ele>432.0</ele><time>2026-04-03T14:24:33.967Z</time></trkpt><trkpt lat="45.6363098" lon="11.3936226"><ele>432.6666666666667</ele><time>2026-04-03T14:24:36.968Z</time></trkpt><trkpt lat="45.6362373" lon="11.3935382"><ele>433.33333333333337</ele><time>2026-04-03T14:24:39.968Z</time></trkpt><trkpt lat="45.6361849" lon="11.3934738"><ele>434.0</ele><time>2026-04-03T14:24:41.969Z</time></trkpt><trkpt lat="45.6361157" lon="11.3934046"><ele>434.6666666666667</ele><time>2026-04-03T14:24:43.967Z</time></trkpt><trkpt lat="45.6360527" lon="11.3933402"><ele>435.33333333333337</ele><time>2026-04-03T14:24:45.968Z</time></trkpt><trkpt lat="45.6360032" lon="11.3932786"><ele>436.0</ele><time>2026-04-03T14:24:47.968Z</time></trkpt><trkpt lat="45.6359386" lon="11.3931793"><ele>436.0</ele><time>2026-04-03T14:24:50.968Z</time></trkpt><trkpt lat="45.635893" lon="11.3931171"><ele>436.0</ele><time>2026-04-03T14:24:52.968Z</time></trkpt><trkpt lat="45.6358329" lon="11.3930618"><ele>436.0</ele><time>2026-04-03T14:24:54.968Z</time></trkpt><trkpt lat="45.6357713" lon="11.3930139"><ele>436.0</ele><time>2026-04-03T14:24:56.969Z</time></trkpt><trkpt lat="45.6357071" lon="11.392951"><ele>436.0</ele><time>2026-04-03T14:24:58.967Z</time></trkpt><trkpt lat="45.6356475" lon="11.3928928"><ele>436.0</ele><time>2026-04-03T14:25:00.968Z</time></trkpt><trkpt lat="45.6355864" lon="11.3928274"><ele>436.0</ele><time>2026-04-03T14:25:02.967Z</time></trkpt><trkpt lat="45.6355238" lon="11.3927214"><ele>435.33333333333337</ele><time>2026-04-03T14:25:04.967Z</time></trkpt><trkpt lat="45.6354768" lon="11.3926265"><ele>434.6666666666667</ele><time>2026-04-03T14:25:06.968Z</time></trkpt><trkpt lat="45.6354216" lon="11.3925222"><ele>434.0</ele><time>2026-04-03T14:25:08.968Z</time></trkpt><trkpt lat="45.6353765" lon="11.3924117"><ele>433.33333333333337</ele><time>2026-04-03T14:25:10.968Z</time></trkpt><trkpt lat="45.6353435" lon="11.3923145"><ele>432.6666666666667</ele><time>2026-04-03T14:25:12.968Z</time></trkpt><trkpt lat="45.6353127" lon="11.3922294"><ele>432.0</ele><time>2026-04-03T14:25:14.968Z</time></trkpt><trkpt lat="45.635258" lon="11.3921617"><ele>432.0</ele><time>2026-04-03T14:25:16.967Z</time></trkpt><trkpt lat="45.6351777" lon="11.3921118"><ele>432.0</ele><time>2026-04-03T14:25:18.968Z</time></trkpt><trkpt lat="45.635124" lon="11.3920626"><ele>432.0</ele><time>2026-04-03T14:25:20.969Z</time></trkpt><trkpt lat="45.635114" lon="11.3919578"><ele>432.0</ele><time>2026-04-03T14:25:23.968Z</time></trkpt><trkpt lat="45.6351713" lon="11.3918559"><ele>432.0</ele><time>2026-04-03T14:25:26.968Z</time></trkpt><trkpt lat="45.6352122" lon="11.3917622"><ele>432.0</ele><time>2026-04-03T14:25:28.968Z</time></trkpt><trkpt lat="45.6352095" lon="11.3916502"><ele>432.0</ele><time>2026-04-03T14:25:33.968Z</time></trkpt><trkpt lat="45.6351684" lon="11.3915793"><ele>432.0</ele><time>2026-04-03T14:25:35.968Z</time></trkpt><trkpt lat="45.6351517" lon="11.3914532"><ele>432.0</ele><time>2026-04-03T14:25:38.968Z</time></trkpt><trkpt lat="45.6351461" lon="11.3913602"><ele>432.0</ele><time>2026-04-03T14:25:42.968Z</time></trkpt><trkpt lat="45.6351679" lon="11.391271"><ele>432.0</ele><time>2026-04-03T14:25:46.968Z</time></trkpt><trkpt lat="45.6351525" lon="11.39117"><ele>432.0</ele><time>2026-04-03T14:25:49.874Z</time></trkpt><trkpt lat="45.6351315" lon="11.3910764"><ele>432.0</ele><time>2026-04-03T14:25:52.968Z</time></trkpt><trkpt lat="45.6348385" lon="11.3905438"><ele>430.42857142857144</ele><time>2026-04-03T14:25:55.967Z</time></trkpt><trkpt lat="45.6347883" lon="11.3906022"><ele>428.85714285714283</ele><time>2026-04-03T14:25:58.968Z</time></trkpt><trkpt lat="45.634724" lon="11.3906882"><ele>427.28571428571433</ele><time>2026-04-03T14:26:01.967Z</time></trkpt><trkpt lat="45.6346808" lon="11.3907545"><ele>425.7142857142857</ele><time>2026-04-03T14:26:03.968Z</time></trkpt><trkpt lat="45.6346212" lon="11.39082"><ele>424.14285714285717</ele><time>2026-04-03T14:26:05.968Z</time></trkpt><trkpt lat="45.6345514" lon="11.3908653"><ele>422.5714285714286</ele><time>2026-04-03T14:26:08.968Z</time></trkpt><trkpt lat="45.6344986" lon="11.3909294"><ele>421.0</ele><time>2026-04-03T14:26:11.968Z</time></trkpt><trkpt lat="45.6344121" lon="11.3910349"><ele>420.6666666666667</ele><time>2026-04-03T14:26:12.969Z</time></trkpt><trkpt lat="45.6343313" lon="11.391172"><ele>420.33333333333337</ele><time>2026-04-03T14:26:14.969Z</time></trkpt><trkpt lat="45.6342723" lon="11.3912387"><ele>420.0</ele><time>2026-04-03T14:26:15.968Z</time></trkpt><trkpt lat="45.6342068" lon="11.3912985"><ele>419.66666666666663</ele><time>2026-04-03T14:26:16.968Z</time></trkpt><trkpt lat="45.6341547" lon="11.3913747"><ele>419.3333333333333</ele><time>2026-04-03T14:26:17.969Z</time></trkpt><trkpt lat="45.6341001" lon="11.3914693"><ele>419.0</ele><time>2026-04-03T14:26:18.967Z</time></trkpt><trkpt lat="45.6340462" lon="11.3915242"><ele>419.0</ele><time>2026-04-03T14:26:19.967Z</time></trkpt><trkpt lat="45.63393" lon="11.3915613"><ele>419.0</ele><time>2026-04-03T14:26:20.969Z</time></trkpt><trkpt lat="45.6338454" lon="11.3916014"><ele>419.0</ele><time>2026-04-03T14:26:21.968Z</time></trkpt><trkpt lat="45.6337965" lon="11.3917056"><ele>419.0</ele><time>2026-04-03T14:26:22.968Z</time></trkpt><trkpt lat="45.6337233" lon="11.3917766"><ele>419.0</ele><time>2026-04-03T14:26:23.968Z</time></trkpt><trkpt lat="45.6336667" lon="11.3918816"><ele>417.16666666666663</ele><time>2026-04-03T14:26:24.968Z</time></trkpt><trkpt lat="45.6336272" lon="11.3919672"><ele>415.3333333333333</ele><time>2026-04-03T14:26:25.969Z</time></trkpt><trkpt lat="45.6335599" lon="11.3920235"><ele>413.5</ele><time>2026-04-03T14:26:26.967Z</time></trkpt><trkpt lat="45.6335005" lon="11.3920864"><ele>411.66666666666663</ele><time>2026-04-03T14:26:27.968Z</time></trkpt><trkpt lat="45.6333993" lon="11.3922276"><ele>409.8333333333333</ele><time>2026-04-03T14:26:29.968Z</time></trkpt><trkpt lat="45.6333587" lon="11.3923152"><ele>408.0</ele><time>2026-04-03T14:26:30.968Z</time></trkpt><trkpt lat="45.6332892" lon="11.3923474"><ele>408.0</ele><time>2026-04-03T14:26:31.968Z</time></trkpt><trkpt lat="45.6331783" lon="11.3924526"><ele>408.0</ele><time>2026-04-03T14:26:33.967Z</time></trkpt><trkpt lat="45.6331191" lon="11.3925428"><ele>408.0</ele><time>2026-04-03T14:26:34.968Z</time></trkpt><trkpt lat="45.6330468" lon="11.3926225"><ele>408.0</ele><time>2026-04-03T14:26:35.968Z</time></trkpt><trkpt lat="45.6329764" lon="11.3927665"><ele>408.0</ele><time>2026-04-03T14:26:37.968Z</time></trkpt><trkpt lat="45.632938" lon="11.3928653"><ele>408.0</ele><time>2026-04-03T14:26:38.968Z</time></trkpt><trkpt lat="45.6328499" lon="11.3929922"><ele>408.0</ele><time>2026-04-03T14:26:40.967Z</time></trkpt><trkpt lat="45.6327729" lon="11.3930642"><ele>408.0</ele><time>2026-04-03T14:26:42.968Z</time></trkpt><trkpt lat="45.632707" lon="11.3931348"><ele>408.0</ele><time>2026-04-03T14:26:44.968Z</time></trkpt><trkpt lat="45.6326285" lon="11.3931902"><ele>408.0</ele><time>2026-04-03T14:26:47.969Z</time></trkpt><trkpt lat="45.6325703" lon="11.3932628"><ele>407.0</ele><time>2026-04-03T14:26:50.968Z</time></trkpt><trkpt lat="45.6325022" lon="11.3932991"><ele>406.0</ele><time>2026-04-03T14:26:52.968Z</time></trkpt><trkpt lat="45.6324421" lon="11.3933646"><ele>405.0</ele><time>2026-04-03T14:26:55.967Z</time></trkpt><trkpt lat="45.6323721" lon="11.393394"><ele>404.0</ele><time>2026-04-03T14:26:57.968Z</time></trkpt><trkpt lat="45.632294" lon="11.3934252"><ele>403.0</ele><time>2026-04-03T14:26:59.968Z</time></trkpt><trkpt lat="45.6322069" lon="11.3934861"><ele>402.0</ele><time>2026-04-03T14:27:01.967Z</time></trkpt><trkpt lat="45.6321268" lon="11.3935491"><ele>402.0</ele><time>2026-04-03T14:27:03.967Z</time></trkpt><trkpt lat="45.6320604" lon="11.3936164"><ele>402.0</ele><time>2026-04-03T14:27:05.969Z</time></trkpt><trkpt lat="45.6320007" lon="11.3936905"><ele>402.0</ele><time>2026-04-03T14:27:07.969Z</time></trkpt><trkpt lat="45.6319531" lon="11.3937546"><ele>402.0</ele><time>2026-04-03T14:27:09.968Z</time></trkpt><trkpt lat="45.6318966" lon="11.3938101"><ele>402.0</ele><time>2026-04-03T14:27:11.968Z</time></trkpt><trkpt lat="45.6318457" lon="11.3938748"><ele>402.0</ele><time>2026-04-03T14:27:13.968Z</time></trkpt><trkpt lat="45.6317981" lon="11.3939476"><ele>402.0</ele><time>2026-04-03T14:27:15.969Z</time></trkpt><trkpt lat="45.6317416" lon="11.3940133"><ele>402.6666666666667</ele><time>2026-04-03T14:27:17.968Z</time></trkpt><trkpt lat="45.6316811" lon="11.3940699"><ele>403.33333333333337</ele><time>2026-04-03T14:27:19.968Z</time></trkpt><trkpt lat="45.6316157" lon="11.3941257"><ele>404.0</ele><time>2026-04-03T14:27:21.968Z</time></trkpt><trkpt lat="45.6315794" lon="11.3942708"><ele>404.6666666666667</ele><time>2026-04-03T14:27:25.969Z</time></trkpt><trkpt lat="45.6314952" lon="11.3942378"><ele>405.33333333333337</ele><time>2026-04-03T14:27:32.968Z</time></trkpt><trkpt lat="45.6314193" lon="11.3942857"><ele>406.0</ele><time>2026-04-03T14:27:36.968Z</time></trkpt><trkpt lat="45.6313727" lon="11.3943852"><ele>406.00000000000006</ele><time>2026-04-03T14:27:38.968Z</time></trkpt><trkpt lat="45.6313306" lon="11.3944867"><ele>406.0</ele><time>2026-04-03T14:27:40.968Z</time></trkpt><trkpt lat="45.6313039" lon="11.3945815"><ele>406.0</ele><time>2026-04-03T14:27:42.968Z</time></trkpt><trkpt lat="45.6312909" lon="11.3946845"><ele>406.0</ele><time>2026-04-03T14:27:44.968Z</time></trkpt><trkpt lat="45.6312658" lon="11.3947881"><ele>406.00000000000006</ele><time>2026-04-03T14:27:46.968Z</time></trkpt><trkpt lat="45.6312228" lon="11.3949133"><ele>406.0</ele><time>2026-04-03T14:27:49.967Z</time></trkpt><trkpt lat="45.6311913" lon="11.3949971"><ele>405.8</ele><time>2026-04-03T14:27:51.968Z</time></trkpt><trkpt lat="45.6312027" lon="11.3952454"><ele>405.6</ele><time>2026-04-03T14:27:53.969Z</time></trkpt><trkpt lat="45.6312137" lon="11.3953689"><ele>405.4</ele><time>2026-04-03T14:27:55.968Z</time></trkpt><trkpt lat="45.6312699" lon="11.3954766"><ele>405.2</ele><time>2026-04-03T14:27:57.968Z</time></trkpt><trkpt lat="45.631289" lon="11.3955854"><ele>405.0</ele><time>2026-04-03T14:28:02.969Z</time></trkpt><trkpt lat="45.6312886" lon="11.3956755"><ele>405.0</ele><time>2026-04-03T14:28:07.969Z</time></trkpt><trkpt lat="45.6312896" lon="11.3957696"><ele>405.0</ele><time>2026-04-03T14:28:17.968Z</time></trkpt><trkpt lat="45.6313275" lon="11.3958528"><ele>405.0</ele><time>2026-04-03T14:28:20.967Z</time></trkpt><trkpt lat="45.6313611" lon="11.3959549"><ele>405.0</ele><time>2026-04-03T14:28:23.968Z</time></trkpt><trkpt lat="45.6314303" lon="11.3960748"><ele>405.0</ele><time>2026-04-03T14:28:26.968Z</time></trkpt><trkpt lat="45.6314774" lon="11.396166"><ele>405.0</ele><time>2026-04-03T14:28:28.969Z</time></trkpt><trkpt lat="45.6315606" lon="11.3962908"><ele>404.6666666666667</ele><time>2026-04-03T14:28:29.967Z</time></trkpt><trkpt lat="45.6316526" lon="11.3963593"><ele>404.33333333333337</ele><time>2026-04-03T14:28:31.967Z</time></trkpt><trkpt lat="45.6317152" lon="11.3964112"><ele>404.0</ele><time>2026-04-03T14:28:33.968Z</time></trkpt><trkpt lat="45.6317879" lon="11.3964434"><ele>403.6666666666667</ele><time>2026-04-03T14:28:35.968Z</time></trkpt><trkpt lat="45.631839" lon="11.3965391"><ele>403.33333333333337</ele><time>2026-04-03T14:28:37.968Z</time></trkpt><trkpt lat="45.6319219" lon="11.3966207"><ele>403.0</ele><time>2026-04-03T14:28:39.969Z</time></trkpt><trkpt lat="45.631988" lon="11.3966717"><ele>403.00000000000006</ele><time>2026-04-03T14:28:42.968Z</time></trkpt><trkpt lat="45.6320625" lon="11.3967257"><ele>403.0</ele><time>2026-04-03T14:28:45.967Z</time></trkpt><trkpt lat="45.6321283" lon="11.3967497"><ele>403.0</ele><time>2026-04-03T14:28:47.969Z</time></trkpt><trkpt lat="45.6322086" lon="11.3968061"><ele>403.0</ele><time>2026-04-03T14:28:51.968Z</time></trkpt><trkpt lat="45.632271" lon="11.3968552"><ele>403.00000000000006</ele><time>2026-04-03T14:28:54.968Z</time></trkpt><trkpt lat="45.6323205" lon="11.3969296"><ele>403.0</ele><time>2026-04-03T14:28:57.967Z</time></trkpt><trkpt lat="45.6323979" lon="11.3969853"><ele>403.00000000000006</ele><time>2026-04-03T14:29:00.967Z</time></trkpt><trkpt lat="45.6324808" lon="11.3970309"><ele>403.0</ele><time>2026-04-03T14:29:03.969Z</time></trkpt><trkpt lat="45.6325538" lon="11.3970677"><ele>403.0</ele><time>2026-04-03T14:29:06.968Z</time></trkpt><trkpt lat="45.6326342" lon="11.3970789"><ele>403.0</ele><time>2026-04-03T14:29:11.967Z</time></trkpt><trkpt lat="45.6326979" lon="11.3970947"><ele>403.00000000000006</ele><time>2026-04-03T14:29:14.968Z</time></trkpt><trkpt lat="45.6327823" lon="11.3971161"><ele>403.0</ele><time>2026-04-03T14:29:18.969Z</time></trkpt><trkpt lat="45.6328563" lon="11.3971393"><ele>402.14285714285717</ele><time>2026-04-03T14:29:23.968Z</time></trkpt><trkpt lat="45.6329166" lon="11.3971724"><ele>401.2857142857143</ele><time>2026-04-03T14:29:33.968Z</time></trkpt><trkpt lat="45.6329748" lon="11.3972154"><ele>400.42857142857144</ele><time>2026-04-03T14:29:40.968Z</time></trkpt><trkpt lat="45.6330708" lon="11.3972324"><ele>399.57142857142856</ele><time>2026-04-03T14:29:52.968Z</time></trkpt><trkpt lat="45.6331065" lon="11.3973121"><ele>398.71428571428567</ele><time>2026-04-03T14:29:58.968Z</time></trkpt><trkpt lat="45.6331357" lon="11.3974043"><ele>397.85714285714283</ele><time>2026-04-03T14:30:04.968Z</time></trkpt><trkpt lat="45.6331734" lon="11.3974845"><ele>397.0</ele><time>2026-04-03T14:30:07.968Z</time></trkpt><trkpt lat="45.6332156" lon="11.397585"><ele>397.00000000000006</ele><time>2026-04-03T14:30:10.968Z</time></trkpt><trkpt lat="45.6332556" lon="11.3976705"><ele>397.0</ele><time>2026-04-03T14:30:12.967Z</time></trkpt><trkpt lat="45.633306" lon="11.3977353"><ele>397.0</ele><time>2026-04-03T14:30:14.968Z</time></trkpt><trkpt lat="45.6333588" lon="11.3978152"><ele>397.0</ele><time>2026-04-03T14:30:17.969Z</time></trkpt><trkpt lat="45.6334117" lon="11.3979024"><ele>397.00000000000006</ele><time>2026-04-03T14:30:20.969Z</time></trkpt><trkpt lat="45.6334435" lon="11.3980248"><ele>397.0</ele><time>2026-04-03T14:30:22.968Z</time></trkpt><trkpt lat="45.6334884" lon="11.3981513"><ele>397.6666666666667</ele><time>2026-04-03T14:30:24.968Z</time></trkpt><trkpt lat="45.6335333" lon="11.3982673"><ele>398.33333333333337</ele><time>2026-04-03T14:30:26.968Z</time></trkpt><trkpt lat="45.6335538" lon="11.3983592"><ele>399.0</ele><time>2026-04-03T14:30:29.967Z</time></trkpt><trkpt lat="45.6335616" lon="11.3984763"><ele>399.66666666666663</ele><time>2026-04-03T14:30:32.969Z</time></trkpt><trkpt lat="45.6335816" lon="11.3985673"><ele>400.3333333333333</ele><time>2026-04-03T14:30:34.967Z</time></trkpt><trkpt lat="45.6336273" lon="11.3986894"><ele>401.0</ele><time>2026-04-03T14:30:37.968Z</time></trkpt><trkpt lat="45.6336813" lon="11.3987745"><ele>398.20000000000005</ele><time>2026-04-03T14:30:39.968Z</time></trkpt><trkpt lat="45.6337485" lon="11.3988595"><ele>395.40000000000003</ele><time>2026-04-03T14:30:41.967Z</time></trkpt><trkpt lat="45.6338183" lon="11.398948"><ele>392.6</ele><time>2026-04-03T14:30:43.968Z</time></trkpt><trkpt lat="45.6338956" lon="11.3990302"><ele>389.8</ele><time>2026-04-03T14:30:45.968Z</time></trkpt><trkpt lat="45.6339749" lon="11.3990915"><ele>387.0</ele><time>2026-04-03T14:30:47.968Z</time></trkpt><trkpt lat="45.634058" lon="11.3991319"><ele>387.0</ele><time>2026-04-03T14:30:49.967Z</time></trkpt><trkpt lat="45.6341424" lon="11.3991434"><ele>387.0</ele><time>2026-04-03T14:30:51.967Z</time></trkpt><trkpt lat="45.6342128" lon="11.3991269"><ele>387.0</ele><time>2026-04-03T14:30:53.967Z</time></trkpt><trkpt lat="45.6342954" lon="11.3991155"><ele>387.0</ele><time>2026-04-03T14:30:56.968Z</time></trkpt><trkpt lat="45.6343581" lon="11.399138"><ele>387.0</ele><time>2026-04-03T14:30:58.968Z</time></trkpt><trkpt lat="45.6344403" lon="11.3991931"><ele>387.0</ele><time>2026-04-03T14:31:00.968Z</time></trkpt><trkpt lat="45.6345152" lon="11.3992404"><ele>387.0</ele><time>2026-04-03T14:31:02.968Z</time></trkpt><trkpt lat="45.6345833" lon="11.3992795"><ele>387.0</ele><time>2026-04-03T14:31:04.968Z</time></trkpt><trkpt lat="45.6346615" lon="11.3993201"><ele>387.0</ele><time>2026-04-03T14:31:07.969Z</time></trkpt><trkpt lat="45.6345869" lon="11.3992868"><ele>387.0</ele><time>2026-04-03T14:31:14.969Z</time></trkpt><trkpt lat="45.6345058" lon="11.3993009"><ele>387.0</ele><time>2026-04-03T14:31:16.968Z</time></trkpt><trkpt lat="45.6344222" lon="11.399345"><ele>387.0</ele><time>2026-04-03T14:31:18.967Z</time></trkpt><trkpt lat="45.6343567" lon="11.3993833"><ele>387.0</ele><time>2026-04-03T14:31:19.968Z</time></trkpt><trkpt lat="45.6342782" lon="11.3994223"><ele>387.0</ele><time>2026-04-03T14:31:20.969Z</time></trkpt><trkpt lat="45.6342029" lon="11.3994461"><ele>387.0</ele><time>2026-04-03T14:31:21.968Z</time></trkpt><trkpt lat="45.6341308" lon="11.3994566"><ele>387.0</ele><time>2026-04-03T14:31:22.967Z</time></trkpt><trkpt lat="45.6340677" lon="11.3994521"><ele>387.0</ele><time>2026-04-03T14:31:23.969Z</time></trkpt><trkpt lat="45.634004" lon="11.3994231"><ele>387.0</ele><time>2026-04-03T14:31:24.968Z</time></trkpt><trkpt lat="45.6339086" lon="11.399228"><ele>387.0</ele><time>2026-04-03T14:31:25.968Z</time></trkpt><trkpt lat="45.6338746" lon="11.3991351"><ele>387.0</ele><time>2026-04-03T14:31:26.968Z</time></trkpt><trkpt lat="45.6338323" lon="11.399049"><ele>387.0</ele><time>2026-04-03T14:31:27.968Z</time></trkpt><trkpt lat="45.6337515" lon="11.3989563"><ele>387.0</ele><time>2026-04-03T14:31:28.968Z</time></trkpt><trkpt lat="45.6336843" lon="11.3988885"><ele>387.0</ele><time>2026-04-03T14:31:29.968Z</time></trkpt><trkpt lat="45.6336636" lon="11.3987585"><ele>387.0</ele><time>2026-04-03T14:31:30.969Z</time></trkpt><trkpt lat="45.6336048" lon="11.3986576"><ele>384.0</ele><time>2026-04-03T14:31:31.968Z</time></trkpt><trkpt lat="45.6335821" lon="11.3985465"><ele>381.0</ele><time>2026-04-03T14:31:32.967Z</time></trkpt><trkpt lat="45.6335443" lon="11.3984189"><ele>378.0</ele><time>2026-04-03T14:31:33.968Z</time></trkpt><trkpt lat="45.63353" lon="11.3983157"><ele>375.0</ele><time>2026-04-03T14:31:34.969Z</time></trkpt><trkpt lat="45.6334702" lon="11.3982133"><ele>372.0</ele><time>2026-04-03T14:31:35.968Z</time></trkpt><trkpt lat="45.6334059" lon="11.398125"><ele>369.0</ele><time>2026-04-03T14:31:36.968Z</time></trkpt><trkpt lat="45.6333407" lon="11.398036"><ele>374.6</ele><time>2026-04-03T14:31:37.967Z</time></trkpt><trkpt lat="45.6332676" lon="11.3979553"><ele>380.2</ele><time>2026-04-03T14:31:38.968Z</time></trkpt><trkpt lat="45.6331982" lon="11.3978729"><ele>385.8</ele><time>2026-04-03T14:31:39.968Z</time></trkpt><trkpt lat="45.6331068" lon="11.3978152"><ele>391.40000000000003</ele><time>2026-04-03T14:31:40.968Z</time></trkpt><trkpt lat="45.6330165" lon="11.3977373"><ele>397.0</ele><time>2026-04-03T14:31:41.969Z</time></trkpt><trkpt lat="45.6329491" lon="11.3976766"><ele>397.00000000000006</ele><time>2026-04-03T14:31:42.968Z</time></trkpt><trkpt lat="45.6328581" lon="11.3976119"><ele>397.0</ele><time>2026-04-03T14:31:43.968Z</time></trkpt><trkpt lat="45.6327726" lon="11.3976437"><ele>397.0</ele><time>2026-04-03T14:31:44.968Z</time></trkpt><trkpt lat="45.6326765" lon="11.3975909"><ele>397.0</ele><time>2026-04-03T14:31:45.968Z</time></trkpt><trkpt lat="45.6326044" lon="11.3975931"><ele>397.00000000000006</ele><time>2026-04-03T14:31:46.967Z</time></trkpt><trkpt lat="45.6325322" lon="11.3975711"><ele>397.0</ele><time>2026-04-03T14:31:47.969Z</time></trkpt><trkpt lat="45.6324545" lon="11.3975755"><ele>390.40000000000003</ele><time>2026-04-03T14:31:48.968Z</time></trkpt><trkpt lat="45.6323712" lon="11.3975511"><ele>383.8</ele><time>2026-04-03T14:31:49.968Z</time></trkpt><trkpt lat="45.6322759" lon="11.3974881"><ele>377.2</ele><time>2026-04-03T14:31:50.969Z</time></trkpt><trkpt lat="45.6321903" lon="11.3974164"><ele>370.6</ele><time>2026-04-03T14:31:51.967Z</time></trkpt><trkpt lat="45.6321182" lon="11.3973536"><ele>364.0</ele><time>2026-04-03T14:31:52.968Z</time></trkpt><trkpt lat="45.6320552" lon="11.3972642"><ele>366.66666666666663</ele><time>2026-04-03T14:31:53.968Z</time></trkpt><trkpt lat="45.6319612" lon="11.3972133"><ele>369.3333333333333</ele><time>2026-04-03T14:31:54.968Z</time></trkpt><trkpt lat="45.6318732" lon="11.3971501"><ele>372.0</ele><time>2026-04-03T14:31:55.968Z</time></trkpt><trkpt lat="45.6318086" lon="11.3970914"><ele>374.6666666666667</ele><time>2026-04-03T14:31:56.969Z</time></trkpt><trkpt lat="45.6317216" lon="11.3970724"><ele>377.33333333333337</ele><time>2026-04-03T14:31:57.968Z</time></trkpt><trkpt lat="45.6316436" lon="11.397032"><ele>380.0</ele><time>2026-04-03T14:31:58.968Z</time></trkpt><trkpt lat="45.6315444" lon="11.3970168"><ele>380.0</ele><time>2026-04-03T14:31:59.967Z</time></trkpt><trkpt lat="45.6314697" lon="11.3970038"><ele>380.0</ele><time>2026-04-03T14:32:00.968Z</time></trkpt><trkpt lat="45.6313894" lon="11.3969814"><ele>380.0</ele><time>2026-04-03T14:32:01.968Z</time></trkpt><trkpt lat="45.6313038" lon="11.3969811"><ele>380.0</ele><time>2026-04-03T14:32:02.967Z</time></trkpt><trkpt lat="45.6312128" lon="11.3969551"><ele>380.0</ele><time>2026-04-03T14:32:03.969Z</time></trkpt><trkpt lat="45.6311294" lon="11.3969372"><ele>380.0</ele><time>2026-04-03T14:32:04.968Z</time></trkpt><trkpt lat="45.6310474" lon="11.3969522"><ele>376.83333333333337</ele><time>2026-04-03T14:32:05.968Z</time></trkpt><trkpt lat="45.6309499" lon="11.3969393"><ele>373.6666666666667</ele><time>2026-04-03T14:32:06.967Z</time></trkpt><trkpt lat="45.6308546" lon="11.3969487"><ele>370.5</ele><time>2026-04-03T14:32:07.967Z</time></trkpt><trkpt lat="45.6307785" lon="11.3969832"><ele>367.3333333333333</ele><time>2026-04-03T14:32:08.968Z</time></trkpt><trkpt lat="45.6307285" lon="11.3970395"><ele>364.16666666666663</ele><time>2026-04-03T14:32:09.968Z</time></trkpt><trkpt lat="45.6306531" lon="11.3970069"><ele>361.0</ele><time>2026-04-03T14:32:11.968Z</time></trkpt><trkpt lat="45.6305412" lon="11.39697"><ele>361.0</ele><time>2026-04-03T14:32:13.968Z</time></trkpt><trkpt lat="45.6304828" lon="11.3968792"><ele>361.0</ele><time>2026-04-03T14:32:14.967Z</time></trkpt><trkpt lat="45.6304243" lon="11.3967269"><ele>361.0</ele><time>2026-04-03T14:32:16.967Z</time></trkpt><trkpt lat="45.6303972" lon="11.3966044"><ele>361.0</ele><time>2026-04-03T14:32:17.968Z</time></trkpt><trkpt lat="45.6304183" lon="11.3964362"><ele>361.0</ele><time>2026-04-03T14:32:19.968Z</time></trkpt><trkpt lat="45.6303955" lon="11.3962849"><ele>364.20000000000005</ele><time>2026-04-03T14:32:21.968Z</time></trkpt><trkpt lat="45.6303763" lon="11.3961486"><ele>367.40000000000003</ele><time>2026-04-03T14:32:23.968Z</time></trkpt><trkpt lat="45.6303781" lon="11.39602"><ele>370.6</ele><time>2026-04-03T14:32:25.968Z</time></trkpt><trkpt lat="45.6303461" lon="11.3958779"><ele>373.8</ele><time>2026-04-03T14:32:28.968Z</time></trkpt><trkpt lat="45.6303249" lon="11.3956912"><ele>377.0</ele><time>2026-04-03T14:32:30.968Z</time></trkpt><trkpt lat="45.6303037" lon="11.3955742"><ele>371.6666666666667</ele><time>2026-04-03T14:32:31.969Z</time></trkpt><trkpt lat="45.6302713" lon="11.3954864"><ele>366.33333333333337</ele><time>2026-04-03T14:32:32.967Z</time></trkpt><trkpt lat="45.6302445" lon="11.3953958"><ele>361.0</ele><time>2026-04-03T14:32:33.969Z</time></trkpt><trkpt lat="45.6301872" lon="11.3952152"><ele>355.6666666666667</ele><time>2026-04-03T14:32:35.968Z</time></trkpt><trkpt lat="45.6301254" lon="11.3951129"><ele>350.3333333333333</ele><time>2026-04-03T14:32:36.968Z</time></trkpt><trkpt lat="45.630066" lon="11.3950452"><ele>345.0</ele><time>2026-04-03T14:32:37.968Z</time></trkpt><trkpt lat="45.6299971" lon="11.3949643"><ele>345.0</ele><time>2026-04-03T14:32:38.968Z</time></trkpt><trkpt lat="45.6299209" lon="11.3949151"><ele>345.0</ele><time>2026-04-03T14:32:39.969Z</time></trkpt><trkpt lat="45.6298866" lon="11.3948188"><ele>345.0</ele><time>2026-04-03T14:32:40.969Z</time></trkpt><trkpt lat="45.6298267" lon="11.3947417"><ele>345.0</ele><time>2026-04-03T14:32:41.968Z</time></trkpt><trkpt lat="45.629783" lon="11.3946338"><ele>345.0</ele><time>2026-04-03T14:32:42.969Z</time></trkpt><trkpt lat="45.6297135" lon="11.3945637"><ele>345.0</ele><time>2026-04-03T14:32:43.967Z</time></trkpt><trkpt lat="45.6296" lon="11.39448"><ele>343.8333333333333</ele><time>2026-04-03T14:32:45.967Z</time></trkpt><trkpt lat="45.6295366" lon="11.3944574"><ele>342.6666666666667</ele><time>2026-04-03T14:32:46.968Z</time></trkpt><trkpt lat="45.6294515" lon="11.394443"><ele>341.5</ele><time>2026-04-03T14:32:47.968Z</time></trkpt><trkpt lat="45.6293729" lon="11.3944383"><ele>340.33333333333337</ele><time>2026-04-03T14:32:48.967Z</time></trkpt><trkpt lat="45.629283" lon="11.3944502"><ele>339.1666666666667</ele><time>2026-04-03T14:32:49.968Z</time></trkpt><trkpt lat="45.6291933" lon="11.394408"><ele>338.0</ele><time>2026-04-03T14:32:50.968Z</time></trkpt><trkpt lat="45.6291177" lon="11.3944067"><ele>338.0</ele><time>2026-04-03T14:32:51.967Z</time></trkpt><trkpt lat="45.6290423" lon="11.3943809"><ele>338.0</ele><time>2026-04-03T14:32:52.968Z</time></trkpt><trkpt lat="45.6289688" lon="11.3943902"><ele>338.0</ele><time>2026-04-03T14:32:53.968Z</time></trkpt><trkpt lat="45.6288889" lon="11.3943875"><ele>338.0</ele><time>2026-04-03T14:32:54.968Z</time></trkpt><trkpt lat="45.6288249" lon="11.3943837"><ele>338.0</ele><time>2026-04-03T14:32:55.968Z</time></trkpt><trkpt lat="45.6287202" lon="11.39436"><ele>338.0</ele><time>2026-04-03T14:32:57.968Z</time></trkpt><trkpt lat="45.6287072" lon="11.3942411"><ele>338.0</ele><time>2026-04-03T14:32:59.968Z</time></trkpt><trkpt lat="45.6287076" lon="11.3941269"><ele>338.0</ele><time>2026-04-03T14:33:01.968Z</time></trkpt><trkpt lat="45.6287477" lon="11.3939939"><ele>338.0</ele><time>2026-04-03T14:33:03.968Z</time></trkpt><trkpt lat="45.6288092" lon="11.3938646"><ele>338.0</ele><time>2026-04-03T14:33:05.968Z</time></trkpt><trkpt lat="45.6288531" lon="11.3937797"><ele>338.0</ele><time>2026-04-03T14:33:06.968Z</time></trkpt><trkpt lat="45.6288999" lon="11.3937179"><ele>338.0</ele><time>2026-04-03T14:33:07.967Z</time></trkpt><trkpt lat="45.6289224" lon="11.3936291"><ele>336.0</ele><time>2026-04-03T14:33:08.968Z</time></trkpt><trkpt lat="45.6289599" lon="11.3935446"><ele>334.0</ele><time>2026-04-03T14:33:09.969Z</time></trkpt><trkpt lat="45.6290614" lon="11.3933913"><ele>332.0</ele><time>2026-04-03T14:33:11.967Z</time></trkpt><trkpt lat="45.6291204" lon="11.39329"><ele>330.0</ele><time>2026-04-03T14:33:12.969Z</time></trkpt><trkpt lat="45.6291708" lon="11.3932009"><ele>328.0</ele><time>2026-04-03T14:33:13.968Z</time></trkpt><trkpt lat="45.6292192" lon="11.3931041"><ele>323.4</ele><time>2026-04-03T14:33:14.967Z</time></trkpt><trkpt lat="45.6292697" lon="11.3929928"><ele>318.79999999999995</ele><time>2026-04-03T14:33:15.968Z</time></trkpt><trkpt lat="45.6293398" lon="11.3929019"><ele>314.2</ele><time>2026-04-03T14:33:16.968Z</time></trkpt><trkpt lat="45.6293738" lon="11.3927639"><ele>309.6</ele><time>2026-04-03T14:33:17.968Z</time></trkpt><trkpt lat="45.6294078" lon="11.3926503"><ele>305.0</ele><time>2026-04-03T14:33:18.968Z</time></trkpt><trkpt lat="45.6294829" lon="11.3925625"><ele>307.6666666666667</ele><time>2026-04-03T14:33:19.967Z</time></trkpt><trkpt lat="45.6294942" lon="11.3924386"><ele>310.33333333333337</ele><time>2026-04-03T14:33:20.968Z</time></trkpt><trkpt lat="45.6295046" lon="11.3923249"><ele>313.0</ele><time>2026-04-03T14:33:21.967Z</time></trkpt><trkpt lat="45.6295873" lon="11.3922299"><ele>315.6666666666667</ele><time>2026-04-03T14:33:22.968Z</time></trkpt><trkpt lat="45.629615" lon="11.3921095"><ele>318.3333333333333</ele><time>2026-04-03T14:33:23.967Z</time></trkpt><trkpt lat="45.6296683" lon="11.3920379"><ele>321.0</ele><time>2026-04-03T14:33:24.968Z</time></trkpt><trkpt lat="45.6297363" lon="11.3919279"><ele>321.0</ele><time>2026-04-03T14:33:25.968Z</time></trkpt><trkpt lat="45.6297985" lon="11.3918314"><ele>321.0</ele><time>2026-04-03T14:33:26.969Z</time></trkpt><trkpt lat="45.6298723" lon="11.3917579"><ele>321.0</ele><time>2026-04-03T14:33:27.968Z</time></trkpt><trkpt lat="45.6299383" lon="11.3916332"><ele>321.0</ele><time>2026-04-03T14:33:28.967Z</time></trkpt><trkpt lat="45.6300033" lon="11.3915338"><ele>321.0</ele><time>2026-04-03T14:33:29.967Z</time></trkpt><trkpt lat="45.6300624" lon="11.3914412"><ele>321.0</ele><time>2026-04-03T14:33:30.968Z</time></trkpt><trkpt lat="45.6301239" lon="11.3913675"><ele>321.0</ele><time>2026-04-03T14:33:31.969Z</time></trkpt><trkpt lat="45.6302004" lon="11.3913105"><ele>321.0</ele><time>2026-04-03T14:33:32.968Z</time></trkpt><trkpt lat="45.6302422" lon="11.3912054"><ele>321.0</ele><time>2026-04-03T14:33:33.969Z</time></trkpt><trkpt lat="45.6302997" lon="11.391133"><ele>321.0</ele><time>2026-04-03T14:33:34.968Z</time></trkpt><trkpt lat="45.6303567" lon="11.3910598"><ele>321.0</ele><time>2026-04-03T14:33:35.967Z</time></trkpt><trkpt lat="45.6304065" lon="11.3909419"><ele>321.0</ele><time>2026-04-03T14:33:36.968Z</time></trkpt><trkpt lat="45.6304864" lon="11.3909307"><ele>321.0</ele><time>2026-04-03T14:33:37.967Z</time></trkpt><trkpt lat="45.6305412" lon="11.3908213"><ele>321.0</ele><time>2026-04-03T14:33:38.969Z</time></trkpt><trkpt lat="45.6306162" lon="11.3907796"><ele>321.0</ele><time>2026-04-03T14:33:39.969Z</time></trkpt><trkpt lat="45.6306852" lon="11.3906901"><ele>321.0</ele><time>2026-04-03T14:33:40.968Z</time></trkpt><trkpt lat="45.63074" lon="11.3906024"><ele>321.0</ele><time>2026-04-03T14:33:41.968Z</time></trkpt><trkpt lat="45.6308128" lon="11.390531"><ele>319.6666666666667</ele><time>2026-04-03T14:33:42.969Z</time></trkpt><trkpt lat="45.6308563" lon="11.3904538"><ele>318.3333333333333</ele><time>2026-04-03T14:33:43.969Z</time></trkpt><trkpt lat="45.6309292" lon="11.3903841"><ele>317.0</ele><time>2026-04-03T14:33:44.968Z</time></trkpt><trkpt lat="45.6309919" lon="11.3903389"><ele>315.66666666666663</ele><time>2026-04-03T14:33:45.968Z</time></trkpt><trkpt lat="45.6310808" lon="11.3903152"><ele>314.3333333333333</ele><time>2026-04-03T14:33:46.967Z</time></trkpt><trkpt lat="45.6311896" lon="11.3902432"><ele>313.0</ele><time>2026-04-03T14:33:48.967Z</time></trkpt><trkpt lat="45.6312579" lon="11.3902071"><ele>313.0</ele><time>2026-04-03T14:33:49.968Z</time></trkpt><trkpt lat="45.631337" lon="11.3901008"><ele>313.0</ele><time>2026-04-03T14:33:51.967Z</time></trkpt><trkpt lat="45.6307285" lon="11.3970395"><ele>322.6</ele><time>2026-04-03T14:32:09.968Z</time></trkpt><trkpt lat="45.6306531" lon="11.3970069"><ele>332.20000000000005</ele><time>2026-04-03T14:32:11.968Z</time></trkpt><trkpt lat="45.6305412" lon="11.39697"><ele>341.8</ele><time>2026-04-03T14:32:13.968Z</time></trkpt><trkpt lat="45.6304828" lon="11.3968792"><ele>351.40000000000003</ele><time>2026-04-03T14:32:14.967Z</time></trkpt><trkpt lat="45.6304243" lon="11.3967269"><ele>361.0</ele><time>2026-04-03T14:32:16.967Z</time></trkpt><trkpt lat="45.6303972" lon="11.3966044"><ele>361.0</ele><time>2026-04-03T14:32:17.968Z</time></trkpt><trkpt lat="45.6304183" lon="11.3964362"><ele>361.0</ele><time>2026-04-03T14:32:19.968Z</time></trkpt><trkpt lat="45.6303955" lon="11.3962849"><ele>361.0</ele><time>2026-04-03T14:32:21.968Z</time></trkpt><trkpt lat="45.6303763" lon="11.3961486"><ele>361.0</ele><time>2026-04-03T14:32:23.968Z</time></trkpt><trkpt lat="45.6303781" lon="11.39602"><ele>361.0</ele><time>2026-04-03T14:32:25.968Z</time></trkpt><trkpt lat="45.6303461" lon="11.3958779"><ele>364.20000000000005</ele><time>2026-04-03T14:32:28.968Z</time></trkpt><trkpt lat="45.6303249" lon="11.3956912"><ele>367.40000000000003</ele><time>2026-04-03T14:32:30.968Z</time></trkpt><trkpt lat="45.6303037" lon="11.3955742"><ele>370.6</ele><time>2026-04-03T14:32:31.969Z</time></trkpt><trkpt lat="45.6302713" lon="11.3954864"><ele>373.8</ele><time>2026-04-03T14:32:32.967Z</time></trkpt><trkpt lat="45.6302445" lon="11.3953958"><ele>377.0</ele><time>2026-04-03T14:32:33.969Z</time></trkpt><trkpt lat="45.6301872" lon="11.3952152"><ele>371.6666666666667</ele><time>2026-04-03T14:32:35.968Z</time></trkpt><trkpt lat="45.6301254" lon="11.3951129"><ele>366.33333333333337</ele><time>2026-04-03T14:32:36.968Z</time></trkpt><trkpt lat="45.630066" lon="11.3950452"><ele>361.0</ele><time>2026-04-03T14:32:37.968Z</time></trkpt><trkpt lat="45.6299971" lon="11.3949643"><ele>355.6666666666667</ele><time>2026-04-03T14:32:38.968Z</time></trkpt><trkpt lat="45.6299209" lon="11.3949151"><ele>350.3333333333333</ele><time>2026-04-03T14:32:39.969Z</time></trkpt><trkpt lat="45.6298866" lon="11.3948188"><ele>345.0</ele><time>2026-04-03T14:32:40.969Z</time></trkpt><trkpt lat="45.6298267" lon="11.3947417"><ele>343.6</ele><time>2026-04-03T14:32:41.968Z</time></trkpt><trkpt lat="45.629783" lon="11.3946338"><ele>342.2</ele><time>2026-04-03T14:32:42.969Z</time></trkpt><trkpt lat="45.6297135" lon="11.3945637"><ele>340.79999999999995</ele><time>2026-04-03T14:32:43.967Z</time></trkpt><trkpt lat="45.6296" lon="11.39448"><ele>339.4</ele><time>2026-04-03T14:32:45.967Z</time></trkpt><trkpt lat="45.6295366" lon="11.3944574"><ele>338.0</ele><time>2026-04-03T14:32:46.968Z</time></trkpt><trkpt lat="45.6294515" lon="11.394443"><ele>338.0</ele><time>2026-04-03T14:32:47.968Z</time></trkpt><trkpt lat="45.6293729" lon="11.3944383"><ele>338.0</ele><time>2026-04-03T14:32:48.967Z</time></trkpt><trkpt lat="45.629283" lon="11.3944502"><ele>338.0</ele><time>2026-04-03T14:32:49.968Z</time></trkpt><trkpt lat="45.6291933" lon="11.394408"><ele>338.0</ele><time>2026-04-03T14:32:50.968Z</time></trkpt><trkpt lat="45.6291177" lon="11.3944067"><ele>338.0</ele><time>2026-04-03T14:32:51.967Z</time></trkpt><trkpt lat="45.6290423" lon="11.3943809"><ele>338.0</ele><time>2026-04-03T14:32:52.968Z</time></trkpt><trkpt lat="45.6289688" lon="11.3943902"><ele>338.0</ele><time>2026-04-03T14:32:53.968Z</time></trkpt><trkpt lat="45.6288889" lon="11.3943875"><ele>338.0</ele><time>2026-04-03T14:32:54.968Z</time></trkpt><trkpt lat="45.6288249" lon="11.3943837"><ele>338.0</ele><time>2026-04-03T14:32:55.968Z</time></trkpt><trkpt lat="45.6287202" lon="11.39436"><ele>338.0</ele><time>2026-04-03T14:32:57.968Z</time></trkpt><trkpt lat="45.6287072" lon="11.3942411"><ele>338.0</ele><time>2026-04-03T14:32:59.968Z</time></trkpt><trkpt lat="45.6287076" lon="11.3941269"><ele>338.0</ele><time>2026-04-03T14:33:01.968Z</time></trkpt><trkpt lat="45.6287477" lon="11.3939939"><ele>338.0</ele><time>2026-04-03T14:33:03.968Z</time></trkpt><trkpt lat="45.6288092" lon="11.3938646"><ele>338.0</ele><time>2026-04-03T14:33:05.968Z</time></trkpt><trkpt lat="45.6288531" lon="11.3937797"><ele>338.0</ele><time>2026-04-03T14:33:06.968Z</time></trkpt><trkpt lat="45.6288999" lon="11.3937179"><ele>338.0</ele><time>2026-04-03T14:33:07.967Z</time></trkpt><trkpt lat="45.6289224" lon="11.3936291"><ele>338.0</ele><time>2026-04-03T14:33:08.968Z</time></trkpt><trkpt lat="45.6289599" lon="11.3935446"><ele>338.0</ele><time>2026-04-03T14:33:09.969Z</time></trkpt><trkpt lat="45.6290614" lon="11.3933913"><ele>336.33333333333337</ele><time>2026-04-03T14:33:11.967Z</time></trkpt><trkpt lat="45.6291204" lon="11.39329"><ele>334.6666666666667</ele><time>2026-04-03T14:33:12.969Z</time></trkpt><trkpt lat="45.6291708" lon="11.3932009"><ele>333.0</ele><time>2026-04-03T14:33:13.968Z</time></trkpt><trkpt lat="45.6292192" lon="11.3931041"><ele>331.3333333333333</ele><time>2026-04-03T14:33:14.967Z</time></trkpt><trkpt lat="45.6292697" lon="11.3929928"><ele>329.66666666666663</ele><time>2026-04-03T14:33:15.968Z</time></trkpt><trkpt lat="45.6293398" lon="11.3929019"><ele>328.0</ele><time>2026-04-03T14:33:16.968Z</time></trkpt><trkpt lat="45.6293738" lon="11.3927639"><ele>323.4</ele><time>2026-04-03T14:33:17.968Z</time></trkpt><trkpt lat="45.6294078" lon="11.3926503"><ele>318.79999999999995</ele><time>2026-04-03T14:33:18.968Z</time></trkpt><trkpt lat="45.6294829" lon="11.3925625"><ele>314.2</ele><time>2026-04-03T14:33:19.967Z</time></trkpt><trkpt lat="45.6294942" lon="11.3924386"><ele>309.6</ele><time>2026-04-03T14:33:20.968Z</time></trkpt><trkpt lat="45.6295046" lon="11.3923249"><ele>305.0</ele><time>2026-04-03T14:33:21.967Z</time></trkpt><trkpt lat="45.6295873" lon="11.3922299"><ele>307.6666666666667</ele><time>2026-04-03T14:33:22.968Z</time></trkpt><trkpt lat="45.629615" lon="11.3921095"><ele>310.33333333333337</ele><time>2026-04-03T14:33:23.967Z</time></trkpt><trkpt lat="45.6296683" lon="11.3920379"><ele>313.0</ele><time>2026-04-03T14:33:24.968Z</time></trkpt><trkpt lat="45.6297363" lon="11.3919279"><ele>315.6666666666667</ele><time>2026-04-03T14:33:25.968Z</time></trkpt><trkpt lat="45.6297985" lon="11.3918314"><ele>318.3333333333333</ele><time>2026-04-03T14:33:26.969Z</time></trkpt><trkpt lat="45.6298723" lon="11.3917579"><ele>321.0</ele><time>2026-04-03T14:33:27.968Z</time></trkpt><trkpt lat="45.6299383" lon="11.3916332"><ele>321.0</ele><time>2026-04-03T14:33:28.967Z</time></trkpt><trkpt lat="45.6300033" lon="11.3915338"><ele>321.0</ele><time>2026-04-03T14:33:29.967Z</time></trkpt><trkpt lat="45.6300624" lon="11.3914412"><ele>321.0</ele><time>2026-04-03T14:33:30.968Z</time></trkpt><trkpt lat="45.6301239" lon="11.3913675"><ele>321.0</ele><time>2026-04-03T14:33:31.969Z</time></trkpt><trkpt lat="45.6302004" lon="11.3913105"><ele>321.0</ele><time>2026-04-03T14:33:32.968Z</time></trkpt><trkpt lat="45.6302422" lon="11.3912054"><ele>321.0</ele><time>2026-04-03T14:33:33.969Z</time></trkpt><trkpt lat="45.6302997" lon="11.391133"><ele>321.0</ele><time>2026-04-03T14:33:34.968Z</time></trkpt><trkpt lat="45.6303567" lon="11.3910598"><ele>321.0</ele><time>2026-04-03T14:33:35.967Z</time></trkpt><trkpt lat="45.6304065" lon="11.3909419"><ele>321.0</ele><time>2026-04-03T14:33:36.968Z</time></trkpt><trkpt lat="45.6304864" lon="11.3909307"><ele>321.0</ele><time>2026-04-03T14:33:37.967Z</time></trkpt><trkpt lat="45.6305412" lon="11.3908213"><ele>321.0</ele><time>2026-04-03T14:33:38.969Z</time></trkpt><trkpt lat="45.6306162" lon="11.3907796"><ele>321.0</ele><time>2026-04-03T14:33:39.969Z</time></trkpt><trkpt lat="45.6306852" lon="11.3906901"><ele>321.0</ele><time>2026-04-03T14:33:40.968Z</time></trkpt><trkpt lat="45.63074" lon="11.3906024"><ele>321.0</ele><time>2026-04-03T14:33:41.968Z</time></trkpt><trkpt lat="45.6308128" lon="11.390531"><ele>321.0</ele><time>2026-04-03T14:33:42.969Z</time></trkpt><trkpt lat="45.6308563" lon="11.3904538"><ele>321.0</ele><time>2026-04-03T14:33:43.969Z</time></trkpt><trkpt lat="45.6309292" lon="11.3903841"><ele>321.0</ele><time>2026-04-03T14:33:44.968Z</time></trkpt><trkpt lat="45.6309919" lon="11.3903389"><ele>321.0</ele><time>2026-04-03T14:33:45.968Z</time></trkpt><trkpt lat="45.6310808" lon="11.3903152"><ele>319.40000000000003</ele><time>2026-04-03T14:33:46.967Z</time></trkpt><trkpt lat="45.6311896" lon="11.3902432"><ele>317.8</ele><time>2026-04-03T14:33:48.967Z</time></trkpt><trkpt lat="45.6312579" lon="11.3902071"><ele>316.20000000000005</ele><time>2026-04-03T14:33:49.968Z</time></trkpt><trkpt lat="45.631337" lon="11.3901008"><ele>314.6</ele><time>2026-04-03T14:33:51.967Z</time></trkpt><trkpt lat="45.6313898" lon="11.3899669"><ele>313.0</ele><time>2026-04-03T14:33:53.968Z</time></trkpt><trkpt lat="45.6313347" lon="11.3898912"><ele>313.0</ele><time>2026-04-03T14:33:54.969Z</time></trkpt><trkpt lat="45.6312827" lon="11.3898254"><ele>313.0</ele><time>2026-04-03T14:33:55.968Z</time></trkpt><trkpt lat="45.6312373" lon="11.3896871"><ele>313.0</ele><time>2026-04-03T14:33:57.968Z</time></trkpt><trkpt lat="45.631191" lon="11.3896015"><ele>313.0</ele><time>2026-04-03T14:33:58.969Z</time></trkpt><trkpt lat="45.6311628" lon="11.3895207"><ele>313.0</ele><time>2026-04-03T14:33:59.968Z</time></trkpt><trkpt lat="45.6311546" lon="11.3894262"><ele>313.0</ele><time>2026-04-03T14:34:00.968Z</time></trkpt><trkpt lat="45.6311596" lon="11.3893214"><ele>313.16666666666663</ele><time>2026-04-03T14:34:01.967Z</time></trkpt><trkpt lat="45.631144" lon="11.3892168"><ele>313.3333333333333</ele><time>2026-04-03T14:34:02.968Z</time></trkpt><trkpt lat="45.6311194" lon="11.389121"><ele>313.5</ele><time>2026-04-03T14:34:03.968Z</time></trkpt><trkpt lat="45.6311045" lon="11.3890285"><ele>313.6666666666667</ele><time>2026-04-03T14:34:04.968Z</time></trkpt><trkpt lat="45.6311856" lon="11.3889533"><ele>313.83333333333337</ele><time>2026-04-03T14:34:05.968Z</time></trkpt><trkpt lat="45.6311477" lon="11.388785"><ele>314.0</ele><time>2026-04-03T14:34:06.967Z</time></trkpt><trkpt lat="45.6311387" lon="11.3886533"><ele>311.83333333333337</ele><time>2026-04-03T14:34:07.967Z</time></trkpt><trkpt lat="45.6311085" lon="11.38852"><ele>309.6666666666667</ele><time>2026-04-03T14:34:08.967Z</time></trkpt><trkpt lat="45.6311484" lon="11.3884146"><ele>307.5</ele><time>2026-04-03T14:34:09.969Z</time></trkpt><trkpt lat="45.6311469" lon="11.3882856"><ele>305.3333333333333</ele><time>2026-04-03T14:34:10.968Z</time></trkpt><trkpt lat="45.6311499" lon="11.3881819"><ele>303.16666666666663</ele><time>2026-04-03T14:34:11.968Z</time></trkpt><trkpt lat="45.6311581" lon="11.3880425"><ele>301.0</ele><time>2026-04-03T14:34:12.968Z</time></trkpt><trkpt lat="45.6311841" lon="11.3879183"><ele>299.0</ele><time>2026-04-03T14:34:13.967Z</time></trkpt><trkpt lat="45.6312297" lon="11.3877818"><ele>297.0</ele><time>2026-04-03T14:34:14.967Z</time></trkpt><trkpt lat="45.6312435" lon="11.3876536"><ele>295.0</ele><time>2026-04-03T14:34:15.968Z</time></trkpt><trkpt lat="45.6312614" lon="11.3875301"><ele>293.0</ele><time>2026-04-03T14:34:16.967Z</time></trkpt><trkpt lat="45.6312843" lon="11.3874218"><ele>291.0</ele><time>2026-04-03T14:34:17.968Z</time></trkpt><trkpt lat="45.6312999" lon="11.3872564"><ele>290.8</ele><time>2026-04-03T14:34:19.968Z</time></trkpt><trkpt lat="45.6313175" lon="11.3871619"><ele>290.6</ele><time>2026-04-03T14:34:20.968Z</time></trkpt><trkpt lat="45.6312229" lon="11.3870327"><ele>290.4</ele><time>2026-04-03T14:34:22.968Z</time></trkpt><trkpt lat="45.6311502" lon="11.3868878"><ele>290.2</ele><time>2026-04-03T14:34:24.967Z</time></trkpt><trkpt lat="45.631111" lon="11.3867812"><ele>290.0</ele><time>2026-04-03T14:34:26.968Z</time></trkpt><trkpt lat="45.631044" lon="11.3867433"><ele>290.0</ele><time>2026-04-03T14:34:28.967Z</time></trkpt><trkpt lat="45.6309723" lon="11.3867914"><ele>290.0</ele><time>2026-04-03T14:34:30.968Z</time></trkpt><trkpt lat="45.6309149" lon="11.3869639"><ele>290.0</ele><time>2026-04-03T14:34:32.967Z</time></trkpt><trkpt lat="45.6308863" lon="11.3870678"><ele>290.0</ele><time>2026-04-03T14:34:33.969Z</time></trkpt><trkpt lat="45.6308498" lon="11.3871745"><ele>290.0</ele><time>2026-04-03T14:34:34.968Z</time></trkpt><trkpt lat="45.6308285" lon="11.3872726"><ele>290.0</ele><time>2026-04-03T14:34:35.968Z</time></trkpt><trkpt lat="45.6307843" lon="11.3873914"><ele>289.1666666666667</ele><time>2026-04-03T14:34:36.968Z</time></trkpt><trkpt lat="45.6307381" lon="11.387504"><ele>288.33333333333337</ele><time>2026-04-03T14:34:37.969Z</time></trkpt><trkpt lat="45.6307268" lon="11.3876087"><ele>287.5</ele><time>2026-04-03T14:34:38.967Z</time></trkpt><trkpt lat="45.6306633" lon="11.3877024"><ele>286.6666666666667</ele><time>2026-04-03T14:34:39.969Z</time></trkpt><trkpt lat="45.6306042" lon="11.3877893"><ele>285.8333333333333</ele><time>2026-04-03T14:34:40.967Z</time></trkpt><trkpt lat="45.6305459" lon="11.3878798"><ele>285.0</ele><time>2026-04-03T14:34:41.969Z</time></trkpt><trkpt lat="45.6304793" lon="11.3879488"><ele>284.6666666666667</ele><time>2026-04-03T14:34:42.968Z</time></trkpt><trkpt lat="45.6304387" lon="11.3880344"><ele>284.3333333333333</ele><time>2026-04-03T14:34:43.969Z</time></trkpt><trkpt lat="45.6303877" lon="11.3881469"><ele>284.0</ele><time>2026-04-03T14:34:44.967Z</time></trkpt><trkpt lat="45.6303814" lon="11.3882393"><ele>283.66666666666663</ele><time>2026-04-03T14:34:45.968Z</time></trkpt><trkpt lat="45.6303349" lon="11.3884029"><ele>283.3333333333333</ele><time>2026-04-03T14:34:47.969Z</time></trkpt><trkpt lat="45.630277" lon="11.3884572"><ele>283.0</ele><time>2026-04-03T14:34:48.967Z</time></trkpt><trkpt lat="45.6302405" lon="11.3885946"><ele>282.6</ele><time>2026-04-03T14:34:50.968Z</time></trkpt><trkpt lat="45.6301887" lon="11.3887298"><ele>282.20000000000005</ele><time>2026-04-03T14:34:52.968Z</time></trkpt><trkpt lat="45.6301279" lon="11.3888272"><ele>281.8</ele><time>2026-04-03T14:34:53.969Z</time></trkpt><trkpt lat="45.6300434" lon="11.3889215"><ele>281.40000000000003</ele><time>2026-04-03T14:34:54.967Z</time></trkpt><trkpt lat="45.6299305" lon="11.3890289"><ele>281.0</ele><time>2026-04-03T14:34:56.968Z</time></trkpt><trkpt lat="45.6298269" lon="11.3889985"><ele>278.83333333333337</ele><time>2026-04-03T14:34:57.969Z</time></trkpt><trkpt lat="45.6297531" lon="11.3890372"><ele>276.6666666666667</ele><time>2026-04-03T14:34:58.968Z</time></trkpt><trkpt lat="45.6296856" lon="11.3890651"><ele>274.5</ele><time>2026-04-03T14:34:59.968Z</time></trkpt><trkpt lat="45.6296135" lon="11.3890664"><ele>272.3333333333333</ele><time>2026-04-03T14:35:00.967Z</time></trkpt><trkpt lat="45.6295405" lon="11.3891165"><ele>270.16666666666663</ele><time>2026-04-03T14:35:01.968Z</time></trkpt><trkpt lat="45.6294732" lon="11.3891872"><ele>268.0</ele><time>2026-04-03T14:35:02.968Z</time></trkpt><trkpt lat="45.6293983" lon="11.3892301"><ele>268.0</ele><time>2026-04-03T14:35:03.968Z</time></trkpt><trkpt lat="45.6292841" lon="11.3892901"><ele>268.0</ele><time>2026-04-03T14:35:05.968Z</time></trkpt><trkpt lat="45.6292074" lon="11.3893227"><ele>268.0</ele><time>2026-04-03T14:35:06.967Z</time></trkpt><trkpt lat="45.6291643" lon="11.3894283"><ele>268.0</ele><time>2026-04-03T14:35:08.967Z</time></trkpt><trkpt lat="45.6291118" lon="11.3894781"><ele>268.0</ele><time>2026-04-03T14:35:12.968Z</time></trkpt><trkpt lat="45.6290536" lon="11.3895632"><ele>268.0</ele><time>2026-04-03T14:35:15.969Z</time></trkpt><trkpt lat="45.6290009" lon="11.3896603"><ele>265.0</ele><time>2026-04-03T14:35:18.968Z</time></trkpt><trkpt lat="45.6289287" lon="11.3897345"><ele>262.0</ele><time>2026-04-03T14:35:21.968Z</time></trkpt><trkpt lat="45.6288469" lon="11.3898099"><ele>259.0</ele><time>2026-04-03T14:35:24.967Z</time></trkpt><trkpt lat="45.6287827" lon="11.3899263"><ele>256.0</ele><time>2026-04-03T14:35:26.968Z</time></trkpt><trkpt lat="45.6287861" lon="11.390061"><ele>253.0</ele><time>2026-04-03T14:35:28.969Z</time></trkpt><trkpt lat="45.6287434" lon="11.3901993"><ele>252.99999999999997</ele><time>2026-04-03T14:35:30.968Z</time></trkpt><trkpt lat="45.6286919" lon="11.3903323"><ele>253.0</ele><time>2026-04-03T14:35:32.968Z</time></trkpt><trkpt lat="45.6286145" lon="11.3904105"><ele>253.0</ele><time>2026-04-03T14:35:34.968Z</time></trkpt><trkpt lat="45.628562" lon="11.3904667"><ele>253.0</ele><time>2026-04-03T14:35:36.969Z</time></trkpt><trkpt lat="45.628492" lon="11.390548"><ele>252.99999999999997</ele><time>2026-04-03T14:35:39.967Z</time></trkpt><trkpt lat="45.6284062" lon="11.3905722"><ele>253.0</ele><time>2026-04-03T14:35:42.969Z</time></trkpt><trkpt lat="45.6283152" lon="11.3906042"><ele>250.99999999999997</ele><time>2026-04-03T14:35:45.969Z</time></trkpt><trkpt lat="45.6282296" lon="11.3906673"><ele>249.0</ele><time>2026-04-03T14:35:48.968Z</time></trkpt><trkpt lat="45.628154" lon="11.3907322"><ele>247.0</ele><time>2026-04-03T14:35:50.969Z</time></trkpt><trkpt lat="45.6280886" lon="11.3907904"><ele>245.0</ele><time>2026-04-03T14:35:52.967Z</time></trkpt><trkpt lat="45.6280213" lon="11.3908644"><ele>242.99999999999997</ele><time>2026-04-03T14:35:54.968Z</time></trkpt><trkpt lat="45.6279523" lon="11.3909156"><ele>241.0</ele><time>2026-04-03T14:35:56.968Z</time></trkpt><trkpt lat="45.6278844" lon="11.3909348"><ele>243.33333333333331</ele><time>2026-04-03T14:35:58.968Z</time></trkpt><trkpt lat="45.6278044" lon="11.390961"><ele>245.66666666666666</ele><time>2026-04-03T14:36:00.968Z</time></trkpt><trkpt lat="45.6277396" lon="11.3909955"><ele>248.0</ele><time>2026-04-03T14:36:02.967Z</time></trkpt><trkpt lat="45.6276688" lon="11.3910343"><ele>250.33333333333331</ele><time>2026-04-03T14:36:04.968Z</time></trkpt><trkpt lat="45.6275823" lon="11.391054"><ele>252.66666666666666</ele><time>2026-04-03T14:36:06.969Z</time></trkpt><trkpt lat="45.6274864" lon="11.3910483"><ele>255.0</ele><time>2026-04-03T14:36:09.968Z</time></trkpt><trkpt lat="45.6273901" lon="11.3910457"><ele>255.0</ele><time>2026-04-03T14:36:11.968Z</time></trkpt><trkpt lat="45.6272984" lon="11.3910573"><ele>255.0</ele><time>2026-04-03T14:36:13.969Z</time></trkpt><trkpt lat="45.6272148" lon="11.3910729"><ele>255.0</ele><time>2026-04-03T14:36:15.968Z</time></trkpt><trkpt lat="45.6307285" lon="11.3970395"><ele>276.2</ele><time>2026-04-03T14:32:09.968Z</time></trkpt><trkpt lat="45.6306531" lon="11.3970069"><ele>297.4</ele><time>2026-04-03T14:32:11.968Z</time></trkpt><trkpt lat="45.6305412" lon="11.39697"><ele>318.6</ele><time>2026-04-03T14:32:13.968Z</time></trkpt><trkpt lat="45.6304828" lon="11.3968792"><ele>339.8</ele><time>2026-04-03T14:32:14.967Z</time></trkpt><trkpt lat="45.6304243" lon="11.3967269"><ele>361.0</ele><time>2026-04-03T14:32:16.967Z</time></trkpt><trkpt lat="45.6303972" lon="11.3966044"><ele>361.0</ele><time>2026-04-03T14:32:17.968Z</time></trkpt><trkpt lat="45.6304183" lon="11.3964362"><ele>361.0</ele><time>2026-04-03T14:32:19.968Z</time></trkpt><trkpt lat="45.6303955" lon="11.3962849"><ele>361.0</ele><time>2026-04-03T14:32:21.968Z</time></trkpt><trkpt lat="45.6303763" lon="11.3961486"><ele>361.0</ele><time>2026-04-03T14:32:23.968Z</time></trkpt><trkpt lat="45.6303781" lon="11.39602"><ele>361.0</ele><time>2026-04-03T14:32:25.968Z</time></trkpt><trkpt lat="45.6303461" lon="11.3958779"><ele>364.20000000000005</ele><time>2026-04-03T14:32:28.968Z</time></trkpt><trkpt lat="45.6303249" lon="11.3956912"><ele>367.40000000000003</ele><time>2026-04-03T14:32:30.968Z</time></trkpt><trkpt lat="45.6303037" lon="11.3955742"><ele>370.6</ele><time>2026-04-03T14:32:31.969Z</time></trkpt><trkpt lat="45.6302713" lon="11.3954864"><ele>373.8</ele><time>2026-04-03T14:32:32.967Z</time></trkpt><trkpt lat="45.6302445" lon="11.3953958"><ele>377.0</ele><time>2026-04-03T14:32:33.969Z</time></trkpt><trkpt lat="45.6301872" lon="11.3952152"><ele>371.6666666666667</ele><time>2026-04-03T14:32:35.968Z</time></trkpt><trkpt lat="45.6301254" lon="11.3951129"><ele>366.33333333333337</ele><time>2026-04-03T14:32:36.968Z</time></trkpt><trkpt lat="45.630066" lon="11.3950452"><ele>361.0</ele><time>2026-04-03T14:32:37.968Z</time></trkpt><trkpt lat="45.6299971" lon="11.3949643"><ele>355.6666666666667</ele><time>2026-04-03T14:32:38.968Z</time></trkpt><trkpt lat="45.6299209" lon="11.3949151"><ele>350.3333333333333</ele><time>2026-04-03T14:32:39.969Z</time></trkpt><trkpt lat="45.6298866" lon="11.3948188"><ele>345.0</ele><time>2026-04-03T14:32:40.969Z</time></trkpt><trkpt lat="45.6298267" lon="11.3947417"><ele>343.6</ele><time>2026-04-03T14:32:41.968Z</time></trkpt><trkpt lat="45.629783" lon="11.3946338"><ele>342.2</ele><time>2026-04-03T14:32:42.969Z</time></trkpt><trkpt lat="45.6297135" lon="11.3945637"><ele>340.79999999999995</ele><time>2026-04-03T14:32:43.967Z</time></trkpt><trkpt lat="45.6296" lon="11.39448"><ele>339.4</ele><time>2026-04-03T14:32:45.967Z</time></trkpt><trkpt lat="45.6295366" lon="11.3944574"><ele>338.0</ele><time>2026-04-03T14:32:46.968Z</time></trkpt><trkpt lat="45.6294515" lon="11.394443"><ele>338.0</ele><time>2026-04-03T14:32:47.968Z</time></trkpt><trkpt lat="45.6293729" lon="11.3944383"><ele>338.0</ele><time>2026-04-03T14:32:48.967Z</time></trkpt><trkpt lat="45.629283" lon="11.3944502"><ele>338.0</ele><time>2026-04-03T14:32:49.968Z</time></trkpt><trkpt lat="45.6291933" lon="11.394408"><ele>338.0</ele><time>2026-04-03T14:32:50.968Z</time></trkpt><trkpt lat="45.6291177" lon="11.3944067"><ele>338.0</ele><time>2026-04-03T14:32:51.967Z</time></trkpt><trkpt lat="45.6290423" lon="11.3943809"><ele>338.0</ele><time>2026-04-03T14:32:52.968Z</time></trkpt><trkpt lat="45.6289688" lon="11.3943902"><ele>338.0</ele><time>2026-04-03T14:32:53.968Z</time></trkpt><trkpt lat="45.6288889" lon="11.3943875"><ele>338.0</ele><time>2026-04-03T14:32:54.968Z</time></trkpt><trkpt lat="45.6288249" lon="11.3943837"><ele>338.0</ele><time>2026-04-03T14:32:55.968Z</time></trkpt><trkpt lat="45.6287202" lon="11.39436"><ele>338.0</ele><time>2026-04-03T14:32:57.968Z</time></trkpt><trkpt lat="45.6287072" lon="11.3942411"><ele>338.0</ele><time>2026-04-03T14:32:59.968Z</time></trkpt><trkpt lat="45.6287076" lon="11.3941269"><ele>338.0</ele><time>2026-04-03T14:33:01.968Z</time></trkpt><trkpt lat="45.6287477" lon="11.3939939"><ele>338.0</ele><time>2026-04-03T14:33:03.968Z</time></trkpt><trkpt lat="45.6288092" lon="11.3938646"><ele>338.0</ele><time>2026-04-03T14:33:05.968Z</time></trkpt><trkpt lat="45.6288531" lon="11.3937797"><ele>338.0</ele><time>2026-04-03T14:33:06.968Z</time></trkpt><trkpt lat="45.6288999" lon="11.3937179"><ele>338.0</ele><time>2026-04-03T14:33:07.967Z</time></trkpt><trkpt lat="45.6289224" lon="11.3936291"><ele>338.0</ele><time>2026-04-03T14:33:08.968Z</time></trkpt><trkpt lat="45.6289599" lon="11.3935446"><ele>338.0</ele><time>2026-04-03T14:33:09.969Z</time></trkpt><trkpt lat="45.6290614" lon="11.3933913"><ele>336.33333333333337</ele><time>2026-04-03T14:33:11.967Z</time></trkpt><trkpt lat="45.6291204" lon="11.39329"><ele>334.6666666666667</ele><time>2026-04-03T14:33:12.969Z</time></trkpt><trkpt lat="45.6291708" lon="11.3932009"><ele>333.0</ele><time>2026-04-03T14:33:13.968Z</time></trkpt><trkpt lat="45.6292192" lon="11.3931041"><ele>331.3333333333333</ele><time>2026-04-03T14:33:14.967Z</time></trkpt><trkpt lat="45.6292697" lon="11.3929928"><ele>329.66666666666663</ele><time>2026-04-03T14:33:15.968Z</time></trkpt><trkpt lat="45.6293398" lon="11.3929019"><ele>328.0</ele><time>2026-04-03T14:33:16.968Z</time></trkpt><trkpt lat="45.6293738" lon="11.3927639"><ele>323.4</ele><time>2026-04-03T14:33:17.968Z</time></trkpt><trkpt lat="45.6294078" lon="11.3926503"><ele>318.79999999999995</ele><time>2026-04-03T14:33:18.968Z</time></trkpt><trkpt lat="45.6294829" lon="11.3925625"><ele>314.2</ele><time>2026-04-03T14:33:19.967Z</time></trkpt><trkpt lat="45.6294942" lon="11.3924386"><ele>309.6</ele><time>2026-04-03T14:33:20.968Z</time></trkpt><trkpt lat="45.6295046" lon="11.3923249"><ele>305.0</ele><time>2026-04-03T14:33:21.967Z</time></trkpt><trkpt lat="45.6295873" lon="11.3922299"><ele>307.6666666666667</ele><time>2026-04-03T14:33:22.968Z</time></trkpt><trkpt lat="45.629615" lon="11.3921095"><ele>310.33333333333337</ele><time>2026-04-03T14:33:23.967Z</time></trkpt><trkpt lat="45.6296683" lon="11.3920379"><ele>313.0</ele><time>2026-04-03T14:33:24.968Z</time></trkpt><trkpt lat="45.6297363" lon="11.3919279"><ele>315.6666666666667</ele><time>2026-04-03T14:33:25.968Z</time></trkpt><trkpt lat="45.6297985" lon="11.3918314"><ele>318.3333333333333</ele><time>2026-04-03T14:33:26.969Z</time></trkpt><trkpt lat="45.6298723" lon="11.3917579"><ele>321.0</ele><time>2026-04-03T14:33:27.968Z</time></trkpt><trkpt lat="45.6299383" lon="11.3916332"><ele>321.0</ele><time>2026-04-03T14:33:28.967Z</time></trkpt><trkpt lat="45.6300033" lon="11.3915338"><ele>321.0</ele><time>2026-04-03T14:33:29.967Z</time></trkpt><trkpt lat="45.6300624" lon="11.3914412"><ele>321.0</ele><time>2026-04-03T14:33:30.968Z</time></trkpt><trkpt lat="45.6301239" lon="11.3913675"><ele>321.0</ele><time>2026-04-03T14:33:31.969Z</time></trkpt><trkpt lat="45.6302004" lon="11.3913105"><ele>321.0</ele><time>2026-04-03T14:33:32.968Z</time></trkpt><trkpt lat="45.6302422" lon="11.3912054"><ele>321.0</ele><time>2026-04-03T14:33:33.969Z</time></trkpt><trkpt lat="45.6302997" lon="11.391133"><ele>321.0</ele><time>2026-04-03T14:33:34.968Z</time></trkpt><trkpt lat="45.6303567" lon="11.3910598"><ele>321.0</ele><time>2026-04-03T14:33:35.967Z</time></trkpt><trkpt lat="45.6304065" lon="11.3909419"><ele>321.0</ele><time>2026-04-03T14:33:36.968Z</time></trkpt><trkpt lat="45.6304864" lon="11.3909307"><ele>321.0</ele><time>2026-04-03T14:33:37.967Z</time></trkpt><trkpt lat="45.6305412" lon="11.3908213"><ele>321.0</ele><time>2026-04-03T14:33:38.969Z</time></trkpt><trkpt lat="45.6306162" lon="11.3907796"><ele>321.0</ele><time>2026-04-03T14:33:39.969Z</time></trkpt><trkpt lat="45.6306852" lon="11.3906901"><ele>321.0</ele><time>2026-04-03T14:33:40.968Z</time></trkpt><trkpt lat="45.63074" lon="11.3906024"><ele>321.0</ele><time>2026-04-03T14:33:41.968Z</time></trkpt><trkpt lat="45.6308128" lon="11.390531"><ele>321.0</ele><time>2026-04-03T14:33:42.969Z</time></trkpt><trkpt lat="45.6308563" lon="11.3904538"><ele>321.0</ele><time>2026-04-03T14:33:43.969Z</time></trkpt><trkpt lat="45.6309292" lon="11.3903841"><ele>321.0</ele><time>2026-04-03T14:33:44.968Z</time></trkpt><trkpt lat="45.6309919" lon="11.3903389"><ele>321.0</ele><time>2026-04-03T14:33:45.968Z</time></trkpt><trkpt lat="45.6310808" lon="11.3903152"><ele>319.40000000000003</ele><time>2026-04-03T14:33:46.967Z</time></trkpt><trkpt lat="45.6311896" lon="11.3902432"><ele>317.8</ele><time>2026-04-03T14:33:48.967Z</time></trkpt><trkpt lat="45.6312579" lon="11.3902071"><ele>316.20000000000005</ele><time>2026-04-03T14:33:49.968Z</time></trkpt><trkpt lat="45.631337" lon="11.3901008"><ele>314.6</ele><time>2026-04-03T14:33:51.967Z</time></trkpt><trkpt lat="45.6313898" lon="11.3899669"><ele>313.0</ele><time>2026-04-03T14:33:53.968Z</time></trkpt><trkpt lat="45.6313347" lon="11.3898912"><ele>313.0</ele><time>2026-04-03T14:33:54.969Z</time></trkpt><trkpt lat="45.6312827" lon="11.3898254"><ele>313.0</ele><time>2026-04-03T14:33:55.968Z</time></trkpt><trkpt lat="45.6312373" lon="11.3896871"><ele>313.0</ele><time>2026-04-03T14:33:57.968Z</time></trkpt><trkpt lat="45.631191" lon="11.3896015"><ele>313.0</ele><time>2026-04-03T14:33:58.969Z</time></trkpt><trkpt lat="45.6311628" lon="11.3895207"><ele>313.0</ele><time>2026-04-03T14:33:59.968Z</time></trkpt><trkpt lat="45.6311546" lon="11.3894262"><ele>313.0</ele><time>2026-04-03T14:34:00.968Z</time></trkpt><trkpt lat="45.6311596" lon="11.3893214"><ele>313.16666666666663</ele><time>2026-04-03T14:34:01.967Z</time></trkpt><trkpt lat="45.631144" lon="11.3892168"><ele>313.3333333333333</ele><time>2026-04-03T14:34:02.968Z</time></trkpt><trkpt lat="45.6311194" lon="11.389121"><ele>313.5</ele><time>2026-04-03T14:34:03.968Z</time></trkpt><trkpt lat="45.6311045" lon="11.3890285"><ele>313.6666666666667</ele><time>2026-04-03T14:34:04.968Z</time></trkpt><trkpt lat="45.6311856" lon="11.3889533"><ele>313.83333333333337</ele><time>2026-04-03T14:34:05.968Z</time></trkpt><trkpt lat="45.6311477" lon="11.388785"><ele>314.0</ele><time>2026-04-03T14:34:06.967Z</time></trkpt><trkpt lat="45.6311387" lon="11.3886533"><ele>311.83333333333337</ele><time>2026-04-03T14:34:07.967Z</time></trkpt><trkpt lat="45.6311085" lon="11.38852"><ele>309.6666666666667</ele><time>2026-04-03T14:34:08.967Z</time></trkpt><trkpt lat="45.6311484" lon="11.3884146"><ele>307.5</ele><time>2026-04-03T14:34:09.969Z</time></trkpt><trkpt lat="45.6311469" lon="11.3882856"><ele>305.3333333333333</ele><time>2026-04-03T14:34:10.968Z</time></trkpt><trkpt lat="45.6311499" lon="11.3881819"><ele>303.16666666666663</ele><time>2026-04-03T14:34:11.968Z</time></trkpt><trkpt lat="45.6311581" lon="11.3880425"><ele>301.0</ele><time>2026-04-03T14:34:12.968Z</time></trkpt><trkpt lat="45.6311841" lon="11.3879183"><ele>299.0</ele><time>2026-04-03T14:34:13.967Z</time></trkpt><trkpt lat="45.6312297" lon="11.3877818"><ele>297.0</ele><time>2026-04-03T14:34:14.967Z</time></trkpt><trkpt lat="45.6312435" lon="11.3876536"><ele>295.0</ele><time>2026-04-03T14:34:15.968Z</time></trkpt><trkpt lat="45.6312614" lon="11.3875301"><ele>293.0</ele><time>2026-04-03T14:34:16.967Z</time></trkpt><trkpt lat="45.6312843" lon="11.3874218"><ele>291.0</ele><time>2026-04-03T14:34:17.968Z</time></trkpt><trkpt lat="45.6312999" lon="11.3872564"><ele>290.8</ele><time>2026-04-03T14:34:19.968Z</time></trkpt><trkpt lat="45.6313175" lon="11.3871619"><ele>290.6</ele><time>2026-04-03T14:34:20.968Z</time></trkpt><trkpt lat="45.6312229" lon="11.3870327"><ele>290.4</ele><time>2026-04-03T14:34:22.968Z</time></trkpt><trkpt lat="45.6311502" lon="11.3868878"><ele>290.2</ele><time>2026-04-03T14:34:24.967Z</time></trkpt><trkpt lat="45.631111" lon="11.3867812"><ele>290.0</ele><time>2026-04-03T14:34:26.968Z</time></trkpt><trkpt lat="45.631044" lon="11.3867433"><ele>290.0</ele><time>2026-04-03T14:34:28.967Z</time></trkpt><trkpt lat="45.6309723" lon="11.3867914"><ele>290.0</ele><time>2026-04-03T14:34:30.968Z</time></trkpt><trkpt lat="45.6309149" lon="11.3869639"><ele>290.0</ele><time>2026-04-03T14:34:32.967Z</time></trkpt><trkpt lat="45.6308863" lon="11.3870678"><ele>290.0</ele><time>2026-04-03T14:34:33.969Z</time></trkpt><trkpt lat="45.6308498" lon="11.3871745"><ele>290.0</ele><time>2026-04-03T14:34:34.968Z</time></trkpt><trkpt lat="45.6308285" lon="11.3872726"><ele>290.0</ele><time>2026-04-03T14:34:35.968Z</time></trkpt><trkpt lat="45.6307843" lon="11.3873914"><ele>289.1666666666667</ele><time>2026-04-03T14:34:36.968Z</time></trkpt><trkpt lat="45.6307381" lon="11.387504"><ele>288.33333333333337</ele><time>2026-04-03T14:34:37.969Z</time></trkpt><trkpt lat="45.6307268" lon="11.3876087"><ele>287.5</ele><time>2026-04-03T14:34:38.967Z</time></trkpt><trkpt lat="45.6306633" lon="11.3877024"><ele>286.6666666666667</ele><time>2026-04-03T14:34:39.969Z</time></trkpt><trkpt lat="45.6306042" lon="11.3877893"><ele>285.8333333333333</ele><time>2026-04-03T14:34:40.967Z</time></trkpt><trkpt lat="45.6305459" lon="11.3878798"><ele>285.0</ele><time>2026-04-03T14:34:41.969Z</time></trkpt><trkpt lat="45.6304793" lon="11.3879488"><ele>284.6666666666667</ele><time>2026-04-03T14:34:42.968Z</time></trkpt><trkpt lat="45.6304387" lon="11.3880344"><ele>284.3333333333333</ele><time>2026-04-03T14:34:43.969Z</time></trkpt><trkpt lat="45.6303877" lon="11.3881469"><ele>284.0</ele><time>2026-04-03T14:34:44.967Z</time></trkpt><trkpt lat="45.6303814" lon="11.3882393"><ele>283.66666666666663</ele><time>2026-04-03T14:34:45.968Z</time></trkpt><trkpt lat="45.6303349" lon="11.3884029"><ele>283.3333333333333</ele><time>2026-04-03T14:34:47.969Z</time></trkpt><trkpt lat="45.630277" lon="11.3884572"><ele>283.0</ele><time>2026-04-03T14:34:48.967Z</time></trkpt><trkpt lat="45.6302405" lon="11.3885946"><ele>282.6</ele><time>2026-04-03T14:34:50.968Z</time></trkpt><trkpt lat="45.6301887" lon="11.3887298"><ele>282.20000000000005</ele><time>2026-04-03T14:34:52.968Z</time></trkpt><trkpt lat="45.6301279" lon="11.3888272"><ele>281.8</ele><time>2026-04-03T14:34:53.969Z</time></trkpt><trkpt lat="45.6300434" lon="11.3889215"><ele>281.40000000000003</ele><time>2026-04-03T14:34:54.967Z</time></trkpt><trkpt lat="45.6299305" lon="11.3890289"><ele>281.0</ele><time>2026-04-03T14:34:56.968Z</time></trkpt><trkpt lat="45.6298269" lon="11.3889985"><ele>278.83333333333337</ele><time>2026-04-03T14:34:57.969Z</time></trkpt><trkpt lat="45.6297531" lon="11.3890372"><ele>276.6666666666667</ele><time>2026-04-03T14:34:58.968Z</time></trkpt><trkpt lat="45.6296856" lon="11.3890651"><ele>274.5</ele><time>2026-04-03T14:34:59.968Z</time></trkpt><trkpt lat="45.6296135" lon="11.3890664"><ele>272.3333333333333</ele><time>2026-04-03T14:35:00.967Z</time></trkpt><trkpt lat="45.6295405" lon="11.3891165"><ele>270.16666666666663</ele><time>2026-04-03T14:35:01.968Z</time></trkpt><trkpt lat="45.6294732" lon="11.3891872"><ele>268.0</ele><time>2026-04-03T14:35:02.968Z</time></trkpt><trkpt lat="45.6293983" lon="11.3892301"><ele>268.0</ele><time>2026-04-03T14:35:03.968Z</time></trkpt><trkpt lat="45.6292841" lon="11.3892901"><ele>268.0</ele><time>2026-04-03T14:35:05.968Z</time></trkpt><trkpt lat="45.6292074" lon="11.3893227"><ele>268.0</ele><time>2026-04-03T14:35:06.967Z</time></trkpt><trkpt lat="45.6291643" lon="11.3894283"><ele>268.0</ele><time>2026-04-03T14:35:08.967Z</time></trkpt><trkpt lat="45.6291118" lon="11.3894781"><ele>268.0</ele><time>2026-04-03T14:35:12.968Z</time></trkpt><trkpt lat="45.6290536" lon="11.3895632"><ele>268.0</ele><time>2026-04-03T14:35:15.969Z</time></trkpt><trkpt lat="45.6290009" lon="11.3896603"><ele>265.0</ele><time>2026-04-03T14:35:18.968Z</time></trkpt><trkpt lat="45.6289287" lon="11.3897345"><ele>262.0</ele><time>2026-04-03T14:35:21.968Z</time></trkpt><trkpt lat="45.6288469" lon="11.3898099"><ele>259.0</ele><time>2026-04-03T14:35:24.967Z</time></trkpt><trkpt lat="45.6287827" lon="11.3899263"><ele>256.0</ele><time>2026-04-03T14:35:26.968Z</time></trkpt><trkpt lat="45.6287861" lon="11.390061"><ele>253.0</ele><time>2026-04-03T14:35:28.969Z</time></trkpt><trkpt lat="45.6287434" lon="11.3901993"><ele>252.99999999999997</ele><time>2026-04-03T14:35:30.968Z</time></trkpt><trkpt lat="45.6286919" lon="11.3903323"><ele>253.0</ele><time>2026-04-03T14:35:32.968Z</time></trkpt><trkpt lat="45.6286145" lon="11.3904105"><ele>253.0</ele><time>2026-04-03T14:35:34.968Z</time></trkpt><trkpt lat="45.628562" lon="11.3904667"><ele>253.0</ele><time>2026-04-03T14:35:36.969Z</time></trkpt><trkpt lat="45.628492" lon="11.390548"><ele>252.99999999999997</ele><time>2026-04-03T14:35:39.967Z</time></trkpt><trkpt lat="45.6284062" lon="11.3905722"><ele>253.0</ele><time>2026-04-03T14:35:42.969Z</time></trkpt><trkpt lat="45.6283152" lon="11.3906042"><ele>250.99999999999997</ele><time>2026-04-03T14:35:45.969Z</time></trkpt><trkpt lat="45.6282296" lon="11.3906673"><ele>249.0</ele><time>2026-04-03T14:35:48.968Z</time></trkpt><trkpt lat="45.628154" lon="11.3907322"><ele>247.0</ele><time>2026-04-03T14:35:50.969Z</time></trkpt><trkpt lat="45.6280886" lon="11.3907904"><ele>245.0</ele><time>2026-04-03T14:35:52.967Z</time></trkpt><trkpt lat="45.6280213" lon="11.3908644"><ele>242.99999999999997</ele><time>2026-04-03T14:35:54.968Z</time></trkpt><trkpt lat="45.6279523" lon="11.3909156"><ele>241.0</ele><time>2026-04-03T14:35:56.968Z</time></trkpt><trkpt lat="45.6278844" lon="11.3909348"><ele>243.33333333333331</ele><time>2026-04-03T14:35:58.968Z</time></trkpt><trkpt lat="45.6278044" lon="11.390961"><ele>245.66666666666666</ele><time>2026-04-03T14:36:00.968Z</time></trkpt><trkpt lat="45.6277396" lon="11.3909955"><ele>248.0</ele><time>2026-04-03T14:36:02.967Z</time></trkpt><trkpt lat="45.6276688" lon="11.3910343"><ele>250.33333333333331</ele><time>2026-04-03T14:36:04.968Z</time></trkpt><trkpt lat="45.6275823" lon="11.391054"><ele>252.66666666666666</ele><time>2026-04-03T14:36:06.969Z</time></trkpt><trkpt lat="45.6274864" lon="11.3910483"><ele>255.0</ele><time>2026-04-03T14:36:09.968Z</time></trkpt><trkpt lat="45.6273901" lon="11.3910457"><ele>255.0</ele><time>2026-04-03T14:36:11.968Z</time></trkpt><trkpt lat="45.6272984" lon="11.3910573"><ele>255.0</ele><time>2026-04-03T14:36:13.969Z</time></trkpt><trkpt lat="45.6272148" lon="11.3910729"><ele>255.0</ele><time>2026-04-03T14:36:15.968Z</time></trkpt><trkpt lat="45.6270566" lon="11.3910853"><ele>255.0</ele><time>2026-04-03T14:36:17.969Z</time></trkpt><trkpt lat="45.6269694" lon="11.3911302"><ele>255.0</ele><time>2026-04-03T14:36:19.967Z</time></trkpt><trkpt lat="45.6268966" lon="11.3911579"><ele>255.71428571428572</ele><time>2026-04-03T14:36:20.969Z</time></trkpt><trkpt lat="45.6268431" lon="11.3912144"><ele>256.42857142857144</ele><time>2026-04-03T14:36:21.968Z</time></trkpt><trkpt lat="45.6267795" lon="11.3912448"><ele>257.14285714285717</ele><time>2026-04-03T14:36:22.968Z</time></trkpt><trkpt lat="45.6267152" lon="11.3912576"><ele>257.8571428571429</ele><time>2026-04-03T14:36:23.968Z</time></trkpt><trkpt lat="45.6266226" lon="11.3912672"><ele>258.57142857142856</ele><time>2026-04-03T14:36:25.968Z</time></trkpt><trkpt lat="45.6265404" lon="11.3913012"><ele>259.28571428571433</ele><time>2026-04-03T14:36:27.968Z</time></trkpt><trkpt lat="45.6264731" lon="11.3913351"><ele>260.0</ele><time>2026-04-03T14:36:30.968Z</time></trkpt><trkpt lat="45.6264109" lon="11.3913523"><ele>253.2</ele><time>2026-04-03T14:36:33.968Z</time></trkpt><trkpt lat="45.6263126" lon="11.3913697"><ele>246.4</ele><time>2026-04-03T14:36:38.969Z</time></trkpt><trkpt lat="45.6262292" lon="11.391385"><ele>239.60000000000002</ele><time>2026-04-03T14:36:40.968Z</time></trkpt><trkpt lat="45.6261188" lon="11.3913815"><ele>232.8</ele><time>2026-04-03T14:36:42.969Z</time></trkpt><trkpt lat="45.6259852" lon="11.3914245"><ele>226.0</ele><time>2026-04-03T14:36:44.968Z</time></trkpt><trkpt lat="45.6258947" lon="11.3914605"><ele>225.99999999999997</ele><time>2026-04-03T14:36:46.968Z</time></trkpt><trkpt lat="45.6258141" lon="11.3915423"><ele>226.0</ele><time>2026-04-03T14:36:48.968Z</time></trkpt><trkpt lat="45.6257177" lon="11.3916481"><ele>226.0</ele><time>2026-04-03T14:36:50.968Z</time></trkpt><trkpt lat="45.6256689" lon="11.3917092"><ele>226.0</ele><time>2026-04-03T14:36:53.969Z</time></trkpt><trkpt lat="45.6255988" lon="11.3917536"><ele>225.99999999999997</ele><time>2026-04-03T14:36:54.968Z</time></trkpt><trkpt lat="45.6255536" lon="11.3918401"><ele>226.0</ele><time>2026-04-03T14:36:55.968Z</time></trkpt><trkpt lat="45.6254945" lon="11.3920014"><ele>226.0</ele><time>2026-04-03T14:36:57.968Z</time></trkpt><trkpt lat="45.6254914" lon="11.3920992"><ele>226.0</ele><time>2026-04-03T14:36:58.968Z</time></trkpt><trkpt lat="45.6254685" lon="11.3921938"><ele>226.0</ele><time>2026-04-03T14:37:00.968Z</time></trkpt><trkpt lat="45.6254583" lon="11.3922925"><ele>226.0</ele><time>2026-04-03T14:37:02.968Z</time></trkpt><trkpt lat="45.6254236" lon="11.3924222"><ele>226.0</ele><time>2026-04-03T14:37:04.968Z</time></trkpt><trkpt lat="45.6254215" lon="11.3925125"><ele>226.0</ele><time>2026-04-03T14:37:07.967Z</time></trkpt><trkpt lat="45.6253946" lon="11.3926016"><ele>226.0</ele><time>2026-04-03T14:37:09.967Z</time></trkpt><trkpt lat="45.6253339" lon="11.3926902"><ele>225.71428571428572</ele><time>2026-04-03T14:37:12.969Z</time></trkpt><trkpt lat="45.6252888" lon="11.392754"><ele>225.42857142857142</ele><time>2026-04-03T14:37:14.967Z</time></trkpt><trkpt lat="45.6252399" lon="11.3928284"><ele>225.14285714285714</ele><time>2026-04-03T14:37:17.968Z</time></trkpt><trkpt lat="45.6251784" lon="11.3928478"><ele>224.85714285714286</ele><time>2026-04-03T14:37:19.968Z</time></trkpt><trkpt lat="45.6251076" lon="11.3929003"><ele>224.57142857142856</ele><time>2026-04-03T14:37:22.968Z</time></trkpt><trkpt lat="45.6250445" lon="11.3929326"><ele>224.28571428571428</ele><time>2026-04-03T14:37:24.969Z</time></trkpt><trkpt lat="45.6249831" lon="11.39296"><ele>224.0</ele><time>2026-04-03T14:37:27.968Z</time></trkpt><trkpt lat="45.6249301" lon="11.393032"><ele>224.00000000000003</ele><time>2026-04-03T14:37:31.967Z</time></trkpt><trkpt lat="45.6249432" lon="11.3931302"><ele>224.0</ele><time>2026-04-03T14:37:33.967Z</time></trkpt><trkpt lat="45.6249678" lon="11.3932231"><ele>224.0</ele><time>2026-04-03T14:37:35.969Z</time></trkpt><trkpt lat="45.6249755" lon="11.3933275"><ele>224.0</ele><time>2026-04-03T14:37:38.967Z</time></trkpt><trkpt lat="45.6249714" lon="11.3934514"><ele>224.00000000000003</ele><time>2026-04-03T14:37:41.968Z</time></trkpt><trkpt lat="45.6249316" lon="11.3935689"><ele>224.0</ele><time>2026-04-03T14:37:44.968Z</time></trkpt><trkpt lat="45.6248743" lon="11.3936568"><ele>224.00000000000003</ele><time>2026-04-03T14:37:47.967Z</time></trkpt><trkpt lat="45.6248604" lon="11.3937646"><ele>224.0</ele><time>2026-04-03T14:37:50.968Z</time></trkpt><trkpt lat="45.6248596" lon="11.3938973"><ele>224.0</ele><time>2026-04-03T14:37:53.968Z</time></trkpt><trkpt lat="45.6248883" lon="11.3939854"><ele>224.0</ele><time>2026-04-03T14:37:55.968Z</time></trkpt><trkpt lat="45.6249114" lon="11.3940703"><ele>224.00000000000003</ele><time>2026-04-03T14:37:57.967Z</time></trkpt><trkpt lat="45.6249311" lon="11.3941984"><ele>224.0</ele><time>2026-04-03T14:38:00.967Z</time></trkpt><trkpt lat="45.6249337" lon="11.3943196"><ele>222.6</ele><time>2026-04-03T14:38:03.969Z</time></trkpt><trkpt lat="45.6249123" lon="11.3944539"><ele>221.2</ele><time>2026-04-03T14:38:06.968Z</time></trkpt><trkpt lat="45.6248989" lon="11.3945682"><ele>219.79999999999998</ele><time>2026-04-03T14:38:08.967Z</time></trkpt><trkpt lat="45.6248939" lon="11.3946931"><ele>218.39999999999998</ele><time>2026-04-03T14:38:10.969Z</time></trkpt><trkpt lat="45.6248752" lon="11.3948502"><ele>217.0</ele><time>2026-04-03T14:38:12.967Z</time></trkpt><trkpt lat="45.6248651" lon="11.3949849"><ele>216.39999999999998</ele><time>2026-04-03T14:38:14.968Z</time></trkpt><trkpt lat="45.6248499" lon="11.3951481"><ele>215.79999999999998</ele><time>2026-04-03T14:38:16.968Z</time></trkpt><trkpt lat="45.6248286" lon="11.39533"><ele>215.2</ele><time>2026-04-03T14:38:18.967Z</time></trkpt><trkpt lat="45.6248107" lon="11.3954619"><ele>214.6</ele><time>2026-04-03T14:38:19.968Z</time></trkpt><trkpt lat="45.6247868" lon="11.395584"><ele>214.0</ele><time>2026-04-03T14:38:20.968Z</time></trkpt><trkpt lat="45.6247638" lon="11.395679"><ele>213.39999999999998</ele><time>2026-04-03T14:38:21.967Z</time></trkpt><trkpt lat="45.6247433" lon="11.3958577"><ele>212.79999999999998</ele><time>2026-04-03T14:38:23.967Z</time></trkpt><trkpt lat="45.6247282" lon="11.3960373"><ele>212.2</ele><time>2026-04-03T14:38:25.969Z</time></trkpt><trkpt lat="45.6247109" lon="11.3961398"><ele>211.60000000000002</ele><time>2026-04-03T14:38:26.968Z</time></trkpt><trkpt lat="45.6246874" lon="11.3962933"><ele>211.0</ele><time>2026-04-03T14:38:27.969Z</time></trkpt><trkpt lat="45.6246597" lon="11.3964089"><ele>209.8</ele><time>2026-04-03T14:38:28.969Z</time></trkpt><trkpt lat="45.6246401" lon="11.3965334"><ele>208.60000000000002</ele><time>2026-04-03T14:38:29.967Z</time></trkpt><trkpt lat="45.6246441" lon="11.3966806"><ele>207.4</ele><time>2026-04-03T14:38:30.968Z</time></trkpt><trkpt lat="45.6246443" lon="11.3968453"><ele>206.2</ele><time>2026-04-03T14:38:31.968Z</time></trkpt><trkpt lat="45.6246777" lon="11.3969867"><ele>205.0</ele><time>2026-04-03T14:38:32.968Z</time></trkpt><trkpt lat="45.6246205" lon="11.3971394"><ele>203.16666666666666</ele><time>2026-04-03T14:38:33.969Z</time></trkpt><trkpt lat="45.6245786" lon="11.397244"><ele>201.33333333333331</ele><time>2026-04-03T14:38:34.968Z</time></trkpt><trkpt lat="45.6245525" lon="11.3973793"><ele>199.5</ele><time>2026-04-03T14:38:35.967Z</time></trkpt><trkpt lat="45.6245615" lon="11.3975089"><ele>197.66666666666669</ele><time>2026-04-03T14:38:36.967Z</time></trkpt><trkpt lat="45.6245119" lon="11.3976332"><ele>195.83333333333334</ele><time>2026-04-03T14:38:37.968Z</time></trkpt><trkpt lat="45.624526" lon="11.3977396"><ele>194.0</ele><time>2026-04-03T14:38:38.967Z</time></trkpt><trkpt lat="45.6244718" lon="11.397866"><ele>196.6</ele><time>2026-04-03T14:38:39.967Z</time></trkpt><trkpt lat="45.62443" lon="11.3980556"><ele>199.2</ele><time>2026-04-03T14:38:40.968Z</time></trkpt><trkpt lat="45.6244055" lon="11.3981489"><ele>201.79999999999998</ele><time>2026-04-03T14:38:41.967Z</time></trkpt><trkpt lat="45.6243811" lon="11.3982627"><ele>204.39999999999998</ele><time>2026-04-03T14:38:42.968Z</time></trkpt><trkpt lat="45.6243365" lon="11.3984093"><ele>207.0</ele><time>2026-04-03T14:38:43.967Z</time></trkpt><trkpt lat="45.6242901" lon="11.3985296"><ele>207.0</ele><time>2026-04-03T14:38:44.968Z</time></trkpt><trkpt lat="45.62423" lon="11.3986613"><ele>207.0</ele><time>2026-04-03T14:38:45.968Z</time></trkpt><trkpt lat="45.6241847" lon="11.3987831"><ele>207.0</ele><time>2026-04-03T14:38:46.968Z</time></trkpt><trkpt lat="45.6241054" lon="11.3989339"><ele>207.0</ele><time>2026-04-03T14:38:47.967Z</time></trkpt><trkpt lat="45.6240394" lon="11.3990651"><ele>202.0</ele><time>2026-04-03T14:38:48.968Z</time></trkpt><trkpt lat="45.623976" lon="11.3991939"><ele>197.0</ele><time>2026-04-03T14:38:49.967Z</time></trkpt><trkpt lat="45.6239098" lon="11.3993479"><ele>192.0</ele><time>2026-04-03T14:38:50.967Z</time></trkpt><trkpt lat="45.6238401" lon="11.3994965"><ele>187.0</ele><time>2026-04-03T14:38:51.968Z</time></trkpt><trkpt lat="45.6237739" lon="11.3996377"><ele>185.8</ele><time>2026-04-03T14:38:52.968Z</time></trkpt><trkpt lat="45.6236997" lon="11.3997784"><ele>184.6</ele><time>2026-04-03T14:38:53.968Z</time></trkpt><trkpt lat="45.6236304" lon="11.3998956"><ele>183.4</ele><time>2026-04-03T14:38:54.968Z</time></trkpt><trkpt lat="45.6235605" lon="11.3999956"><ele>182.20000000000002</ele><time>2026-04-03T14:38:55.968Z</time></trkpt><trkpt lat="45.6234894" lon="11.400084"><ele>181.0</ele><time>2026-04-03T14:38:56.968Z</time></trkpt><trkpt lat="45.623413" lon="11.4001415"><ele>181.0</ele><time>2026-04-03T14:38:57.967Z</time></trkpt><trkpt lat="45.6233327" lon="11.4001942"><ele>181.0</ele><time>2026-04-03T14:38:58.967Z</time></trkpt><trkpt lat="45.6232513" lon="11.400236"><ele>181.0</ele><time>2026-04-03T14:38:59.968Z</time></trkpt><trkpt lat="45.6231229" lon="11.4003245"><ele>181.0</ele><time>2026-04-03T14:39:01.968Z</time></trkpt><trkpt lat="45.6231035" lon="11.4004703"><ele>181.0</ele><time>2026-04-03T14:39:03.968Z</time></trkpt><trkpt lat="45.6232353" lon="11.4004932"><ele>178.8</ele><time>2026-04-03T14:39:04.968Z</time></trkpt><trkpt lat="45.6233563" lon="11.400555"><ele>176.60000000000002</ele><time>2026-04-03T14:39:06.968Z</time></trkpt><trkpt lat="45.6234696" lon="11.4006438"><ele>174.4</ele><time>2026-04-03T14:39:08.967Z</time></trkpt><trkpt lat="45.6235326" lon="11.4006729"><ele>172.2</ele><time>2026-04-03T14:39:09.968Z</time></trkpt><trkpt lat="45.6236082" lon="11.400681"><ele>170.0</ele><time>2026-04-03T14:39:10.968Z</time></trkpt><trkpt lat="45.6236855" lon="11.4006875"><ele>168.2</ele><time>2026-04-03T14:39:11.968Z</time></trkpt><trkpt lat="45.6237696" lon="11.4006744"><ele>166.4</ele><time>2026-04-03T14:39:12.968Z</time></trkpt><trkpt lat="45.6238502" lon="11.4006896"><ele>164.60000000000002</ele><time>2026-04-03T14:39:13.968Z</time></trkpt><trkpt lat="45.6239471" lon="11.4006705"><ele>162.8</ele><time>2026-04-03T14:39:14.967Z</time></trkpt><trkpt lat="45.6240482" lon="11.4006562"><ele>161.0</ele><time>2026-04-03T14:39:15.967Z</time></trkpt><trkpt lat="45.6241651" lon="11.4006329"><ele>161.0</ele><time>2026-04-03T14:39:16.968Z</time></trkpt><trkpt lat="45.624272" lon="11.4006267"><ele>161.0</ele><time>2026-04-03T14:39:17.968Z</time></trkpt><trkpt lat="45.6243735" lon="11.4005403"><ele>161.0</ele><time>2026-04-03T14:39:18.968Z</time></trkpt><trkpt lat="45.6244875" lon="11.4004463"><ele>161.0</ele><time>2026-04-03T14:39:19.968Z</time></trkpt><trkpt lat="45.6246071" lon="11.4004035"><ele>160.75</ele><time>2026-04-03T14:39:20.968Z</time></trkpt><trkpt lat="45.6247442" lon="11.4003931"><ele>160.5</ele><time>2026-04-03T14:39:21.968Z</time></trkpt><trkpt lat="45.6248727" lon="11.4003859"><ele>160.25</ele><time>2026-04-03T14:39:22.968Z</time></trkpt><trkpt lat="45.6249971" lon="11.4003811"><ele>160.0</ele><time>2026-04-03T14:39:23.968Z</time></trkpt><trkpt lat="45.6251122" lon="11.400393"><ele>160.0</ele><time>2026-04-03T14:39:24.968Z</time></trkpt><trkpt lat="45.6252126" lon="11.400434"><ele>160.0</ele><time>2026-04-03T14:39:25.968Z</time></trkpt><trkpt lat="45.6253107" lon="11.400454"><ele>160.0</ele><time>2026-04-03T14:39:26.968Z</time></trkpt><trkpt lat="45.6254056" lon="11.4004467"><ele>160.0</ele><time>2026-04-03T14:39:27.968Z</time></trkpt><trkpt lat="45.6254951" lon="11.400445"><ele>160.0</ele><time>2026-04-03T14:39:28.968Z</time></trkpt><trkpt lat="45.6255702" lon="11.4004461"><ele>157.6</ele><time>2026-04-03T14:39:29.967Z</time></trkpt><trkpt lat="45.6256505" lon="11.4004354"><ele>155.2</ele><time>2026-04-03T14:39:30.968Z</time></trkpt><trkpt lat="45.6257195" lon="11.4005361"><ele>152.8</ele><time>2026-04-03T14:39:31.968Z</time></trkpt><trkpt lat="45.6257688" lon="11.4006697"><ele>150.4</ele><time>2026-04-03T14:39:32.967Z</time></trkpt><trkpt lat="45.6258337" lon="11.4007562"><ele>148.0</ele><time>2026-04-03T14:39:33.967Z</time></trkpt><trkpt lat="45.6258912" lon="11.4008758"><ele>147.16666666666669</ele><time>2026-04-03T14:39:34.967Z</time></trkpt><trkpt lat="45.6259084" lon="11.4009886"><ele>146.33333333333334</ele><time>2026-04-03T14:39:35.967Z</time></trkpt><trkpt lat="45.6258939" lon="11.4010946"><ele>145.5</ele><time>2026-04-03T14:39:36.968Z</time></trkpt><trkpt lat="45.625896" lon="11.4012787"><ele>144.66666666666666</ele><time>2026-04-03T14:39:38.968Z</time></trkpt><trkpt lat="45.6258712" lon="11.4013818"><ele>143.83333333333331</ele><time>2026-04-03T14:39:39.967Z</time></trkpt><trkpt lat="45.6258691" lon="11.401476"><ele>143.0</ele><time>2026-04-03T14:39:40.968Z</time></trkpt><trkpt lat="45.6258517" lon="11.4016175"><ele>141.20000000000002</ele><time>2026-04-03T14:39:41.967Z</time></trkpt><trkpt lat="45.6258133" lon="11.4017495"><ele>139.4</ele><time>2026-04-03T14:39:42.968Z</time></trkpt><trkpt lat="45.6258414" lon="11.4018402"><ele>137.60000000000002</ele><time>2026-04-03T14:39:43.967Z</time></trkpt><trkpt lat="45.6258378" lon="11.4019608"><ele>135.8</ele><time>2026-04-03T14:39:44.967Z</time></trkpt><trkpt lat="45.6258974" lon="11.4021212"><ele>134.0</ele><time>2026-04-03T14:39:46.968Z</time></trkpt><trkpt lat="45.6260004" lon="11.4022"><ele>134.0</ele><time>2026-04-03T14:39:48.969Z</time></trkpt><trkpt lat="45.6260944" lon="11.4021498"><ele>134.0</ele><time>2026-04-03T14:39:49.967Z</time></trkpt><trkpt lat="45.6262103" lon="11.4021014"><ele>134.0</ele><time>2026-04-03T14:39:50.968Z</time></trkpt><trkpt lat="45.6262943" lon="11.4020836"><ele>134.0</ele><time>2026-04-03T14:39:51.968Z</time></trkpt><trkpt lat="45.6263834" lon="11.4020147"><ele>134.0</ele><time>2026-04-03T14:39:52.968Z</time></trkpt><trkpt lat="45.6264548" lon="11.4019843"><ele>130.6</ele><time>2026-04-03T14:39:53.968Z</time></trkpt><trkpt lat="45.6265218" lon="11.401921"><ele>127.2</ele><time>2026-04-03T14:39:54.968Z</time></trkpt><trkpt lat="45.6265901" lon="11.4018411"><ele>123.79999999999998</ele><time>2026-04-03T14:39:55.967Z</time></trkpt><trkpt lat="45.6266847" lon="11.4018249"><ele>120.39999999999999</ele><time>2026-04-03T14:39:57.968Z</time></trkpt><trkpt lat="45.6267388" lon="11.4019884"><ele>117.0</ele><time>2026-04-03T14:39:59.967Z</time></trkpt><trkpt lat="45.6266656" lon="11.4021464"><ele>116.0</ele><time>2026-04-03T14:40:00.967Z</time></trkpt><trkpt lat="45.6266591" lon="11.4022751"><ele>114.99999999999999</ele><time>2026-04-03T14:40:01.969Z</time></trkpt><trkpt lat="45.6266549" lon="11.4024149"><ele>113.99999999999999</ele><time>2026-04-03T14:40:02.967Z</time></trkpt><trkpt lat="45.6266524" lon="11.4025425"><ele>113.0</ele><time>2026-04-03T14:40:03.968Z</time></trkpt><trkpt lat="45.6266576" lon="11.4026789"><ele>112.0</ele><time>2026-04-03T14:40:04.967Z</time></trkpt><trkpt lat="45.6266707" lon="11.4028257"><ele>112.0</ele><time>2026-04-03T14:40:05.969Z</time></trkpt><trkpt lat="45.6266817" lon="11.4029669"><ele>111.99999999999999</ele><time>2026-04-03T14:40:06.968Z</time></trkpt><trkpt lat="45.6266891" lon="11.4031158"><ele>111.99999999999999</ele><time>2026-04-03T14:40:07.968Z</time></trkpt><trkpt lat="45.6266712" lon="11.4032698"><ele>112.0</ele><time>2026-04-03T14:40:08.967Z</time></trkpt><trkpt lat="45.626639" lon="11.4034196"><ele>112.0</ele><time>2026-04-03T14:40:09.968Z</time></trkpt><trkpt lat="45.6265977" lon="11.4035628"><ele>111.33333333333334</ele><time>2026-04-03T14:40:10.968Z</time></trkpt><trkpt lat="45.6265529" lon="11.4036874"><ele>110.66666666666667</ele><time>2026-04-03T14:40:11.967Z</time></trkpt><trkpt lat="45.6265129" lon="11.403798"><ele>110.0</ele><time>2026-04-03T14:40:12.969Z</time></trkpt><trkpt lat="45.6264348" lon="11.4038891"><ele>109.33333333333334</ele><time>2026-04-03T14:40:13.968Z</time></trkpt><trkpt lat="45.6263949" lon="11.4039695"><ele>108.66666666666667</ele><time>2026-04-03T14:40:14.967Z</time></trkpt><trkpt lat="45.6263455" lon="11.4040575"><ele>108.0</ele><time>2026-04-03T14:40:15.967Z</time></trkpt><trkpt lat="45.6263117" lon="11.4041404"><ele>107.5</ele><time>2026-04-03T14:40:16.968Z</time></trkpt><trkpt lat="45.6263145" lon="11.4042357"><ele>107.0</ele><time>2026-04-03T14:40:17.968Z</time></trkpt><trkpt lat="45.6264112" lon="11.4043537"><ele>106.5</ele><time>2026-04-03T14:40:18.968Z</time></trkpt><trkpt lat="45.626472" lon="11.4044221"><ele>106.0</ele><time>2026-04-03T14:40:19.967Z</time></trkpt><trkpt lat="45.6265407" lon="11.4044888"><ele>105.5</ele><time>2026-04-03T14:40:20.967Z</time></trkpt><trkpt lat="45.6266045" lon="11.4045697"><ele>105.0</ele><time>2026-04-03T14:40:21.969Z</time></trkpt><trkpt lat="45.6266737" lon="11.4046721"><ele>103.5</ele><time>2026-04-03T14:40:22.968Z</time></trkpt><trkpt lat="45.6267333" lon="11.4047684"><ele>102.0</ele><time>2026-04-03T14:40:23.968Z</time></trkpt><trkpt lat="45.6267957" lon="11.4048661"><ele>100.5</ele><time>2026-04-03T14:40:24.969Z</time></trkpt><trkpt lat="45.6268449" lon="11.4049454"><ele>99.0</ele><time>2026-04-03T14:40:25.969Z</time></trkpt><trkpt lat="45.626908" lon="11.4050265"><ele>97.5</ele><time>2026-04-03T14:40:26.968Z</time></trkpt><trkpt lat="45.626977" lon="11.4051024"><ele>96.0</ele><time>2026-04-03T14:40:27.967Z</time></trkpt><trkpt lat="45.6270453" lon="11.4051932"><ele>95.0</ele><time>2026-04-03T14:40:28.968Z</time></trkpt><trkpt lat="45.627117" lon="11.4052799"><ele>94.0</ele><time>2026-04-03T14:40:29.968Z</time></trkpt><trkpt lat="45.6271903" lon="11.4053595"><ele>93.0</ele><time>2026-04-03T14:40:30.968Z</time></trkpt><trkpt lat="45.6272583" lon="11.4054589"><ele>92.0</ele><time>2026-04-03T14:40:31.968Z</time></trkpt><trkpt lat="45.6273151" lon="11.4055369"><ele>91.0</ele><time>2026-04-03T14:40:32.969Z</time></trkpt><trkpt lat="45.6273918" lon="11.4056138"><ele>90.6</ele><time>2026-04-03T14:40:33.968Z</time></trkpt><trkpt lat="45.6274684" lon="11.4056971"><ele>90.19999999999999</ele><time>2026-04-03T14:40:34.968Z</time></trkpt><trkpt lat="45.6275383" lon="11.4057808"><ele>89.80000000000001</ele><time>2026-04-03T14:40:35.968Z</time></trkpt><trkpt lat="45.6276037" lon="11.405872"><ele>89.4</ele><time>2026-04-03T14:40:36.967Z</time></trkpt><trkpt lat="45.6276748" lon="11.4059497"><ele>89.0</ele><time>2026-04-03T14:40:37.968Z</time></trkpt><trkpt lat="45.6277361" lon="11.4060347"><ele>89.0</ele><time>2026-04-03T14:40:38.969Z</time></trkpt><trkpt lat="45.6277874" lon="11.4061336"><ele>89.0</ele><time>2026-04-03T14:40:39.968Z</time></trkpt><trkpt lat="45.6278415" lon="11.406215"><ele>89.0</ele><time>2026-04-03T14:40:40.968Z</time></trkpt><trkpt lat="45.6278942" lon="11.4062915"><ele>89.0</ele><time>2026-04-03T14:40:41.967Z</time></trkpt><trkpt lat="45.6279399" lon="11.4063622"><ele>89.0</ele><time>2026-04-03T14:40:42.968Z</time></trkpt><trkpt lat="45.6280245" lon="11.4064546"><ele>89.0</ele><time>2026-04-03T14:40:44.969Z</time></trkpt><trkpt lat="45.628116" lon="11.4064289"><ele>89.6</ele><time>2026-04-03T14:40:46.967Z</time></trkpt><trkpt lat="45.6281136" lon="11.4062718"><ele>90.2</ele><time>2026-04-03T14:40:48.968Z</time></trkpt><trkpt lat="45.6281689" lon="11.4063586"><ele>90.8</ele><time>2026-04-03T14:40:52.967Z</time></trkpt><trkpt lat="45.6281614" lon="11.4064745"><ele>91.39999999999999</ele><time>2026-04-03T14:40:54.969Z</time></trkpt><trkpt lat="45.6281276" lon="11.406601"><ele>92.0</ele><time>2026-04-03T14:40:56.967Z</time></trkpt><trkpt lat="45.628142" lon="11.406754"><ele>92.0</ele><time>2026-04-03T14:40:58.967Z</time></trkpt><trkpt lat="45.6282061" lon="11.4068931"><ele>92.0</ele><time>2026-04-03T14:41:00.969Z</time></trkpt><trkpt lat="45.6282158" lon="11.4070878"><ele>92.0</ele><time>2026-04-03T14:41:02.968Z</time></trkpt><trkpt lat="45.6281808" lon="11.4071868"><ele>90.0</ele><time>2026-04-03T14:41:04.968Z</time></trkpt></trkseg><trkseg><trkpt lat="45.6338398" lon="11.416166"><ele>153.0</ele><time>2026-04-03T14:58:34.9Z</time></trkpt><trkpt lat="45.6338828" lon="11.4160907"><ele>153.0</ele><time>2026-04-03T14:58:39.967Z</time></trkpt><trkpt lat="45.6339351" lon="11.4160252"><ele>153.0</ele><time>2026-04-03T14:58:45.967Z</time></trkpt><trkpt lat="45.634014" lon="11.4159892"><ele>153.0</ele><time>2026-04-03T14:58:57.969Z</time></trkpt><trkpt lat="45.6340702" lon="11.4159381"><ele>153.0</ele><time>2026-04-03T14:59:03.967Z</time></trkpt><trkpt lat="45.6341355" lon="11.415909"><ele>153.0</ele><time>2026-04-03T14:59:09.967Z</time></trkpt><trkpt lat="45.6342021" lon="11.4158793"><ele>153.0</ele><time>2026-04-03T14:59:14.966Z</time></trkpt><trkpt lat="45.6342613" lon="11.4158345"><ele>153.0</ele><time>2026-04-03T14:59:20.967Z</time></trkpt><trkpt lat="45.6342814" lon="11.4157194"><ele>153.0</ele><time>2026-04-03T14:59:25.966Z</time></trkpt><trkpt lat="45.6343229" lon="11.4156299"><ele>153.0</ele><time>2026-04-03T14:59:29.967Z</time></trkpt><trkpt lat="45.6343577" lon="11.4155459"><ele>153.0</ele><time>2026-04-03T14:59:34.967Z</time></trkpt><trkpt lat="45.6343905" lon="11.4154593"><ele>153.0</ele><time>2026-04-03T14:59:40.967Z</time></trkpt><trkpt lat="45.634279" lon="11.415411"><ele>153.0</ele><time>2026-04-03T14:59:54.966Z</time></trkpt><trkpt lat="45.6342627" lon="11.4153234"><ele>153.0</ele><time>2026-04-03T15:00:01.967Z</time></trkpt><trkpt lat="45.6343214" lon="11.4153878"><ele>153.0</ele><time>2026-04-03T15:02:41.966Z</time></trkpt><trkpt lat="45.6342549" lon="11.4154349"><ele>153.0</ele><time>2026-04-03T15:02:58.966Z</time></trkpt><trkpt lat="45.6341909" lon="11.4154436"><ele>153.0</ele><time>2026-04-03T15:03:04.965Z</time></trkpt><trkpt lat="45.6342833" lon="11.4153295"><ele>153.0</ele><time>2026-04-03T15:04:17.967Z</time></trkpt></trkseg></trk></gpx>